<?xml version='1.0' encoding='UTF-8'?>
<gpx version="1.1" creator="https://www.komoot.de" xmlns="http://www.topografix.com/GPX/1/1" xmlns:xsi="http://www.w3.org/2001/XMLSchema-instance" xsi:schemaLocation="http://www.topografix.com/GPX/1/1 http://www.topografix.com/GPX/1/1/gpx.xsd">
  <metadata>
    <name>GVA-MAR - Day 5</name>
    <author>
      <link href="https://www.komoot.de">
        <text>komoot</text>
        <type>text/html</type>
      </link>
    </author>
  </metadata>
  <trk>
    <name>GVA-MAR - Day 5</name>
    <trkseg>
      <trkpt lat="45.070252" lon="5.243299">
        <ele>188.829595</ele>
        <time>2017-06-04T16:39:03.027Z</time>
      </trkpt>
      <trkpt lat="45.069817" lon="5.243936">
        <ele>188.829595</ele>
        <time>2017-06-04T16:39:12.514Z</time>
      </trkpt>
      <trkpt lat="45.069762" lon="5.243891">
        <ele>188.829595</ele>
        <time>2017-06-04T16:39:13.444Z</time>
      </trkpt>
      <trkpt lat="45.069708" lon="5.243935">
        <ele>188.829595</ele>
        <time>2017-06-04T16:39:14.364Z</time>
      </trkpt>
      <trkpt lat="45.069700" lon="5.243991">
        <ele>188.829595</ele>
        <time>2017-06-04T16:39:14.948Z</time>
      </trkpt>
      <trkpt lat="45.069251" lon="5.243755">
        <ele>186.926888</ele>
        <time>2017-06-04T16:39:21.787Z</time>
      </trkpt>
      <trkpt lat="45.068235" lon="5.243398">
        <ele>181.566599</ele>
        <time>2017-06-04T16:39:36.883Z</time>
      </trkpt>
      <trkpt lat="45.068144" lon="5.243366">
        <ele>181.086473</ele>
        <time>2017-06-04T16:39:38.212Z</time>
      </trkpt>
      <trkpt lat="45.066112" lon="5.242627">
        <ele>180.397020</ele>
        <time>2017-06-04T16:40:27.134Z</time>
      </trkpt>
      <trkpt lat="45.065781" lon="5.242489">
        <ele>181.510406</ele>
        <time>2017-06-04T16:40:41.672Z</time>
      </trkpt>
      <trkpt lat="45.065573" lon="5.242330">
        <ele>182.273137</ele>
        <time>2017-06-04T16:40:51.588Z</time>
      </trkpt>
      <trkpt lat="45.065392" lon="5.241743">
        <ele>183.732853</ele>
        <time>2017-06-04T16:41:09.708Z</time>
      </trkpt>
      <trkpt lat="45.065328" lon="5.241532">
        <ele>184.256196</ele>
        <time>2017-06-04T16:41:16.170Z</time>
      </trkpt>
      <trkpt lat="45.065227" lon="5.241146">
        <ele>185.194328</ele>
        <time>2017-06-04T16:41:26.747Z</time>
      </trkpt>
      <trkpt lat="45.065519" lon="5.240907">
        <ele>186.138884</ele>
        <time>2017-06-04T16:41:38.436Z</time>
      </trkpt>
      <trkpt lat="45.065628" lon="5.240885">
        <ele>186.080081</ele>
        <time>2017-06-04T16:41:41.848Z</time>
      </trkpt>
      <trkpt lat="45.065899" lon="5.240635">
        <ele>185.907333</ele>
        <time>2017-06-04T16:41:50.055Z</time>
      </trkpt>
      <trkpt lat="45.066262" lon="5.239360">
        <ele>185.388776</ele>
        <time>2017-06-04T16:42:07.536Z</time>
      </trkpt>
      <trkpt lat="45.066383" lon="5.239085">
        <ele>185.266558</ele>
        <time>2017-06-04T16:42:11.602Z</time>
      </trkpt>
      <trkpt lat="45.066550" lon="5.238874">
        <ele>185.227892</ele>
        <time>2017-06-04T16:42:15.683Z</time>
      </trkpt>
      <trkpt lat="45.066668" lon="5.238603">
        <ele>185.295809</ele>
        <time>2017-06-04T16:42:19.897Z</time>
      </trkpt>
      <trkpt lat="45.066786" lon="5.238109">
        <ele>185.407060</ele>
        <time>2017-06-04T16:42:27.320Z</time>
      </trkpt>
      <trkpt lat="45.066972" lon="5.237696">
        <ele>185.511554</ele>
        <time>2017-06-04T16:42:35.101Z</time>
      </trkpt>
      <trkpt lat="45.066844" lon="5.237185">
        <ele>185.627219</ele>
        <time>2017-06-04T16:42:45.953Z</time>
      </trkpt>
      <trkpt lat="45.066774" lon="5.236747">
        <ele>185.723021</ele>
        <time>2017-06-04T16:42:55.560Z</time>
      </trkpt>
      <trkpt lat="45.066741" lon="5.236188">
        <ele>186.251878</ele>
        <time>2017-06-04T16:43:07.449Z</time>
      </trkpt>
      <trkpt lat="45.066780" lon="5.235569">
        <ele>186.922995</ele>
        <time>2017-06-04T16:43:20.662Z</time>
      </trkpt>
      <trkpt lat="45.066769" lon="5.235282">
        <ele>187.233384</ele>
        <time>2017-06-04T16:43:27.548Z</time>
      </trkpt>
      <trkpt lat="45.066839" lon="5.235054">
        <ele>187.501859</ele>
        <time>2017-06-04T16:43:32.027Z</time>
      </trkpt>
      <trkpt lat="45.066996" lon="5.234577">
        <ele>188.070162</ele>
        <time>2017-06-04T16:43:42.309Z</time>
      </trkpt>
      <trkpt lat="45.067494" lon="5.233544">
        <ele>188.351882</ele>
        <time>2017-06-04T16:44:04.232Z</time>
      </trkpt>
      <trkpt lat="45.067532" lon="5.233342">
        <ele>188.317803</ele>
        <time>2017-06-04T16:44:06.985Z</time>
      </trkpt>
      <trkpt lat="45.067958" lon="5.232799">
        <ele>188.185497</ele>
        <time>2017-06-04T16:44:18.746Z</time>
      </trkpt>
      <trkpt lat="45.068254" lon="5.232472">
        <ele>188.098837</ele>
        <time>2017-06-04T16:44:26.681Z</time>
      </trkpt>
      <trkpt lat="45.068256" lon="5.232380">
        <ele>188.083832</ele>
        <time>2017-06-04T16:44:28.127Z</time>
      </trkpt>
      <trkpt lat="45.068259" lon="5.232330">
        <ele>188.077963</ele>
        <time>2017-06-04T16:44:28.777Z</time>
      </trkpt>
      <trkpt lat="45.068455" lon="5.232258">
        <ele>188.116712</ele>
        <time>2017-06-04T16:44:33.288Z</time>
      </trkpt>
      <trkpt lat="45.068647" lon="5.232144">
        <ele>188.156554</ele>
        <time>2017-06-04T16:44:37.761Z</time>
      </trkpt>
      <trkpt lat="45.069063" lon="5.231750">
        <ele>188.252330</ele>
        <time>2017-06-04T16:44:49.224Z</time>
      </trkpt>
      <trkpt lat="45.069257" lon="5.231349">
        <ele>188.318022</ele>
        <time>2017-06-04T16:44:57.814Z</time>
      </trkpt>
      <trkpt lat="45.069459" lon="5.230930">
        <ele>188.386586</ele>
        <time>2017-06-04T16:45:07.173Z</time>
      </trkpt>
      <trkpt lat="45.069736" lon="5.230517">
        <ele>188.571454</ele>
        <time>2017-06-04T16:45:18.161Z</time>
      </trkpt>
      <trkpt lat="45.069969" lon="5.230185">
        <ele>188.795484</ele>
        <time>2017-06-04T16:45:27.122Z</time>
      </trkpt>
      <trkpt lat="45.070564" lon="5.229338">
        <ele>189.367298</ele>
        <time>2017-06-04T16:45:49.129Z</time>
      </trkpt>
      <trkpt lat="45.070608" lon="5.229280">
        <ele>189.408041</ele>
        <time>2017-06-04T16:45:50.854Z</time>
      </trkpt>
      <trkpt lat="45.070705" lon="5.229153">
        <ele>189.497578</ele>
        <time>2017-06-04T16:45:53.947Z</time>
      </trkpt>
      <trkpt lat="45.071546" lon="5.228201">
        <ele>189.485637</ele>
        <time>2017-06-04T16:46:19.942Z</time>
      </trkpt>
      <trkpt lat="45.072302" lon="5.227335">
        <ele>189.265709</ele>
        <time>2017-06-04T16:46:41.059Z</time>
      </trkpt>
      <trkpt lat="45.073706" lon="5.226067">
        <ele>187.038587</ele>
        <time>2017-06-04T16:47:13.649Z</time>
      </trkpt>
      <trkpt lat="45.074030" lon="5.225865">
        <ele>186.527567</ele>
        <time>2017-06-04T16:47:19.971Z</time>
      </trkpt>
      <trkpt lat="45.074531" lon="5.225758">
        <ele>185.776973</ele>
        <time>2017-06-04T16:47:29.246Z</time>
      </trkpt>
      <trkpt lat="45.074947" lon="5.225775">
        <ele>185.160438</ele>
        <time>2017-06-04T16:47:37.176Z</time>
      </trkpt>
      <trkpt lat="45.075216" lon="5.225852">
        <ele>184.753872</ele>
        <time>2017-06-04T16:47:42.467Z</time>
      </trkpt>
      <trkpt lat="45.075752" lon="5.225805">
        <ele>184.423852</ele>
        <time>2017-06-04T16:47:53.688Z</time>
      </trkpt>
      <trkpt lat="45.076300" lon="5.226024">
        <ele>184.929737</ele>
        <time>2017-06-04T16:48:06.904Z</time>
      </trkpt>
      <trkpt lat="45.076440" lon="5.225930">
        <ele>185.067392</ele>
        <time>2017-06-04T16:48:11.370Z</time>
      </trkpt>
      <trkpt lat="45.076546" lon="5.225723">
        <ele>185.227813</ele>
        <time>2017-06-04T16:48:16.461Z</time>
      </trkpt>
      <trkpt lat="45.076227" lon="5.224804">
        <ele>185.879491</ele>
        <time>2017-06-04T16:48:39.635Z</time>
      </trkpt>
      <trkpt lat="45.076258" lon="5.224653">
        <ele>186.017760</ele>
        <time>2017-06-04T16:48:43.047Z</time>
      </trkpt>
      <trkpt lat="45.076349" lon="5.224520">
        <ele>186.180594</ele>
        <time>2017-06-04T16:48:47.077Z</time>
      </trkpt>
      <trkpt lat="45.076770" lon="5.224314">
        <ele>186.735213</ele>
        <time>2017-06-04T16:49:00.453Z</time>
      </trkpt>
      <trkpt lat="45.078197" lon="5.223776">
        <ele>188.065293</ele>
        <time>2017-06-04T16:49:39.841Z</time>
      </trkpt>
      <trkpt lat="45.078355" lon="5.223630">
        <ele>188.054870</ele>
        <time>2017-06-04T16:49:44.140Z</time>
      </trkpt>
      <trkpt lat="45.079071" lon="5.221959">
        <ele>187.801729</ele>
        <time>2017-06-04T16:50:14.418Z</time>
      </trkpt>
      <trkpt lat="45.079189" lon="5.221447">
        <ele>187.363797</ele>
        <time>2017-06-04T16:50:22.325Z</time>
      </trkpt>
      <trkpt lat="45.079350" lon="5.221031">
        <ele>186.978064</ele>
        <time>2017-06-04T16:50:29.180Z</time>
      </trkpt>
      <trkpt lat="45.079471" lon="5.220289">
        <ele>186.358850</ele>
        <time>2017-06-04T16:50:39.304Z</time>
      </trkpt>
      <trkpt lat="45.079726" lon="5.219256">
        <ele>185.511116</ele>
        <time>2017-06-04T16:50:54.201Z</time>
      </trkpt>
      <trkpt lat="45.079804" lon="5.219050">
        <ele>185.338925</ele>
        <time>2017-06-04T16:50:57.609Z</time>
      </trkpt>
      <trkpt lat="45.079798" lon="5.218870">
        <ele>185.206179</ele>
        <time>2017-06-04T16:50:59.880Z</time>
      </trkpt>
      <trkpt lat="45.079792" lon="5.218687">
        <ele>185.071227</ele>
        <time>2017-06-04T16:51:02.575Z</time>
      </trkpt>
      <trkpt lat="45.079836" lon="5.218560">
        <ele>184.967017</ele>
        <time>2017-06-04T16:51:04.699Z</time>
      </trkpt>
      <trkpt lat="45.080035" lon="5.218385">
        <ele>184.722644</ele>
        <time>2017-06-04T16:51:09.206Z</time>
      </trkpt>
      <trkpt lat="45.080119" lon="5.218169">
        <ele>184.540992</ele>
        <time>2017-06-04T16:51:12.856Z</time>
      </trkpt>
      <trkpt lat="45.080407" lon="5.217142">
        <ele>184.227957</ele>
        <time>2017-06-04T16:51:29.335Z</time>
      </trkpt>
      <trkpt lat="45.080677" lon="5.216629">
        <ele>184.511098</ele>
        <time>2017-06-04T16:51:40.588Z</time>
      </trkpt>
      <trkpt lat="45.080934" lon="5.215779">
        <ele>184.920276</ele>
        <time>2017-06-04T16:51:58.601Z</time>
      </trkpt>
      <trkpt lat="45.081293" lon="5.214880">
        <ele>185.795193</ele>
        <time>2017-06-04T16:52:19.179Z</time>
      </trkpt>
      <trkpt lat="45.081341" lon="5.214589">
        <ele>186.190394</ele>
        <time>2017-06-04T16:52:25.530Z</time>
      </trkpt>
      <trkpt lat="45.081453" lon="5.214228">
        <ele>186.711858</ele>
        <time>2017-06-04T16:52:33.696Z</time>
      </trkpt>
      <trkpt lat="45.081661" lon="5.213828">
        <ele>187.368813</ele>
        <time>2017-06-04T16:52:44.514Z</time>
      </trkpt>
      <trkpt lat="45.082018" lon="5.212921">
        <ele>188.748057</ele>
        <time>2017-06-04T16:53:08.906Z</time>
      </trkpt>
      <trkpt lat="45.082044" lon="5.212709">
        <ele>189.040894</ele>
        <time>2017-06-04T16:53:14.000Z</time>
      </trkpt>
      <trkpt lat="45.082002" lon="5.212614">
        <ele>189.193435</ele>
        <time>2017-06-04T16:53:16.530Z</time>
      </trkpt>
      <trkpt lat="45.081410" lon="5.212294">
        <ele>190.414748</ele>
        <time>2017-06-04T16:53:36.567Z</time>
      </trkpt>
      <trkpt lat="45.080910" lon="5.212071">
        <ele>191.425113</ele>
        <time>2017-06-04T16:53:52.542Z</time>
      </trkpt>
      <trkpt lat="45.080806" lon="5.212028">
        <ele>191.633932</ele>
        <time>2017-06-04T16:53:55.689Z</time>
      </trkpt>
      <trkpt lat="45.080360" lon="5.211822">
        <ele>192.092409</ele>
        <time>2017-06-04T16:54:09.307Z</time>
      </trkpt>
      <trkpt lat="45.080515" lon="5.211589">
        <ele>192.165464</ele>
        <time>2017-06-04T16:54:15.383Z</time>
      </trkpt>
      <trkpt lat="45.081025" lon="5.210153">
        <ele>192.532300</ele>
        <time>2017-06-04T16:54:41.714Z</time>
      </trkpt>
      <trkpt lat="45.081038" lon="5.210013">
        <ele>192.564525</ele>
        <time>2017-06-04T16:54:43.815Z</time>
      </trkpt>
      <trkpt lat="45.081543" lon="5.209371">
        <ele>192.377005</ele>
        <time>2017-06-04T16:54:58.417Z</time>
      </trkpt>
      <trkpt lat="45.082019" lon="5.208609">
        <ele>192.136684</ele>
        <time>2017-06-04T16:55:13.912Z</time>
      </trkpt>
      <trkpt lat="45.082338" lon="5.207968">
        <ele>191.991404</ele>
        <time>2017-06-04T16:55:26.463Z</time>
      </trkpt>
      <trkpt lat="45.082430" lon="5.207728">
        <ele>192.010623</ele>
        <time>2017-06-04T16:55:30.824Z</time>
      </trkpt>
      <trkpt lat="45.082592" lon="5.206743">
        <ele>192.081799</ele>
        <time>2017-06-04T16:55:47.647Z</time>
      </trkpt>
      <trkpt lat="45.082708" lon="5.206216">
        <ele>192.120647</ele>
        <time>2017-06-04T16:55:56.992Z</time>
      </trkpt>
      <trkpt lat="45.082725" lon="5.205680">
        <ele>192.158407</ele>
        <time>2017-06-04T16:56:06.088Z</time>
      </trkpt>
      <trkpt lat="45.082627" lon="5.204289">
        <ele>192.484956</ele>
        <time>2017-06-04T16:56:30.598Z</time>
      </trkpt>
      <trkpt lat="45.082659" lon="5.203418">
        <ele>192.693321</ele>
        <time>2017-06-04T16:56:45.736Z</time>
      </trkpt>
      <trkpt lat="45.082543" lon="5.202596">
        <ele>192.906819</ele>
        <time>2017-06-04T16:57:00.199Z</time>
      </trkpt>
      <trkpt lat="45.082407" lon="5.202114">
        <ele>193.044112</ele>
        <time>2017-06-04T16:57:09.120Z</time>
      </trkpt>
      <trkpt lat="45.082401" lon="5.201450">
        <ele>193.219758</ele>
        <time>2017-06-04T16:57:20.537Z</time>
      </trkpt>
      <trkpt lat="45.082338" lon="5.200780">
        <ele>193.398540</ele>
        <time>2017-06-04T16:57:32.309Z</time>
      </trkpt>
      <trkpt lat="45.082425" lon="5.200024">
        <ele>193.698738</ele>
        <time>2017-06-04T16:57:46.520Z</time>
      </trkpt>
      <trkpt lat="45.082420" lon="5.199709">
        <ele>193.833787</ele>
        <time>2017-06-04T16:57:52.227Z</time>
      </trkpt>
      <trkpt lat="45.082343" lon="5.199276">
        <ele>194.025174</ele>
        <time>2017-06-04T16:58:00.301Z</time>
      </trkpt>
      <trkpt lat="45.082063" lon="5.198990">
        <ele>194.234737</ele>
        <time>2017-06-04T16:58:09.182Z</time>
      </trkpt>
      <trkpt lat="45.081938" lon="5.198931">
        <ele>194.314719</ele>
        <time>2017-06-04T16:58:12.824Z</time>
      </trkpt>
      <trkpt lat="45.081539" lon="5.198674">
        <ele>194.544305</ele>
        <time>2017-06-04T16:58:23.895Z</time>
      </trkpt>
      <trkpt lat="45.081399" lon="5.198533">
        <ele>194.564235</ele>
        <time>2017-06-04T16:58:28.092Z</time>
      </trkpt>
      <trkpt lat="45.081348" lon="5.198393">
        <ele>194.577140</ele>
        <time>2017-06-04T16:58:31.111Z</time>
      </trkpt>
      <trkpt lat="45.081334" lon="5.198235">
        <ele>194.590184</ele>
        <time>2017-06-04T16:58:33.811Z</time>
      </trkpt>
      <trkpt lat="45.081381" lon="5.198005">
        <ele>194.609798</ele>
        <time>2017-06-04T16:58:38.010Z</time>
      </trkpt>
      <trkpt lat="45.082021" lon="5.195876">
        <ele>194.562274</ele>
        <time>2017-06-04T16:59:15.329Z</time>
      </trkpt>
      <trkpt lat="45.082007" lon="5.195488">
        <ele>194.456913</ele>
        <time>2017-06-04T16:59:21.288Z</time>
      </trkpt>
      <trkpt lat="45.081888" lon="5.194969">
        <ele>194.308928</ele>
        <time>2017-06-04T16:59:29.653Z</time>
      </trkpt>
      <trkpt lat="45.081599" lon="5.194082">
        <ele>194.038125</ele>
        <time>2017-06-04T16:59:44.410Z</time>
      </trkpt>
      <trkpt lat="45.081046" lon="5.192817">
        <ele>193.385680</ele>
        <time>2017-06-04T17:00:06.685Z</time>
      </trkpt>
      <trkpt lat="45.080526" lon="5.191952">
        <ele>192.890492</ele>
        <time>2017-06-04T17:00:23.555Z</time>
      </trkpt>
      <trkpt lat="45.079824" lon="5.191083">
        <ele>192.346836</ele>
        <time>2017-06-04T17:00:43.147Z</time>
      </trkpt>
      <trkpt lat="45.078864" lon="5.189526">
        <ele>191.654948</ele>
        <time>2017-06-04T17:01:14.600Z</time>
      </trkpt>
      <trkpt lat="45.078061" lon="5.187987">
        <ele>191.126031</ele>
        <time>2017-06-04T17:01:44.771Z</time>
      </trkpt>
      <trkpt lat="45.077702" lon="5.187448">
        <ele>190.802851</ele>
        <time>2017-06-04T17:01:56.083Z</time>
      </trkpt>
      <trkpt lat="45.077534" lon="5.187324">
        <ele>190.685829</ele>
        <time>2017-06-04T17:02:00.102Z</time>
      </trkpt>
      <trkpt lat="45.077457" lon="5.186874">
        <ele>190.483867</ele>
        <time>2017-06-04T17:02:07.000Z</time>
      </trkpt>
      <trkpt lat="45.077361" lon="5.186544">
        <ele>190.328191</ele>
        <time>2017-06-04T17:02:12.274Z</time>
      </trkpt>
      <trkpt lat="45.077241" lon="5.186259">
        <ele>190.183457</ele>
        <time>2017-06-04T17:02:17.001Z</time>
      </trkpt>
      <trkpt lat="45.077287" lon="5.186203">
        <ele>190.141578</ele>
        <time>2017-06-04T17:02:18.250Z</time>
      </trkpt>
      <trkpt lat="45.077367" lon="5.186036">
        <ele>190.004269</ele>
        <time>2017-06-04T17:02:21.133Z</time>
      </trkpt>
      <trkpt lat="45.077392" lon="5.185805">
        <ele>189.845257</ele>
        <time>2017-06-04T17:02:24.386Z</time>
      </trkpt>
      <trkpt lat="45.077454" lon="5.184904">
        <ele>189.229297</ele>
        <time>2017-06-04T17:02:37.234Z</time>
      </trkpt>
      <trkpt lat="45.077526" lon="5.184540">
        <ele>188.972092</ele>
        <time>2017-06-04T17:02:42.618Z</time>
      </trkpt>
      <trkpt lat="45.077610" lon="5.184255">
        <ele>188.761960</ele>
        <time>2017-06-04T17:02:46.957Z</time>
      </trkpt>
      <trkpt lat="45.077582" lon="5.184160">
        <ele>188.691916</ele>
        <time>2017-06-04T17:02:48.399Z</time>
      </trkpt>
      <trkpt lat="45.077006" lon="5.183173">
        <ele>188.047718</ele>
        <time>2017-06-04T17:03:07.472Z</time>
      </trkpt>
      <trkpt lat="45.076612" lon="5.182142">
        <ele>187.551848</ele>
        <time>2017-06-04T17:03:25.593Z</time>
      </trkpt>
      <trkpt lat="45.076324" lon="5.181592">
        <ele>187.266361</ele>
        <time>2017-06-04T17:03:35.466Z</time>
      </trkpt>
      <trkpt lat="45.076250" lon="5.181496">
        <ele>187.209315</ele>
        <time>2017-06-04T17:03:37.424Z</time>
      </trkpt>
      <trkpt lat="45.076163" lon="5.181341">
        <ele>187.129838</ele>
        <time>2017-06-04T17:03:40.853Z</time>
      </trkpt>
      <trkpt lat="45.075992" lon="5.180853">
        <ele>186.911164</ele>
        <time>2017-06-04T17:03:48.951Z</time>
      </trkpt>
      <trkpt lat="45.075922" lon="5.180718">
        <ele>186.843935</ele>
        <time>2017-06-04T17:03:51.115Z</time>
      </trkpt>
      <trkpt lat="45.075759" lon="5.180585">
        <ele>186.737001</ele>
        <time>2017-06-04T17:03:55.711Z</time>
      </trkpt>
      <trkpt lat="45.075790" lon="5.180511">
        <ele>186.702464</ele>
        <time>2017-06-04T17:03:57.053Z</time>
      </trkpt>
      <trkpt lat="45.075847" lon="5.180338">
        <ele>186.625835</ele>
        <time>2017-06-04T17:03:59.392Z</time>
      </trkpt>
      <trkpt lat="45.075904" lon="5.179947">
        <ele>186.465576</ele>
        <time>2017-06-04T17:04:06.020Z</time>
      </trkpt>
      <trkpt lat="45.075925" lon="5.179844">
        <ele>186.422543</ele>
        <time>2017-06-04T17:04:07.272Z</time>
      </trkpt>
      <trkpt lat="45.075802" lon="5.179784">
        <ele>186.348595</ele>
        <time>2017-06-04T17:04:10.851Z</time>
      </trkpt>
      <trkpt lat="45.075638" lon="5.179647">
        <ele>186.370606</ele>
        <time>2017-06-04T17:04:14.782Z</time>
      </trkpt>
      <trkpt lat="45.075015" lon="5.178970">
        <ele>186.645414</ele>
        <time>2017-06-04T17:04:32.523Z</time>
      </trkpt>
      <trkpt lat="45.074683" lon="5.178670">
        <ele>186.783233</ele>
        <time>2017-06-04T17:04:42.771Z</time>
      </trkpt>
      <trkpt lat="45.074250" lon="5.178537">
        <ele>186.938282</ele>
        <time>2017-06-04T17:04:54.983Z</time>
      </trkpt>
      <trkpt lat="45.073825" lon="5.178527">
        <ele>187.383007</ele>
        <time>2017-06-04T17:05:06.932Z</time>
      </trkpt>
      <trkpt lat="45.073214" lon="5.178525">
        <ele>188.060002</ele>
        <time>2017-06-04T17:05:23.995Z</time>
      </trkpt>
      <trkpt lat="45.072927" lon="5.178522">
        <ele>188.378009</ele>
        <time>2017-06-04T17:05:31.968Z</time>
      </trkpt>
      <trkpt lat="45.072835" lon="5.178513">
        <ele>188.480189</ele>
        <time>2017-06-04T17:05:34.530Z</time>
      </trkpt>
      <trkpt lat="45.072767" lon="5.178477">
        <ele>188.560627</ele>
        <time>2017-06-04T17:05:36.661Z</time>
      </trkpt>
      <trkpt lat="45.072659" lon="5.178404">
        <ele>188.693226</ele>
        <time>2017-06-04T17:05:39.828Z</time>
      </trkpt>
      <trkpt lat="45.072474" lon="5.178252">
        <ele>188.930215</ele>
        <time>2017-06-04T17:05:45.773Z</time>
      </trkpt>
      <trkpt lat="45.072261" lon="5.178068">
        <ele>189.044688</ele>
        <time>2017-06-04T17:05:52.616Z</time>
      </trkpt>
      <trkpt lat="45.071210" lon="5.177053">
        <ele>189.587289</ele>
        <time>2017-06-04T17:06:24.583Z</time>
      </trkpt>
      <trkpt lat="45.071068" lon="5.176880">
        <ele>189.667187</ele>
        <time>2017-06-04T17:06:28.995Z</time>
      </trkpt>
      <trkpt lat="45.070928" lon="5.176659">
        <ele>189.646381</ele>
        <time>2017-06-04T17:06:33.465Z</time>
      </trkpt>
      <trkpt lat="45.070680" lon="5.176032">
        <ele>189.345857</ele>
        <time>2017-06-04T17:06:44.407Z</time>
      </trkpt>
      <trkpt lat="45.070433" lon="5.175001">
        <ele>188.890574</ele>
        <time>2017-06-04T17:07:00.338Z</time>
      </trkpt>
      <trkpt lat="45.070252" lon="5.174634">
        <ele>188.703381</ele>
        <time>2017-06-04T17:07:06.724Z</time>
      </trkpt>
      <trkpt lat="45.069200" lon="5.173286">
        <ele>187.946765</ele>
        <time>2017-06-04T17:07:37.116Z</time>
      </trkpt>
      <trkpt lat="45.068558" lon="5.172796">
        <ele>187.341500</ele>
        <time>2017-06-04T17:07:53.431Z</time>
      </trkpt>
      <trkpt lat="45.068186" lon="5.172384">
        <ele>186.679679</ele>
        <time>2017-06-04T17:08:02.899Z</time>
      </trkpt>
      <trkpt lat="45.068012" lon="5.172165">
        <ele>186.353441</ele>
        <time>2017-06-04T17:08:07.591Z</time>
      </trkpt>
      <trkpt lat="45.067428" lon="5.171427">
        <ele>185.256529</ele>
        <time>2017-06-04T17:08:22.300Z</time>
      </trkpt>
      <trkpt lat="45.067387" lon="5.171390">
        <ele>185.188397</ele>
        <time>2017-06-04T17:08:23.132Z</time>
      </trkpt>
      <trkpt lat="45.067360" lon="5.171366">
        <ele>185.104680</ele>
        <time>2017-06-04T17:08:23.626Z</time>
      </trkpt>
      <trkpt lat="45.067135" lon="5.171228">
        <ele>184.312501</ele>
        <time>2017-06-04T17:08:28.128Z</time>
      </trkpt>
      <trkpt lat="45.067006" lon="5.171094">
        <ele>183.795609</ele>
        <time>2017-06-04T17:08:30.832Z</time>
      </trkpt>
      <trkpt lat="45.066622" lon="5.170237">
        <ele>181.479792</ele>
        <time>2017-06-04T17:08:42.953Z</time>
      </trkpt>
      <trkpt lat="45.065874" lon="5.166916">
        <ele>173.102690</ele>
        <time>2017-06-04T17:09:24.319Z</time>
      </trkpt>
      <trkpt lat="45.065750" lon="5.166245">
        <ele>172.057046</ele>
        <time>2017-06-04T17:09:32.998Z</time>
      </trkpt>
      <trkpt lat="45.065625" lon="5.165849">
        <ele>171.403131</ele>
        <time>2017-06-04T17:09:38.532Z</time>
      </trkpt>
      <trkpt lat="45.065505" lon="5.165588">
        <ele>170.933625</ele>
        <time>2017-06-04T17:09:42.589Z</time>
      </trkpt>
      <trkpt lat="45.065201" lon="5.165033">
        <ele>169.874779</ele>
        <time>2017-06-04T17:09:51.927Z</time>
      </trkpt>
      <trkpt lat="45.065094" lon="5.164904">
        <ele>169.574803</ele>
        <time>2017-06-04T17:09:54.643Z</time>
      </trkpt>
      <trkpt lat="45.064642" lon="5.164756">
        <ele>169.011545</ele>
        <time>2017-06-04T17:10:03.813Z</time>
      </trkpt>
      <trkpt lat="45.064126" lon="5.164466">
        <ele>168.553462</ele>
        <time>2017-06-04T17:10:15.205Z</time>
      </trkpt>
      <trkpt lat="45.063938" lon="5.164457">
        <ele>168.398250</ele>
        <time>2017-06-04T17:10:19.069Z</time>
      </trkpt>
      <trkpt lat="45.063736" lon="5.164503">
        <ele>168.229433</ele>
        <time>2017-06-04T17:10:23.409Z</time>
      </trkpt>
      <trkpt lat="45.063608" lon="5.164531">
        <ele>168.122564</ele>
        <time>2017-06-04T17:10:26.093Z</time>
      </trkpt>
      <trkpt lat="45.063502" lon="5.164512">
        <ele>168.034403</ele>
        <time>2017-06-04T17:10:28.483Z</time>
      </trkpt>
      <trkpt lat="45.063054" lon="5.164306">
        <ele>167.731981</ele>
        <time>2017-06-04T17:10:38.630Z</time>
      </trkpt>
      <trkpt lat="45.062239" lon="5.164010">
        <ele>167.434815</ele>
        <time>2017-06-04T17:10:57.090Z</time>
      </trkpt>
      <trkpt lat="45.061624" lon="5.163865">
        <ele>167.214615</ele>
        <time>2017-06-04T17:11:11.078Z</time>
      </trkpt>
      <trkpt lat="45.060894" lon="5.163826">
        <ele>166.917991</ele>
        <time>2017-06-04T17:11:26.822Z</time>
      </trkpt>
      <trkpt lat="45.060241" lon="5.163948">
        <ele>166.641470</ele>
        <time>2017-06-04T17:11:40.737Z</time>
      </trkpt>
      <trkpt lat="45.060119" lon="5.163965">
        <ele>166.590004</ele>
        <time>2017-06-04T17:11:43.406Z</time>
      </trkpt>
      <trkpt lat="45.059281" lon="5.163938">
        <ele>166.400136</ele>
        <time>2017-06-04T17:12:01.985Z</time>
      </trkpt>
      <trkpt lat="45.058798" lon="5.163908">
        <ele>166.392864</ele>
        <time>2017-06-04T17:12:13.337Z</time>
      </trkpt>
      <trkpt lat="45.056732" lon="5.163495">
        <ele>165.766228</ele>
        <time>2017-06-04T17:13:02.377Z</time>
      </trkpt>
      <trkpt lat="45.056388" lon="5.163378">
        <ele>165.581160</ele>
        <time>2017-06-04T17:13:08.996Z</time>
      </trkpt>
      <trkpt lat="45.056313" lon="5.163247">
        <ele>165.518850</ele>
        <time>2017-06-04T17:13:11.196Z</time>
      </trkpt>
      <trkpt lat="45.056448" lon="5.161262">
        <ele>164.356132</ele>
        <time>2017-06-04T17:13:38.759Z</time>
      </trkpt>
      <trkpt lat="45.056827" lon="5.161256">
        <ele>164.029220</ele>
        <time>2017-06-04T17:13:46.803Z</time>
      </trkpt>
      <trkpt lat="45.057255" lon="5.161203">
        <ele>164.502888</ele>
        <time>2017-06-04T17:13:57.458Z</time>
      </trkpt>
      <trkpt lat="45.057490" lon="5.161139">
        <ele>165.060005</ele>
        <time>2017-06-04T17:14:04.137Z</time>
      </trkpt>
      <trkpt lat="45.057655" lon="5.161063">
        <ele>165.463949</ele>
        <time>2017-06-04T17:14:12.170Z</time>
      </trkpt>
      <trkpt lat="45.058561" lon="5.160462">
        <ele>167.793216</ele>
        <time>2017-06-04T17:15:01.856Z</time>
      </trkpt>
      <trkpt lat="45.058902" lon="5.160334">
        <ele>168.958920</ele>
        <time>2017-06-04T17:15:20.395Z</time>
      </trkpt>
      <trkpt lat="45.059444" lon="5.160200">
        <ele>171.056245</ele>
        <time>2017-06-04T17:15:48.921Z</time>
      </trkpt>
      <trkpt lat="45.060149" lon="5.159314">
        <ele>174.649774</ele>
        <time>2017-06-04T17:16:38.991Z</time>
      </trkpt>
      <trkpt lat="45.060417" lon="5.158917">
        <ele>175.821263</ele>
        <time>2017-06-04T17:17:00.075Z</time>
      </trkpt>
      <trkpt lat="45.061042" lon="5.157657">
        <ele>178.904026</ele>
        <time>2017-06-04T17:17:53.926Z</time>
      </trkpt>
      <trkpt lat="45.061116" lon="5.157472">
        <ele>179.329710</ele>
        <time>2017-06-04T17:18:01.129Z</time>
      </trkpt>
      <trkpt lat="45.062058" lon="5.155639">
        <ele>180.858798</ele>
        <time>2017-06-04T17:18:42.973Z</time>
      </trkpt>
      <trkpt lat="45.060760" lon="5.153693">
        <ele>180.922631</ele>
        <time>2017-06-04T17:19:25.279Z</time>
      </trkpt>
      <trkpt lat="45.060566" lon="5.153379">
        <ele>180.880196</ele>
        <time>2017-06-04T17:19:32.211Z</time>
      </trkpt>
      <trkpt lat="45.060471" lon="5.153334">
        <ele>180.855464</ele>
        <time>2017-06-04T17:19:34.561Z</time>
      </trkpt>
      <trkpt lat="45.060403" lon="5.153385">
        <ele>180.825769</ele>
        <time>2017-06-04T17:19:36.360Z</time>
      </trkpt>
      <trkpt lat="45.060131" lon="5.153776">
        <ele>180.676188</ele>
        <time>2017-06-04T17:19:45.098Z</time>
      </trkpt>
      <trkpt lat="45.059855" lon="5.154000">
        <ele>180.553426</ele>
        <time>2017-06-04T17:19:52.128Z</time>
      </trkpt>
      <trkpt lat="45.059525" lon="5.154160">
        <ele>180.418826</ele>
        <time>2017-06-04T17:19:59.698Z</time>
      </trkpt>
      <trkpt lat="45.059209" lon="5.154442">
        <ele>180.274683</ele>
        <time>2017-06-04T17:20:07.662Z</time>
      </trkpt>
      <trkpt lat="45.059117" lon="5.154478">
        <ele>180.237852</ele>
        <time>2017-06-04T17:20:09.684Z</time>
      </trkpt>
      <trkpt lat="45.059099" lon="5.154395">
        <ele>180.214186</ele>
        <time>2017-06-04T17:20:10.881Z</time>
      </trkpt>
      <trkpt lat="45.058730" lon="5.154104">
        <ele>179.987937</ele>
        <time>2017-06-04T17:20:19.646Z</time>
      </trkpt>
      <trkpt lat="45.057175" lon="5.152610">
        <ele>179.082497</ele>
        <time>2017-06-04T17:20:59.653Z</time>
      </trkpt>
      <trkpt lat="45.057478" lon="5.152255">
        <ele>179.029922</ele>
        <time>2017-06-04T17:21:08.794Z</time>
      </trkpt>
      <trkpt lat="45.058166" lon="5.151951">
        <ele>178.933580</ele>
        <time>2017-06-04T17:21:25.454Z</time>
      </trkpt>
      <trkpt lat="45.058296" lon="5.151859">
        <ele>178.914153</ele>
        <time>2017-06-04T17:21:28.767Z</time>
      </trkpt>
      <trkpt lat="45.058755" lon="5.151344">
        <ele>178.821402</ele>
        <time>2017-06-04T17:21:42.887Z</time>
      </trkpt>
      <trkpt lat="45.058842" lon="5.151209">
        <ele>178.800048</ele>
        <time>2017-06-04T17:21:45.679Z</time>
      </trkpt>
      <trkpt lat="45.056635" lon="5.148688">
        <ele>178.227059</ele>
        <time>2017-06-04T17:22:48.590Z</time>
      </trkpt>
      <trkpt lat="45.056566" lon="5.148551">
        <ele>178.199785</ele>
        <time>2017-06-04T17:22:51.326Z</time>
      </trkpt>
      <trkpt lat="45.056593" lon="5.148326">
        <ele>178.175244</ele>
        <time>2017-06-04T17:22:55.069Z</time>
      </trkpt>
      <trkpt lat="45.056973" lon="5.147554">
        <ele>178.103035</ele>
        <time>2017-06-04T17:23:10.429Z</time>
      </trkpt>
      <trkpt lat="45.057453" lon="5.146741">
        <ele>178.021723</ele>
        <time>2017-06-04T17:23:27.549Z</time>
      </trkpt>
      <trkpt lat="45.057450" lon="5.146607">
        <ele>178.011435</ele>
        <time>2017-06-04T17:23:29.793Z</time>
      </trkpt>
      <trkpt lat="45.056948" lon="5.145823">
        <ele>177.689760</ele>
        <time>2017-06-04T17:23:46.443Z</time>
      </trkpt>
      <trkpt lat="45.056073" lon="5.144811">
        <ele>177.081605</ele>
        <time>2017-06-04T17:24:10.307Z</time>
      </trkpt>
      <trkpt lat="45.055252" lon="5.144067">
        <ele>176.331581</ele>
        <time>2017-06-04T17:24:30.102Z</time>
      </trkpt>
      <trkpt lat="45.054738" lon="5.143282">
        <ele>175.727824</ele>
        <time>2017-06-04T17:24:45.733Z</time>
      </trkpt>
      <trkpt lat="45.054480" lon="5.142901">
        <ele>175.566493</ele>
        <time>2017-06-04T17:24:53.563Z</time>
      </trkpt>
      <trkpt lat="45.054401" lon="5.142469">
        <ele>175.533947</ele>
        <time>2017-06-04T17:25:00.339Z</time>
      </trkpt>
      <trkpt lat="45.053470" lon="5.136371">
        <ele>175.379574</ele>
        <time>2017-06-04T17:26:42.600Z</time>
      </trkpt>
      <trkpt lat="45.053259" lon="5.135026">
        <ele>175.723830</ele>
        <time>2017-06-04T17:27:06.856Z</time>
      </trkpt>
      <trkpt lat="45.053158" lon="5.134714">
        <ele>175.863088</ele>
        <time>2017-06-04T17:27:13.069Z</time>
      </trkpt>
      <trkpt lat="45.052955" lon="5.134202">
        <ele>176.101325</ele>
        <time>2017-06-04T17:27:23.742Z</time>
      </trkpt>
      <trkpt lat="45.052810" lon="5.133730">
        <ele>176.310173</ele>
        <time>2017-06-04T17:27:33.184Z</time>
      </trkpt>
      <trkpt lat="45.052825" lon="5.131783">
        <ele>177.152308</ele>
        <time>2017-06-04T17:28:08.932Z</time>
      </trkpt>
      <trkpt lat="45.052753" lon="5.130656">
        <ele>177.613297</ele>
        <time>2017-06-04T17:28:29.502Z</time>
      </trkpt>
      <trkpt lat="45.052854" lon="5.127745">
        <ele>177.771975</ele>
        <time>2017-06-04T17:29:19.183Z</time>
      </trkpt>
      <trkpt lat="45.052853" lon="5.127614">
        <ele>177.707074</ele>
        <time>2017-06-04T17:29:21.211Z</time>
      </trkpt>
      <trkpt lat="45.052841" lon="5.125677">
        <ele>176.743781</ele>
        <time>2017-06-04T17:29:48.897Z</time>
      </trkpt>
      <trkpt lat="45.052988" lon="5.124031">
        <ele>175.673655</ele>
        <time>2017-06-04T17:30:12.315Z</time>
      </trkpt>
      <trkpt lat="45.052982" lon="5.122954">
        <ele>175.076077</ele>
        <time>2017-06-04T17:30:27.592Z</time>
      </trkpt>
      <trkpt lat="45.052960" lon="5.121250">
        <ele>174.747938</ele>
        <time>2017-06-04T17:30:53.774Z</time>
      </trkpt>
      <trkpt lat="45.052960" lon="5.120927">
        <ele>174.685748</ele>
        <time>2017-06-04T17:30:58.746Z</time>
      </trkpt>
      <trkpt lat="45.053360" lon="5.119504">
        <ele>174.382610</ele>
        <time>2017-06-04T17:31:21.727Z</time>
      </trkpt>
      <trkpt lat="45.053428" lon="5.119131">
        <ele>174.305848</ele>
        <time>2017-06-04T17:31:27.410Z</time>
      </trkpt>
      <trkpt lat="45.053405" lon="5.118727">
        <ele>174.225081</ele>
        <time>2017-06-04T17:31:33.395Z</time>
      </trkpt>
      <trkpt lat="45.052937" lon="5.115962">
        <ele>173.857832</ele>
        <time>2017-06-04T17:32:16.793Z</time>
      </trkpt>
      <trkpt lat="45.052925" lon="5.115525">
        <ele>173.801212</ele>
        <time>2017-06-04T17:32:23.747Z</time>
      </trkpt>
      <trkpt lat="45.052697" lon="5.114150">
        <ele>173.592619</ele>
        <time>2017-06-04T17:32:45.896Z</time>
      </trkpt>
      <trkpt lat="45.052719" lon="5.113584">
        <ele>173.508900</ele>
        <time>2017-06-04T17:32:54.358Z</time>
      </trkpt>
      <trkpt lat="45.052737" lon="5.113175">
        <ele>173.427502</ele>
        <time>2017-06-04T17:33:00.427Z</time>
      </trkpt>
      <trkpt lat="45.052779" lon="5.113075">
        <ele>173.361217</ele>
        <time>2017-06-04T17:33:02.060Z</time>
      </trkpt>
      <trkpt lat="45.052758" lon="5.111872">
        <ele>172.675584</ele>
        <time>2017-06-04T17:33:19.741Z</time>
      </trkpt>
      <trkpt lat="45.052616" lon="5.111693">
        <ele>172.522231</ele>
        <time>2017-06-04T17:33:23.620Z</time>
      </trkpt>
      <trkpt lat="45.052469" lon="5.111510">
        <ele>172.364347</ele>
        <time>2017-06-04T17:33:27.587Z</time>
      </trkpt>
      <trkpt lat="45.052413" lon="5.111112">
        <ele>172.133127</ele>
        <time>2017-06-04T17:33:33.359Z</time>
      </trkpt>
      <trkpt lat="45.052469" lon="5.111032">
        <ele>172.068959</ele>
        <time>2017-06-04T17:33:34.905Z</time>
      </trkpt>
      <trkpt lat="45.052382" lon="5.110936">
        <ele>171.992498</ele>
        <time>2017-06-04T17:33:37.142Z</time>
      </trkpt>
      <trkpt lat="45.052174" lon="5.110383">
        <ele>171.813612</ele>
        <time>2017-06-04T17:33:46.303Z</time>
      </trkpt>
      <trkpt lat="45.051912" lon="5.109951">
        <ele>171.651040</ele>
        <time>2017-06-04T17:33:54.842Z</time>
      </trkpt>
      <trkpt lat="45.051695" lon="5.109627">
        <ele>171.523559</ele>
        <time>2017-06-04T17:34:01.952Z</time>
      </trkpt>
      <trkpt lat="45.051603" lon="5.109438">
        <ele>171.458022</ele>
        <time>2017-06-04T17:34:05.614Z</time>
      </trkpt>
      <trkpt lat="45.051554" lon="5.108940">
        <ele>171.314451</ele>
        <time>2017-06-04T17:34:14.085Z</time>
      </trkpt>
      <trkpt lat="45.051412" lon="5.108723">
        <ele>171.248414</ele>
        <time>2017-06-04T17:34:19.072Z</time>
      </trkpt>
      <trkpt lat="45.051405" lon="5.108283">
        <ele>171.170876</ele>
        <time>2017-06-04T17:34:26.217Z</time>
      </trkpt>
      <trkpt lat="45.051332" lon="5.107399">
        <ele>171.014076</ele>
        <time>2017-06-04T17:34:40.466Z</time>
      </trkpt>
      <trkpt lat="45.050853" lon="5.107322">
        <ele>170.893858</ele>
        <time>2017-06-04T17:34:50.773Z</time>
      </trkpt>
      <trkpt lat="45.050776" lon="5.107362">
        <ele>170.873403</ele>
        <time>2017-06-04T17:34:52.482Z</time>
      </trkpt>
      <trkpt lat="45.050542" lon="5.108893">
        <ele>170.077926</ele>
        <time>2017-06-04T17:35:14.227Z</time>
      </trkpt>
      <trkpt lat="45.050462" lon="5.109026">
        <ele>169.978276</ele>
        <time>2017-06-04T17:35:16.583Z</time>
      </trkpt>
      <trkpt lat="45.050005" lon="5.108804">
        <ele>169.588120</ele>
        <time>2017-06-04T17:35:25.908Z</time>
      </trkpt>
      <trkpt lat="45.049811" lon="5.108776">
        <ele>169.430652</ele>
        <time>2017-06-04T17:35:29.756Z</time>
      </trkpt>
      <trkpt lat="45.049297" lon="5.108284">
        <ele>169.264704</ele>
        <time>2017-06-04T17:35:42.368Z</time>
      </trkpt>
      <trkpt lat="45.048689" lon="5.108121">
        <ele>169.139163</ele>
        <time>2017-06-04T17:35:55.671Z</time>
      </trkpt>
      <trkpt lat="45.048518" lon="5.108182">
        <ele>169.103387</ele>
        <time>2017-06-04T17:35:59.624Z</time>
      </trkpt>
      <trkpt lat="45.048305" lon="5.108335">
        <ele>169.054929</ele>
        <time>2017-06-04T17:36:05.092Z</time>
      </trkpt>
      <trkpt lat="45.047598" lon="5.108229">
        <ele>169.166071</ele>
        <time>2017-06-04T17:36:21.880Z</time>
      </trkpt>
      <trkpt lat="45.046491" lon="5.108143">
        <ele>169.506769</ele>
        <time>2017-06-04T17:36:48.337Z</time>
      </trkpt>
      <trkpt lat="45.045953" lon="5.107682">
        <ele>169.389808</ele>
        <time>2017-06-04T17:37:02.786Z</time>
      </trkpt>
      <trkpt lat="45.044899" lon="5.106512">
        <ele>168.855930</ele>
        <time>2017-06-04T17:37:30.419Z</time>
      </trkpt>
      <trkpt lat="45.043934" lon="5.104938">
        <ele>166.656325</ele>
        <time>2017-06-04T17:37:57.682Z</time>
      </trkpt>
      <trkpt lat="45.043171" lon="5.104038">
        <ele>164.550863</ele>
        <time>2017-06-04T17:38:14.855Z</time>
      </trkpt>
      <trkpt lat="45.042553" lon="5.103060">
        <ele>162.283060</ele>
        <time>2017-06-04T17:38:30.503Z</time>
      </trkpt>
      <trkpt lat="45.042216" lon="5.102639">
        <ele>161.189889</ele>
        <time>2017-06-04T17:38:38.012Z</time>
      </trkpt>
      <trkpt lat="45.040748" lon="5.101166">
        <ele>157.062650</ele>
        <time>2017-06-04T17:39:08.777Z</time>
      </trkpt>
      <trkpt lat="45.040524" lon="5.100840">
        <ele>156.603255</ele>
        <time>2017-06-04T17:39:14.561Z</time>
      </trkpt>
      <trkpt lat="45.040438" lon="5.100626">
        <ele>156.354534</ele>
        <time>2017-06-04T17:39:17.727Z</time>
      </trkpt>
      <trkpt lat="45.040421" lon="5.100388">
        <ele>156.112861</ele>
        <time>2017-06-04T17:39:20.842Z</time>
      </trkpt>
      <trkpt lat="45.040495" lon="5.099947">
        <ele>155.654936</ele>
        <time>2017-06-04T17:39:26.800Z</time>
      </trkpt>
      <trkpt lat="45.040675" lon="5.097939">
        <ele>154.800388</ele>
        <time>2017-06-04T17:39:55.380Z</time>
      </trkpt>
      <trkpt lat="45.040731" lon="5.097089">
        <ele>154.790312</ele>
        <time>2017-06-04T17:40:08.874Z</time>
      </trkpt>
      <trkpt lat="45.040699" lon="5.095849">
        <ele>156.148446</ele>
        <time>2017-06-04T17:40:32.778Z</time>
      </trkpt>
      <trkpt lat="45.040761" lon="5.095112">
        <ele>157.514305</ele>
        <time>2017-06-04T17:40:49.921Z</time>
      </trkpt>
      <trkpt lat="45.040835" lon="5.094740">
        <ele>158.225496</ele>
        <time>2017-06-04T17:40:59.582Z</time>
      </trkpt>
      <trkpt lat="45.041385" lon="5.094280">
        <ele>159.891265</ele>
        <time>2017-06-04T17:41:23.658Z</time>
      </trkpt>
      <trkpt lat="45.041419" lon="5.094284">
        <ele>159.980524</ele>
        <time>2017-06-04T17:41:25.004Z</time>
      </trkpt>
      <trkpt lat="45.041912" lon="5.094972">
        <ele>161.791937</ele>
        <time>2017-06-04T17:41:52.226Z</time>
      </trkpt>
      <trkpt lat="45.042192" lon="5.095469">
        <ele>162.966988</ele>
        <time>2017-06-04T17:42:06.316Z</time>
      </trkpt>
      <trkpt lat="45.042341" lon="5.095649">
        <ele>163.479513</ele>
        <time>2017-06-04T17:42:12.276Z</time>
      </trkpt>
      <trkpt lat="45.042439" lon="5.095708">
        <ele>163.758139</ele>
        <time>2017-06-04T17:42:15.085Z</time>
      </trkpt>
      <trkpt lat="45.042560" lon="5.095672">
        <ele>164.081625</ele>
        <time>2017-06-04T17:42:17.801Z</time>
      </trkpt>
      <trkpt lat="45.042595" lon="5.095571">
        <ele>164.053224</ele>
        <time>2017-06-04T17:42:19.980Z</time>
      </trkpt>
      <trkpt lat="45.042518" lon="5.095175">
        <ele>163.253315</ele>
        <time>2017-06-04T17:42:26.242Z</time>
      </trkpt>
      <trkpt lat="45.042543" lon="5.095084">
        <ele>163.063161</ele>
        <time>2017-06-04T17:42:27.855Z</time>
      </trkpt>
      <trkpt lat="45.042576" lon="5.094961">
        <ele>162.806921</ele>
        <time>2017-06-04T17:42:29.440Z</time>
      </trkpt>
      <trkpt lat="45.042410" lon="5.094894">
        <ele>162.331127</ele>
        <time>2017-06-04T17:42:32.314Z</time>
      </trkpt>
      <trkpt lat="45.042276" lon="5.094800">
        <ele>161.918897</ele>
        <time>2017-06-04T17:42:35.199Z</time>
      </trkpt>
      <trkpt lat="45.042048" lon="5.094742">
        <ele>161.280381</ele>
        <time>2017-06-04T17:42:38.938Z</time>
      </trkpt>
      <trkpt lat="45.041574" lon="5.094146">
        <ele>159.532716</ele>
        <time>2017-06-04T17:42:49.170Z</time>
      </trkpt>
      <trkpt lat="45.041493" lon="5.093909">
        <ele>159.009661</ele>
        <time>2017-06-04T17:42:52.355Z</time>
      </trkpt>
      <trkpt lat="45.041443" lon="5.093768">
        <ele>158.686311</ele>
        <time>2017-06-04T17:42:54.004Z</time>
      </trkpt>
      <trkpt lat="45.041432" lon="5.092843">
        <ele>156.790128</ele>
        <time>2017-06-04T17:43:04.245Z</time>
      </trkpt>
      <trkpt lat="45.041334" lon="5.092484">
        <ele>156.001305</ele>
        <time>2017-06-04T17:43:08.788Z</time>
      </trkpt>
      <trkpt lat="45.041542" lon="5.090924">
        <ele>153.928745</ele>
        <time>2017-06-04T17:43:29.734Z</time>
      </trkpt>
      <trkpt lat="45.041672" lon="5.089219">
        <ele>153.730228</ele>
        <time>2017-06-04T17:43:59.779Z</time>
      </trkpt>
      <trkpt lat="45.041883" lon="5.087932">
        <ele>152.483473</ele>
        <time>2017-06-04T17:44:18.383Z</time>
      </trkpt>
      <trkpt lat="45.041909" lon="5.087488">
        <ele>151.989455</ele>
        <time>2017-06-04T17:44:23.971Z</time>
      </trkpt>
      <trkpt lat="45.041884" lon="5.087108">
        <ele>151.566268</ele>
        <time>2017-06-04T17:44:28.654Z</time>
      </trkpt>
      <trkpt lat="45.041759" lon="5.086682">
        <ele>151.054785</ele>
        <time>2017-06-04T17:44:34.194Z</time>
      </trkpt>
      <trkpt lat="45.041673" lon="5.086348">
        <ele>150.469909</ele>
        <time>2017-06-04T17:44:38.351Z</time>
      </trkpt>
      <trkpt lat="45.041614" lon="5.086093">
        <ele>149.916305</ele>
        <time>2017-06-04T17:44:41.717Z</time>
      </trkpt>
      <trkpt lat="45.041480" lon="5.085580">
        <ele>148.787874</ele>
        <time>2017-06-04T17:44:48.325Z</time>
      </trkpt>
      <trkpt lat="45.041469" lon="5.085168">
        <ele>147.937226</ele>
        <time>2017-06-04T17:44:53.287Z</time>
      </trkpt>
      <trkpt lat="45.041545" lon="5.084573">
        <ele>146.689721</ele>
        <time>2017-06-04T17:45:00.549Z</time>
      </trkpt>
      <trkpt lat="45.041447" lon="5.084053">
        <ele>145.601823</ele>
        <time>2017-06-04T17:45:07.219Z</time>
      </trkpt>
      <trkpt lat="45.041325" lon="5.083779">
        <ele>145.228620</ele>
        <time>2017-06-04T17:45:11.420Z</time>
      </trkpt>
      <trkpt lat="45.041046" lon="5.083631">
        <ele>144.742702</ele>
        <time>2017-06-04T17:45:16.728Z</time>
      </trkpt>
      <trkpt lat="45.040865" lon="5.083454">
        <ele>144.383905</ele>
        <time>2017-06-04T17:45:20.755Z</time>
      </trkpt>
      <trkpt lat="45.040512" lon="5.082349">
        <ele>142.986456</ele>
        <time>2017-06-04T17:45:36.379Z</time>
      </trkpt>
      <trkpt lat="45.040086" lon="5.080227">
        <ele>142.184158</ele>
        <time>2017-06-04T17:46:08.624Z</time>
      </trkpt>
      <trkpt lat="45.039744" lon="5.077353">
        <ele>142.449406</ele>
        <time>2017-06-04T17:46:56.473Z</time>
      </trkpt>
      <trkpt lat="45.039681" lon="5.077105">
        <ele>142.507161</ele>
        <time>2017-06-04T17:47:00.882Z</time>
      </trkpt>
      <trkpt lat="45.039643" lon="5.076848">
        <ele>142.617972</ele>
        <time>2017-06-04T17:47:05.514Z</time>
      </trkpt>
      <trkpt lat="45.039648" lon="5.076695">
        <ele>142.682612</ele>
        <time>2017-06-04T17:47:07.793Z</time>
      </trkpt>
      <trkpt lat="45.039583" lon="5.076612">
        <ele>142.734900</ele>
        <time>2017-06-04T17:47:10.386Z</time>
      </trkpt>
      <trkpt lat="45.039446" lon="5.075446">
        <ele>143.233746</ele>
        <time>2017-06-04T17:47:31.939Z</time>
      </trkpt>
      <trkpt lat="45.039337" lon="5.073920">
        <ele>143.684498</ele>
        <time>2017-06-04T17:48:00.180Z</time>
      </trkpt>
      <trkpt lat="45.039343" lon="5.072126">
        <ele>143.972563</ele>
        <time>2017-06-04T17:48:30.021Z</time>
      </trkpt>
      <trkpt lat="45.039355" lon="5.071929">
        <ele>143.971829</ele>
        <time>2017-06-04T17:48:33.098Z</time>
      </trkpt>
      <trkpt lat="45.039355" lon="5.071839">
        <ele>143.971495</ele>
        <time>2017-06-04T17:48:34.450Z</time>
      </trkpt>
      <trkpt lat="45.039380" lon="5.071145">
        <ele>143.968914</ele>
        <time>2017-06-04T17:48:45.374Z</time>
      </trkpt>
      <trkpt lat="45.039447" lon="5.070448">
        <ele>143.966302</ele>
        <time>2017-06-04T17:48:57.232Z</time>
      </trkpt>
      <trkpt lat="45.039479" lon="5.070118">
        <ele>143.965065</ele>
        <time>2017-06-04T17:49:02.616Z</time>
      </trkpt>
      <trkpt lat="45.039611" lon="5.069358">
        <ele>144.008694</ele>
        <time>2017-06-04T17:49:15.466Z</time>
      </trkpt>
      <trkpt lat="45.039678" lon="5.068967">
        <ele>144.080104</ele>
        <time>2017-06-04T17:49:22.665Z</time>
      </trkpt>
      <trkpt lat="45.040572" lon="5.065255">
        <ele>144.648044</ele>
        <time>2017-06-04T17:50:30.063Z</time>
      </trkpt>
      <trkpt lat="45.040627" lon="5.065184">
        <ele>144.660112</ele>
        <time>2017-06-04T17:50:31.772Z</time>
      </trkpt>
      <trkpt lat="45.040648" lon="5.065091">
        <ele>144.671296</ele>
        <time>2017-06-04T17:50:33.311Z</time>
      </trkpt>
      <trkpt lat="45.040631" lon="5.065028">
        <ele>144.679020</ele>
        <time>2017-06-04T17:50:34.473Z</time>
      </trkpt>
      <trkpt lat="45.040932" lon="5.063766">
        <ele>144.645980</ele>
        <time>2017-06-04T17:50:55.483Z</time>
      </trkpt>
      <trkpt lat="45.041499" lon="5.060504">
        <ele>144.655497</ele>
        <time>2017-06-04T17:51:50.542Z</time>
      </trkpt>
      <trkpt lat="45.041625" lon="5.059611">
        <ele>144.690063</ele>
        <time>2017-06-04T17:52:06.379Z</time>
      </trkpt>
      <trkpt lat="45.041663" lon="5.059120">
        <ele>144.698036</ele>
        <time>2017-06-04T17:52:14.531Z</time>
      </trkpt>
      <trkpt lat="45.041698" lon="5.058551">
        <ele>144.707255</ele>
        <time>2017-06-04T17:52:23.822Z</time>
      </trkpt>
      <trkpt lat="45.041702" lon="5.058461">
        <ele>144.708711</ele>
        <time>2017-06-04T17:52:25.249Z</time>
      </trkpt>
      <trkpt lat="45.041708" lon="5.057735">
        <ele>144.720431</ele>
        <time>2017-06-04T17:52:36.923Z</time>
      </trkpt>
      <trkpt lat="45.041730" lon="5.057637">
        <ele>144.722091</ele>
        <time>2017-06-04T17:52:38.585Z</time>
      </trkpt>
      <trkpt lat="45.041778" lon="5.057543">
        <ele>144.723963</ele>
        <time>2017-06-04T17:52:40.697Z</time>
      </trkpt>
      <trkpt lat="45.041798" lon="5.057513">
        <ele>144.724629</ele>
        <time>2017-06-04T17:52:41.340Z</time>
      </trkpt>
      <trkpt lat="45.041854" lon="5.057606">
        <ele>144.726601</ele>
        <time>2017-06-04T17:52:43.058Z</time>
      </trkpt>
      <trkpt lat="45.041934" lon="5.057699">
        <ele>144.866472</ele>
        <time>2017-06-04T17:52:45.235Z</time>
      </trkpt>
      <trkpt lat="45.042072" lon="5.057843">
        <ele>145.116151</ele>
        <time>2017-06-04T17:52:48.916Z</time>
      </trkpt>
      <trkpt lat="45.042077" lon="5.057747">
        <ele>145.215199</ele>
        <time>2017-06-04T17:52:50.374Z</time>
      </trkpt>
      <trkpt lat="45.042133" lon="5.056577">
        <ele>146.421836</ele>
        <time>2017-06-04T17:53:12.563Z</time>
      </trkpt>
      <trkpt lat="45.042133" lon="5.056536">
        <ele>146.464024</ele>
        <time>2017-06-04T17:53:13.323Z</time>
      </trkpt>
      <trkpt lat="45.042173" lon="5.056544">
        <ele>146.522852</ele>
        <time>2017-06-04T17:53:14.616Z</time>
      </trkpt>
      <trkpt lat="45.042214" lon="5.056534">
        <ele>146.583438</ele>
        <time>2017-06-04T17:53:15.919Z</time>
      </trkpt>
      <trkpt lat="45.042247" lon="5.056508">
        <ele>146.638438</ele>
        <time>2017-06-04T17:53:17.209Z</time>
      </trkpt>
      <trkpt lat="45.042273" lon="5.056469">
        <ele>146.693610</ele>
        <time>2017-06-04T17:53:18.339Z</time>
      </trkpt>
      <trkpt lat="45.042289" lon="5.056420">
        <ele>146.749152</ele>
        <time>2017-06-04T17:53:19.475Z</time>
      </trkpt>
      <trkpt lat="45.042294" lon="5.056362">
        <ele>146.809273</ele>
        <time>2017-06-04T17:53:20.814Z</time>
      </trkpt>
      <trkpt lat="45.042285" lon="5.056305">
        <ele>146.869370</ele>
        <time>2017-06-04T17:53:22.214Z</time>
      </trkpt>
      <trkpt lat="45.042263" lon="5.056256">
        <ele>146.929107</ele>
        <time>2017-06-04T17:53:23.458Z</time>
      </trkpt>
      <trkpt lat="45.042241" lon="5.056229">
        <ele>146.971512</ele>
        <time>2017-06-04T17:53:24.275Z</time>
      </trkpt>
      <trkpt lat="45.042216" lon="5.056209">
        <ele>147.013332</ele>
        <time>2017-06-04T17:53:25.287Z</time>
      </trkpt>
      <trkpt lat="45.042187" lon="5.056199">
        <ele>147.056798</ele>
        <time>2017-06-04T17:53:26.266Z</time>
      </trkpt>
      <trkpt lat="45.042154" lon="5.056200">
        <ele>147.104865</ele>
        <time>2017-06-04T17:53:27.375Z</time>
      </trkpt>
      <trkpt lat="45.042072" lon="5.056270">
        <ele>147.244317</ele>
        <time>2017-06-04T17:53:30.898Z</time>
      </trkpt>
      <trkpt lat="45.042057" lon="5.056311">
        <ele>147.291824</ele>
        <time>2017-06-04T17:53:32.055Z</time>
      </trkpt>
      <trkpt lat="45.042026" lon="5.056325">
        <ele>147.339210</ele>
        <time>2017-06-04T17:53:33.525Z</time>
      </trkpt>
      <trkpt lat="45.041926" lon="5.056359">
        <ele>147.770706</ele>
        <time>2017-06-04T17:53:37.162Z</time>
      </trkpt>
      <trkpt lat="45.041827" lon="5.056375">
        <ele>148.201775</ele>
        <time>2017-06-04T17:53:41.098Z</time>
      </trkpt>
      <trkpt lat="45.040701" lon="5.056253">
        <ele>153.087235</ele>
        <time>2017-06-04T17:54:26.382Z</time>
      </trkpt>
      <trkpt lat="45.040550" lon="5.056250">
        <ele>153.740543</ele>
        <time>2017-06-04T17:54:33.055Z</time>
      </trkpt>
      <trkpt lat="45.040472" lon="5.056247">
        <ele>154.078104</ele>
        <time>2017-06-04T17:54:36.458Z</time>
      </trkpt>
      <trkpt lat="45.040424" lon="5.056245">
        <ele>154.285848</ele>
        <time>2017-06-04T17:54:38.546Z</time>
      </trkpt>
      <trkpt lat="45.040309" lon="5.056237">
        <ele>154.783952</ele>
        <time>2017-06-04T17:54:43.248Z</time>
      </trkpt>
      <trkpt lat="45.040191" lon="5.056202">
        <ele>155.240259</ele>
        <time>2017-06-04T17:54:48.625Z</time>
      </trkpt>
      <trkpt lat="45.039976" lon="5.056091">
        <ele>155.868060</ele>
        <time>2017-06-04T17:54:57.734Z</time>
      </trkpt>
      <trkpt lat="45.039791" lon="5.055966">
        <ele>156.430420</ele>
        <time>2017-06-04T17:55:05.973Z</time>
      </trkpt>
      <trkpt lat="45.039452" lon="5.055692">
        <ele>157.501333</ele>
        <time>2017-06-04T17:55:19.864Z</time>
      </trkpt>
      <trkpt lat="45.039243" lon="5.055583">
        <ele>158.112347</ele>
        <time>2017-06-04T17:55:26.858Z</time>
      </trkpt>
      <trkpt lat="45.039153" lon="5.055556">
        <ele>158.364719</ele>
        <time>2017-06-04T17:55:29.936Z</time>
      </trkpt>
      <trkpt lat="45.038846" lon="5.055463">
        <ele>159.225948</ele>
        <time>2017-06-04T17:55:38.702Z</time>
      </trkpt>
      <trkpt lat="45.038277" lon="5.055352">
        <ele>160.146430</ele>
        <time>2017-06-04T17:55:53.090Z</time>
      </trkpt>
      <trkpt lat="45.037857" lon="5.055200">
        <ele>160.283425</ele>
        <time>2017-06-04T17:56:03.493Z</time>
      </trkpt>
      <trkpt lat="45.037423" lon="5.054976">
        <ele>160.429409</ele>
        <time>2017-06-04T17:56:14.514Z</time>
      </trkpt>
      <trkpt lat="45.037337" lon="5.054921">
        <ele>160.459232</ele>
        <time>2017-06-04T17:56:16.553Z</time>
      </trkpt>
      <trkpt lat="45.037235" lon="5.054841">
        <ele>160.496084</ele>
        <time>2017-06-04T17:56:19.111Z</time>
      </trkpt>
      <trkpt lat="45.036788" lon="5.054487">
        <ele>160.653089</ele>
        <time>2017-06-04T17:56:30.246Z</time>
      </trkpt>
      <trkpt lat="45.036730" lon="5.054440">
        <ele>160.670595</ele>
        <time>2017-06-04T17:56:31.592Z</time>
      </trkpt>
      <trkpt lat="45.036652" lon="5.054373">
        <ele>160.694495</ele>
        <time>2017-06-04T17:56:33.378Z</time>
      </trkpt>
      <trkpt lat="45.036578" lon="5.054265">
        <ele>160.722340</ele>
        <time>2017-06-04T17:56:35.846Z</time>
      </trkpt>
      <trkpt lat="45.036174" lon="5.053855">
        <ele>160.852560</ele>
        <time>2017-06-04T17:56:47.217Z</time>
      </trkpt>
      <trkpt lat="45.035571" lon="5.053265">
        <ele>161.044583</ele>
        <time>2017-06-04T17:57:05.969Z</time>
      </trkpt>
      <trkpt lat="45.035509" lon="5.053119">
        <ele>161.076112</ele>
        <time>2017-06-04T17:57:08.884Z</time>
      </trkpt>
      <trkpt lat="45.034816" lon="5.052530">
        <ele>161.358636</ele>
        <time>2017-06-04T17:57:30.196Z</time>
      </trkpt>
      <trkpt lat="45.034797" lon="5.052514">
        <ele>161.366616</ele>
        <time>2017-06-04T17:57:31.106Z</time>
      </trkpt>
      <trkpt lat="45.034712" lon="5.052444">
        <ele>161.402116</ele>
        <time>2017-06-04T17:57:33.602Z</time>
      </trkpt>
      <trkpt lat="45.034629" lon="5.052625">
        <ele>161.457154</ele>
        <time>2017-06-04T17:57:37.003Z</time>
      </trkpt>
      <trkpt lat="45.034532" lon="5.052531">
        <ele>161.499591</ele>
        <time>2017-06-04T17:57:40.115Z</time>
      </trkpt>
      <trkpt lat="45.034404" lon="5.052414">
        <ele>161.554595</ele>
        <time>2017-06-04T17:57:43.764Z</time>
      </trkpt>
      <trkpt lat="45.034089" lon="5.052129">
        <ele>161.689552</ele>
        <time>2017-06-04T17:57:52.270Z</time>
      </trkpt>
      <trkpt lat="45.033611" lon="5.051710">
        <ele>161.101697</ele>
        <time>2017-06-04T17:58:03.857Z</time>
      </trkpt>
      <trkpt lat="45.033159" lon="5.051368">
        <ele>160.260920</ele>
        <time>2017-06-04T17:58:13.389Z</time>
      </trkpt>
      <trkpt lat="45.032628" lon="5.050911">
        <ele>159.241438</ele>
        <time>2017-06-04T17:58:24.039Z</time>
      </trkpt>
      <trkpt lat="45.032284" lon="5.050569">
        <ele>158.401509</ele>
        <time>2017-06-04T17:58:31.177Z</time>
      </trkpt>
      <trkpt lat="45.032148" lon="5.050385">
        <ele>157.905557</ele>
        <time>2017-06-04T17:58:34.310Z</time>
      </trkpt>
      <trkpt lat="45.031924" lon="5.049942">
        <ele>156.890904</ele>
        <time>2017-06-04T17:58:40.634Z</time>
      </trkpt>
      <trkpt lat="45.031773" lon="5.049439">
        <ele>155.872921</ele>
        <time>2017-06-04T17:58:46.957Z</time>
      </trkpt>
      <trkpt lat="45.031620" lon="5.048614">
        <ele>154.284129</ele>
        <time>2017-06-04T17:58:57.106Z</time>
      </trkpt>
      <trkpt lat="45.031586" lon="5.048427">
        <ele>154.100807</ele>
        <time>2017-06-04T17:58:59.450Z</time>
      </trkpt>
      <trkpt lat="45.031543" lon="5.048227">
        <ele>154.223064</ele>
        <time>2017-06-04T17:59:02.069Z</time>
      </trkpt>
      <trkpt lat="45.031422" lon="5.047859">
        <ele>154.460432</ele>
        <time>2017-06-04T17:59:07.486Z</time>
      </trkpt>
      <trkpt lat="45.031320" lon="5.047695">
        <ele>154.588196</ele>
        <time>2017-06-04T17:59:10.827Z</time>
      </trkpt>
      <trkpt lat="45.031250" lon="5.047604">
        <ele>154.666858</ele>
        <time>2017-06-04T17:59:13.347Z</time>
      </trkpt>
      <trkpt lat="45.031154" lon="5.047511">
        <ele>154.763134</ele>
        <time>2017-06-04T17:59:16.097Z</time>
      </trkpt>
      <trkpt lat="45.031017" lon="5.047433">
        <ele>154.885337</ele>
        <time>2017-06-04T17:59:19.672Z</time>
      </trkpt>
      <trkpt lat="45.030929" lon="5.047388">
        <ele>154.962769</ele>
        <time>2017-06-04T17:59:22.381Z</time>
      </trkpt>
      <trkpt lat="45.030652" lon="5.047376">
        <ele>155.192099</ele>
        <time>2017-06-04T17:59:29.777Z</time>
      </trkpt>
      <trkpt lat="45.030526" lon="5.047417">
        <ele>155.299088</ele>
        <time>2017-06-04T17:59:34.402Z</time>
      </trkpt>
      <trkpt lat="45.030177" lon="5.047415">
        <ele>155.821549</ele>
        <time>2017-06-04T17:59:47.340Z</time>
      </trkpt>
      <trkpt lat="45.030004" lon="5.047396">
        <ele>156.787192</ele>
        <time>2017-06-04T17:59:53.294Z</time>
      </trkpt>
      <trkpt lat="45.029817" lon="5.047369">
        <ele>157.833253</ele>
        <time>2017-06-04T18:00:01.662Z</time>
      </trkpt>
      <trkpt lat="45.029249" lon="5.047234">
        <ele>161.038464</ele>
        <time>2017-06-04T18:00:27.327Z</time>
      </trkpt>
      <trkpt lat="45.028933" lon="5.047098">
        <ele>162.876559</ele>
        <time>2017-06-04T18:00:43.249Z</time>
      </trkpt>
      <trkpt lat="45.028808" lon="5.047009">
        <ele>163.655293</ele>
        <time>2017-06-04T18:00:51.048Z</time>
      </trkpt>
      <trkpt lat="45.028564" lon="5.046834">
        <ele>165.177638</ele>
        <time>2017-06-04T18:01:03.903Z</time>
      </trkpt>
      <trkpt lat="45.028316" lon="5.046618">
        <ele>166.751413</ele>
        <time>2017-06-04T18:01:18.063Z</time>
      </trkpt>
      <trkpt lat="45.028172" lon="5.046477">
        <ele>167.689172</ele>
        <time>2017-06-04T18:01:26.704Z</time>
      </trkpt>
      <trkpt lat="45.027628" lon="5.045820">
        <ele>171.519199</ele>
        <time>2017-06-04T18:01:59.802Z</time>
      </trkpt>
      <trkpt lat="45.026855" lon="5.044608">
        <ele>176.294109</ele>
        <time>2017-06-04T18:02:43.837Z</time>
      </trkpt>
      <trkpt lat="45.026632" lon="5.044258">
        <ele>177.079990</ele>
        <time>2017-06-04T18:02:55.279Z</time>
      </trkpt>
      <trkpt lat="45.024517" lon="5.040926">
        <ele>182.019168</ele>
        <time>2017-06-04T18:04:22.255Z</time>
      </trkpt>
      <trkpt lat="45.023972" lon="5.040161">
        <ele>182.620931</ele>
        <time>2017-06-04T18:04:41.540Z</time>
      </trkpt>
      <trkpt lat="45.023919" lon="5.040000">
        <ele>182.719328</ele>
        <time>2017-06-04T18:04:44.677Z</time>
      </trkpt>
      <trkpt lat="45.023926" lon="5.039835">
        <ele>182.810907</ele>
        <time>2017-06-04T18:04:47.537Z</time>
      </trkpt>
      <trkpt lat="45.023903" lon="5.039729">
        <ele>182.872338</ele>
        <time>2017-06-04T18:04:49.470Z</time>
      </trkpt>
      <trkpt lat="45.023837" lon="5.039595">
        <ele>182.962824</ele>
        <time>2017-06-04T18:04:52.310Z</time>
      </trkpt>
      <trkpt lat="45.023747" lon="5.039499">
        <ele>183.051172</ele>
        <time>2017-06-04T18:04:55.046Z</time>
      </trkpt>
      <trkpt lat="45.023642" lon="5.039478">
        <ele>183.134293</ele>
        <time>2017-06-04T18:04:57.629Z</time>
      </trkpt>
      <trkpt lat="45.023375" lon="5.039062">
        <ele>183.212978</ele>
        <time>2017-06-04T18:05:07.183Z</time>
      </trkpt>
      <trkpt lat="45.022785" lon="5.038058">
        <ele>183.387197</ele>
        <time>2017-06-04T18:05:28.620Z</time>
      </trkpt>
      <trkpt lat="45.022399" lon="5.037441">
        <ele>183.436383</ele>
        <time>2017-06-04T18:05:41.644Z</time>
      </trkpt>
      <trkpt lat="45.020219" lon="5.033953">
        <ele>181.764445</ele>
        <time>2017-06-04T18:06:49.124Z</time>
      </trkpt>
      <trkpt lat="45.020055" lon="5.033761">
        <ele>181.638650</ele>
        <time>2017-06-04T18:06:53.356Z</time>
      </trkpt>
      <trkpt lat="45.019870" lon="5.033625">
        <ele>181.478091</ele>
        <time>2017-06-04T18:06:57.397Z</time>
      </trkpt>
      <trkpt lat="45.019742" lon="5.033480">
        <ele>181.351807</ele>
        <time>2017-06-04T18:07:00.637Z</time>
      </trkpt>
      <trkpt lat="45.019704" lon="5.033282">
        <ele>181.240120</ele>
        <time>2017-06-04T18:07:03.408Z</time>
      </trkpt>
      <trkpt lat="45.019604" lon="5.033105">
        <ele>181.116772</ele>
        <time>2017-06-04T18:07:06.604Z</time>
      </trkpt>
      <trkpt lat="45.019897" lon="5.032594">
        <ele>180.758589</ele>
        <time>2017-06-04T18:07:16.234Z</time>
      </trkpt>
      <trkpt lat="45.019859" lon="5.032556">
        <ele>180.722752</ele>
        <time>2017-06-04T18:07:17.078Z</time>
      </trkpt>
      <trkpt lat="45.019726" lon="5.032384">
        <ele>180.583979</ele>
        <time>2017-06-04T18:07:20.898Z</time>
      </trkpt>
      <trkpt lat="45.019368" lon="5.032233">
        <ele>180.296284</ele>
        <time>2017-06-04T18:07:28.639Z</time>
      </trkpt>
      <trkpt lat="45.019247" lon="5.032103">
        <ele>180.213762</ele>
        <time>2017-06-04T18:07:31.747Z</time>
      </trkpt>
      <trkpt lat="45.017508" lon="5.029428">
        <ele>179.198529</ele>
        <time>2017-06-04T18:08:28.073Z</time>
      </trkpt>
      <trkpt lat="45.016563" lon="5.027990">
        <ele>178.759710</ele>
        <time>2017-06-04T18:08:58.713Z</time>
      </trkpt>
      <trkpt lat="45.016118" lon="5.027252">
        <ele>178.565937</ele>
        <time>2017-06-04T18:09:13.765Z</time>
      </trkpt>
      <trkpt lat="45.015279" lon="5.025927">
        <ele>178.355184</ele>
        <time>2017-06-04T18:09:41.953Z</time>
      </trkpt>
      <trkpt lat="45.013484" lon="5.023087">
        <ele>178.342859</ele>
        <time>2017-06-04T18:10:44.924Z</time>
      </trkpt>
      <trkpt lat="45.013367" lon="5.022777">
        <ele>178.349418</ele>
        <time>2017-06-04T18:10:50.707Z</time>
      </trkpt>
      <trkpt lat="45.013284" lon="5.022410">
        <ele>178.304023</ele>
        <time>2017-06-04T18:10:57.003Z</time>
      </trkpt>
      <trkpt lat="45.013220" lon="5.021917">
        <ele>178.229199</ele>
        <time>2017-06-04T18:11:05.096Z</time>
      </trkpt>
      <trkpt lat="45.013126" lon="5.021678">
        <ele>178.188372</ele>
        <time>2017-06-04T18:11:09.451Z</time>
      </trkpt>
      <trkpt lat="45.012629" lon="5.020872">
        <ele>178.028717</ele>
        <time>2017-06-04T18:11:26.184Z</time>
      </trkpt>
      <trkpt lat="45.012387" lon="5.020553">
        <ele>177.952590</ele>
        <time>2017-06-04T18:11:33.468Z</time>
      </trkpt>
      <trkpt lat="45.011825" lon="5.020064">
        <ele>177.740978</ele>
        <time>2017-06-04T18:11:47.860Z</time>
      </trkpt>
      <trkpt lat="45.011449" lon="5.019589">
        <ele>177.579297</ele>
        <time>2017-06-04T18:11:58.923Z</time>
      </trkpt>
      <trkpt lat="45.011101" lon="5.019115">
        <ele>177.424356</ele>
        <time>2017-06-04T18:12:09.578Z</time>
      </trkpt>
      <trkpt lat="45.010871" lon="5.018752">
        <ele>177.360996</ele>
        <time>2017-06-04T18:12:17.279Z</time>
      </trkpt>
      <trkpt lat="45.010564" lon="5.018269">
        <ele>177.300240</ele>
        <time>2017-06-04T18:12:27.701Z</time>
      </trkpt>
      <trkpt lat="45.009704" lon="5.016895">
        <ele>177.136248</ele>
        <time>2017-06-04T18:12:57.382Z</time>
      </trkpt>
      <trkpt lat="45.008573" lon="5.015088">
        <ele>176.966362</ele>
        <time>2017-06-04T18:13:36.355Z</time>
      </trkpt>
      <trkpt lat="45.003938" lon="5.007688">
        <ele>175.776130</ele>
        <time>2017-06-04T18:16:14.276Z</time>
      </trkpt>
      <trkpt lat="45.003699" lon="5.007304">
        <ele>175.615082</ele>
        <time>2017-06-04T18:16:22.036Z</time>
      </trkpt>
      <trkpt lat="45.001987" lon="5.004550">
        <ele>174.540209</ele>
        <time>2017-06-04T18:17:17.253Z</time>
      </trkpt>
      <trkpt lat="45.001936" lon="5.004469">
        <ele>174.519983</ele>
        <time>2017-06-04T18:17:19.258Z</time>
      </trkpt>
      <trkpt lat="45.001597" lon="5.003960">
        <ele>174.389587</ele>
        <time>2017-06-04T18:17:30.767Z</time>
      </trkpt>
      <trkpt lat="45.001478" lon="5.003701">
        <ele>174.349334</ele>
        <time>2017-06-04T18:17:36.055Z</time>
      </trkpt>
      <trkpt lat="45.001402" lon="5.003412">
        <ele>174.357197</ele>
        <time>2017-06-04T18:17:41.207Z</time>
      </trkpt>
      <trkpt lat="45.001365" lon="5.003110">
        <ele>174.365013</ele>
        <time>2017-06-04T18:17:46.631Z</time>
      </trkpt>
      <trkpt lat="45.001365" lon="5.001983">
        <ele>174.393755</ele>
        <time>2017-06-04T18:18:05.422Z</time>
      </trkpt>
      <trkpt lat="45.001294" lon="5.001500">
        <ele>174.406336</ele>
        <time>2017-06-04T18:18:13.268Z</time>
      </trkpt>
      <trkpt lat="45.001139" lon="5.001043">
        <ele>174.373027</ele>
        <time>2017-06-04T18:18:21.311Z</time>
      </trkpt>
      <trkpt lat="45.000753" lon="5.000193">
        <ele>174.232055</ele>
        <time>2017-06-04T18:18:37.351Z</time>
      </trkpt>
      <trkpt lat="45.000695" lon="4.999930">
        <ele>174.193610</ele>
        <time>2017-06-04T18:18:41.774Z</time>
      </trkpt>
      <trkpt lat="45.000680" lon="4.999706">
        <ele>174.162212</ele>
        <time>2017-06-04T18:18:45.283Z</time>
      </trkpt>
      <trkpt lat="45.000761" lon="4.999242">
        <ele>174.095517</ele>
        <time>2017-06-04T18:18:52.862Z</time>
      </trkpt>
      <trkpt lat="45.000760" lon="4.999016">
        <ele>174.063978</ele>
        <time>2017-06-04T18:18:56.547Z</time>
      </trkpt>
      <trkpt lat="45.000655" lon="4.998602">
        <ele>173.979654</ele>
        <time>2017-06-04T18:19:03.494Z</time>
      </trkpt>
      <trkpt lat="44.999873" lon="4.997340">
        <ele>173.646977</ele>
        <time>2017-06-04T18:19:29.972Z</time>
      </trkpt>
      <trkpt lat="44.999714" lon="4.997169">
        <ele>173.590970</ele>
        <time>2017-06-04T18:19:34.260Z</time>
      </trkpt>
      <trkpt lat="44.999537" lon="4.996990">
        <ele>173.514674</ele>
        <time>2017-06-04T18:19:39.015Z</time>
      </trkpt>
      <trkpt lat="44.999531" lon="4.996929">
        <ele>173.494308</ele>
        <time>2017-06-04T18:19:39.915Z</time>
      </trkpt>
      <trkpt lat="44.999508" lon="4.996852">
        <ele>173.466667</ele>
        <time>2017-06-04T18:19:41.137Z</time>
      </trkpt>
      <trkpt lat="44.999516" lon="4.996782">
        <ele>173.443219</ele>
        <time>2017-06-04T18:19:42.147Z</time>
      </trkpt>
      <trkpt lat="44.999582" lon="4.996605">
        <ele>173.377049</ele>
        <time>2017-06-04T18:19:45.122Z</time>
      </trkpt>
      <trkpt lat="44.999823" lon="4.996207">
        <ele>173.203776</ele>
        <time>2017-06-04T18:19:52.798Z</time>
      </trkpt>
      <trkpt lat="45.000889" lon="4.994501">
        <ele>172.470625</ele>
        <time>2017-06-04T18:20:25.893Z</time>
      </trkpt>
      <trkpt lat="45.001223" lon="4.993898">
        <ele>172.236457</ele>
        <time>2017-06-04T18:20:37.138Z</time>
      </trkpt>
      <trkpt lat="45.001264" lon="4.993743">
        <ele>172.185865</ele>
        <time>2017-06-04T18:20:39.761Z</time>
      </trkpt>
      <trkpt lat="45.001322" lon="4.993522">
        <ele>172.113800</ele>
        <time>2017-06-04T18:20:43.139Z</time>
      </trkpt>
      <trkpt lat="45.001452" lon="4.992917">
        <ele>171.922174</ele>
        <time>2017-06-04T18:20:52.538Z</time>
      </trkpt>
      <trkpt lat="45.001429" lon="4.992882">
        <ele>171.909372</ele>
        <time>2017-06-04T18:20:53.322Z</time>
      </trkpt>
      <trkpt lat="45.001307" lon="4.992699">
        <ele>171.841986</ele>
        <time>2017-06-04T18:20:57.177Z</time>
      </trkpt>
      <trkpt lat="45.000707" lon="4.991795">
        <ele>171.509798</ele>
        <time>2017-06-04T18:21:16.095Z</time>
      </trkpt>
      <trkpt lat="44.999979" lon="4.990593">
        <ele>171.155898</ele>
        <time>2017-06-04T18:21:40.878Z</time>
      </trkpt>
      <trkpt lat="44.999460" lon="4.989170">
        <ele>170.907298</ele>
        <time>2017-06-04T18:22:06.176Z</time>
      </trkpt>
      <trkpt lat="44.998941" lon="4.986976">
        <ele>170.720605</ele>
        <time>2017-06-04T18:22:43.693Z</time>
      </trkpt>
      <trkpt lat="44.998837" lon="4.986557">
        <ele>170.690086</ele>
        <time>2017-06-04T18:22:50.888Z</time>
      </trkpt>
      <trkpt lat="44.998608" lon="4.986357">
        <ele>170.628592</ele>
        <time>2017-06-04T18:22:56.911Z</time>
      </trkpt>
      <trkpt lat="44.998143" lon="4.986183">
        <ele>170.494302</ele>
        <time>2017-06-04T18:23:07.922Z</time>
      </trkpt>
      <trkpt lat="44.997966" lon="4.986010">
        <ele>170.434231</ele>
        <time>2017-06-04T18:23:12.634Z</time>
      </trkpt>
      <trkpt lat="44.997362" lon="4.984606">
        <ele>170.071225</ele>
        <time>2017-06-04T18:23:38.028Z</time>
      </trkpt>
      <trkpt lat="44.996990" lon="4.983716">
        <ele>169.756042</ele>
        <time>2017-06-04T18:23:53.845Z</time>
      </trkpt>
      <trkpt lat="44.996694" lon="4.983104">
        <ele>169.529998</ele>
        <time>2017-06-04T18:24:05.249Z</time>
      </trkpt>
      <trkpt lat="44.996322" lon="4.982565">
        <ele>169.321275</ele>
        <time>2017-06-04T18:24:16.686Z</time>
      </trkpt>
      <trkpt lat="44.996260" lon="4.982497">
        <ele>169.294190</ele>
        <time>2017-06-04T18:24:18.327Z</time>
      </trkpt>
      <trkpt lat="44.993986" lon="4.980015">
        <ele>168.478900</ele>
        <time>2017-06-04T18:25:19.071Z</time>
      </trkpt>
      <trkpt lat="44.993370" lon="4.979391">
        <ele>168.349624</ele>
        <time>2017-06-04T18:25:36.756Z</time>
      </trkpt>
      <trkpt lat="44.993162" lon="4.979193">
        <ele>168.320597</ele>
        <time>2017-06-04T18:25:42.579Z</time>
      </trkpt>
      <trkpt lat="44.992901" lon="4.978916">
        <ele>168.282819</ele>
        <time>2017-06-04T18:25:50.064Z</time>
      </trkpt>
      <trkpt lat="44.992878" lon="4.978892">
        <ele>168.279510</ele>
        <time>2017-06-04T18:25:50.689Z</time>
      </trkpt>
      <trkpt lat="44.992831" lon="4.978843">
        <ele>168.272750</ele>
        <time>2017-06-04T18:25:52.140Z</time>
      </trkpt>
      <trkpt lat="44.992238" lon="4.978221">
        <ele>168.187278</ele>
        <time>2017-06-04T18:26:08.655Z</time>
      </trkpt>
      <trkpt lat="44.992001" lon="4.977978">
        <ele>168.076248</ele>
        <time>2017-06-04T18:26:15.163Z</time>
      </trkpt>
      <trkpt lat="44.991469" lon="4.977407">
        <ele>167.793785</ele>
        <time>2017-06-04T18:26:29.696Z</time>
      </trkpt>
      <trkpt lat="44.989566" lon="4.977696">
        <ele>167.021692</ele>
        <time>2017-06-04T18:27:10.662Z</time>
      </trkpt>
      <trkpt lat="44.989496" lon="4.977706">
        <ele>166.994477</ele>
        <time>2017-06-04T18:27:12.181Z</time>
      </trkpt>
      <trkpt lat="44.989434" lon="4.977716">
        <ele>166.970339</ele>
        <time>2017-06-04T18:27:13.608Z</time>
      </trkpt>
      <trkpt lat="44.989209" lon="4.977750">
        <ele>166.882810</ele>
        <time>2017-06-04T18:27:18.595Z</time>
      </trkpt>
      <trkpt lat="44.989154" lon="4.977758">
        <ele>166.861423</ele>
        <time>2017-06-04T18:27:19.764Z</time>
      </trkpt>
      <trkpt lat="44.989002" lon="4.977779">
        <ele>166.802347</ele>
        <time>2017-06-04T18:27:23.312Z</time>
      </trkpt>
      <trkpt lat="44.988859" lon="4.977799">
        <ele>166.746763</ele>
        <time>2017-06-04T18:27:26.467Z</time>
      </trkpt>
      <trkpt lat="44.988622" lon="4.977685">
        <ele>166.698151</ele>
        <time>2017-06-04T18:27:32.184Z</time>
      </trkpt>
      <trkpt lat="44.988554" lon="4.977591">
        <ele>166.684667</ele>
        <time>2017-06-04T18:27:34.271Z</time>
      </trkpt>
      <trkpt lat="44.988491" lon="4.977547">
        <ele>166.674705</ele>
        <time>2017-06-04T18:27:35.833Z</time>
      </trkpt>
      <trkpt lat="44.988424" lon="4.977436">
        <ele>166.660072</ele>
        <time>2017-06-04T18:27:38.271Z</time>
      </trkpt>
      <trkpt lat="44.988387" lon="4.977338">
        <ele>166.648933</ele>
        <time>2017-06-04T18:27:40.143Z</time>
      </trkpt>
      <trkpt lat="44.988334" lon="4.977345">
        <ele>166.641386</ele>
        <time>2017-06-04T18:27:41.321Z</time>
      </trkpt>
      <trkpt lat="44.988298" lon="4.977352">
        <ele>166.636233</ele>
        <time>2017-06-04T18:27:42.101Z</time>
      </trkpt>
      <trkpt lat="44.988257" lon="4.977391">
        <ele>166.629227</ele>
        <time>2017-06-04T18:27:43.247Z</time>
      </trkpt>
      <trkpt lat="44.988223" lon="4.977447">
        <ele>166.621827</ele>
        <time>2017-06-04T18:27:44.407Z</time>
      </trkpt>
      <trkpt lat="44.988206" lon="4.977477">
        <ele>166.617972</ele>
        <time>2017-06-04T18:27:45.088Z</time>
      </trkpt>
      <trkpt lat="44.988090" lon="4.977517">
        <ele>166.601043</ele>
        <time>2017-06-04T18:27:47.943Z</time>
      </trkpt>
      <trkpt lat="44.988005" lon="4.977493">
        <ele>166.588754</ele>
        <time>2017-06-04T18:27:49.936Z</time>
      </trkpt>
      <trkpt lat="44.987117" lon="4.976855">
        <ele>166.427104</ele>
        <time>2017-06-04T18:28:12.348Z</time>
      </trkpt>
      <trkpt lat="44.986508" lon="4.976624">
        <ele>166.260034</ele>
        <time>2017-06-04T18:28:26.242Z</time>
      </trkpt>
      <trkpt lat="44.986273" lon="4.976375">
        <ele>166.182223</ele>
        <time>2017-06-04T18:28:32.779Z</time>
      </trkpt>
      <trkpt lat="44.986231" lon="4.976334">
        <ele>166.168699</ele>
        <time>2017-06-04T18:28:33.970Z</time>
      </trkpt>
      <trkpt lat="44.986168" lon="4.976500">
        <ele>166.133395</ele>
        <time>2017-06-04T18:28:36.887Z</time>
      </trkpt>
      <trkpt lat="44.986062" lon="4.976516">
        <ele>166.105149</ele>
        <time>2017-06-04T18:28:39.298Z</time>
      </trkpt>
      <trkpt lat="44.985996" lon="4.976569">
        <ele>166.085037</ele>
        <time>2017-06-04T18:28:40.998Z</time>
      </trkpt>
      <trkpt lat="44.985770" lon="4.976463">
        <ele>166.021946</ele>
        <time>2017-06-04T18:28:46.262Z</time>
      </trkpt>
      <trkpt lat="44.985575" lon="4.976307">
        <ele>165.968922</ele>
        <time>2017-06-04T18:28:51.227Z</time>
      </trkpt>
      <trkpt lat="44.985254" lon="4.976180">
        <ele>165.898169</ele>
        <time>2017-06-04T18:28:58.567Z</time>
      </trkpt>
      <trkpt lat="44.985151" lon="4.976093">
        <ele>165.872702</ele>
        <time>2017-06-04T18:29:01.127Z</time>
      </trkpt>
      <trkpt lat="44.984908" lon="4.975755">
        <ele>165.800347</ele>
        <time>2017-06-04T18:29:08.527Z</time>
      </trkpt>
      <trkpt lat="44.984278" lon="4.974808">
        <ele>165.612304</ele>
        <time>2017-06-04T18:29:29.489Z</time>
      </trkpt>
      <trkpt lat="44.984164" lon="4.974733">
        <ele>165.610955</ele>
        <time>2017-06-04T18:29:32.452Z</time>
      </trkpt>
      <trkpt lat="44.983986" lon="4.974715">
        <ele>165.609040</ele>
        <time>2017-06-04T18:29:36.644Z</time>
      </trkpt>
      <trkpt lat="44.984003" lon="4.974660">
        <ele>165.608584</ele>
        <time>2017-06-04T18:29:37.647Z</time>
      </trkpt>
      <trkpt lat="44.984003" lon="4.974581">
        <ele>165.607985</ele>
        <time>2017-06-04T18:29:38.958Z</time>
      </trkpt>
      <trkpt lat="44.983957" lon="4.974482">
        <ele>165.607086</ele>
        <time>2017-06-04T18:29:40.969Z</time>
      </trkpt>
      <trkpt lat="44.983925" lon="4.974458">
        <ele>165.606697</ele>
        <time>2017-06-04T18:29:41.830Z</time>
      </trkpt>
      <trkpt lat="44.983883" lon="4.974447">
        <ele>165.606239</ele>
        <time>2017-06-04T18:29:42.826Z</time>
      </trkpt>
      <trkpt lat="44.983833" lon="4.974463">
        <ele>165.605689</ele>
        <time>2017-06-04T18:29:44.011Z</time>
      </trkpt>
      <trkpt lat="44.983798" lon="4.974497">
        <ele>165.605233</ele>
        <time>2017-06-04T18:29:44.976Z</time>
      </trkpt>
      <trkpt lat="44.983767" lon="4.974674">
        <ele>165.603849</ele>
        <time>2017-06-04T18:29:47.941Z</time>
      </trkpt>
      <trkpt lat="44.983799" lon="4.974745">
        <ele>165.603210</ele>
        <time>2017-06-04T18:29:49.334Z</time>
      </trkpt>
      <trkpt lat="44.983496" lon="4.975076">
        <ele>165.599101</ele>
        <time>2017-06-04T18:29:58.198Z</time>
      </trkpt>
      <trkpt lat="44.983405" lon="4.975055">
        <ele>165.598112</ele>
        <time>2017-06-04T18:30:00.372Z</time>
      </trkpt>
      <trkpt lat="44.982616" lon="4.973735">
        <ele>165.375608</ele>
        <time>2017-06-04T18:30:28.410Z</time>
      </trkpt>
      <trkpt lat="44.982024" lon="4.972758">
        <ele>165.122123</ele>
        <time>2017-06-04T18:30:48.189Z</time>
      </trkpt>
      <trkpt lat="44.981435" lon="4.971788">
        <ele>164.727403</ele>
        <time>2017-06-04T18:31:07.532Z</time>
      </trkpt>
      <trkpt lat="44.980866" lon="4.970984">
        <ele>164.359198</ele>
        <time>2017-06-04T18:31:24.922Z</time>
      </trkpt>
      <trkpt lat="44.980603" lon="4.970644">
        <ele>164.223918</ele>
        <time>2017-06-04T18:31:32.706Z</time>
      </trkpt>
      <trkpt lat="44.980088" lon="4.969883">
        <ele>164.012913</ele>
        <time>2017-06-04T18:31:49.199Z</time>
      </trkpt>
      <trkpt lat="44.979826" lon="4.969485">
        <ele>163.903986</ele>
        <time>2017-06-04T18:31:57.715Z</time>
      </trkpt>
      <trkpt lat="44.979359" lon="4.968778">
        <ele>163.726045</ele>
        <time>2017-06-04T18:32:13.011Z</time>
      </trkpt>
      <trkpt lat="44.978583" lon="4.967565">
        <ele>163.503419</ele>
        <time>2017-06-04T18:32:39.314Z</time>
      </trkpt>
      <trkpt lat="44.978305" lon="4.967124">
        <ele>163.423011</ele>
        <time>2017-06-04T18:32:48.645Z</time>
      </trkpt>
      <trkpt lat="44.977953" lon="4.966349">
        <ele>163.082869</ele>
        <time>2017-06-04T18:33:02.913Z</time>
      </trkpt>
      <trkpt lat="44.977750" lon="4.966001">
        <ele>162.907689</ele>
        <time>2017-06-04T18:33:09.826Z</time>
      </trkpt>
      <trkpt lat="44.977580" lon="4.965708">
        <ele>162.760516</ele>
        <time>2017-06-04T18:33:15.555Z</time>
      </trkpt>
      <trkpt lat="44.976999" lon="4.964776">
        <ele>162.219307</ele>
        <time>2017-06-04T18:33:33.719Z</time>
      </trkpt>
      <trkpt lat="44.976827" lon="4.964539">
        <ele>162.035086</ele>
        <time>2017-06-04T18:33:38.562Z</time>
      </trkpt>
      <trkpt lat="44.976708" lon="4.964289">
        <ele>161.871599</ele>
        <time>2017-06-04T18:33:42.983Z</time>
      </trkpt>
      <trkpt lat="44.976675" lon="4.963883">
        <ele>161.649871</ele>
        <time>2017-06-04T18:33:48.857Z</time>
      </trkpt>
      <trkpt lat="44.976622" lon="4.963782">
        <ele>161.581642</ele>
        <time>2017-06-04T18:33:50.745Z</time>
      </trkpt>
      <trkpt lat="44.976541" lon="4.963648">
        <ele>161.486011</ele>
        <time>2017-06-04T18:33:53.230Z</time>
      </trkpt>
      <trkpt lat="44.976549" lon="4.963572">
        <ele>161.444323</ele>
        <time>2017-06-04T18:33:54.361Z</time>
      </trkpt>
      <trkpt lat="44.976531" lon="4.963489">
        <ele>161.397222</ele>
        <time>2017-06-04T18:33:55.606Z</time>
      </trkpt>
      <trkpt lat="44.976503" lon="4.963440">
        <ele>161.363046</ele>
        <time>2017-06-04T18:33:56.531Z</time>
      </trkpt>
      <trkpt lat="44.976465" lon="4.963407">
        <ele>161.328841</ele>
        <time>2017-06-04T18:33:57.442Z</time>
      </trkpt>
      <trkpt lat="44.976425" lon="4.963394">
        <ele>161.297361</ele>
        <time>2017-06-04T18:33:58.281Z</time>
      </trkpt>
      <trkpt lat="44.976381" lon="4.963399">
        <ele>161.263505</ele>
        <time>2017-06-04T18:33:59.138Z</time>
      </trkpt>
      <trkpt lat="44.976334" lon="4.963430">
        <ele>161.223727</ele>
        <time>2017-06-04T18:34:00.125Z</time>
      </trkpt>
      <trkpt lat="44.976307" lon="4.963469">
        <ele>161.194120</ele>
        <time>2017-06-04T18:34:00.904Z</time>
      </trkpt>
      <trkpt lat="44.976284" lon="4.963532">
        <ele>161.155655</ele>
        <time>2017-06-04T18:34:01.951Z</time>
      </trkpt>
      <trkpt lat="44.976094" lon="4.963550">
        <ele>161.036802</ele>
        <time>2017-06-04T18:34:05.892Z</time>
      </trkpt>
      <trkpt lat="44.976006" lon="4.963472">
        <ele>161.015829</ele>
        <time>2017-06-04T18:34:07.946Z</time>
      </trkpt>
      <trkpt lat="44.975623" lon="4.962788">
        <ele>160.891223</ele>
        <time>2017-06-04T18:34:20.920Z</time>
      </trkpt>
      <trkpt lat="44.975307" lon="4.962320">
        <ele>160.798809</ele>
        <time>2017-06-04T18:34:30.799Z</time>
      </trkpt>
      <trkpt lat="44.975220" lon="4.962192">
        <ele>160.773453</ele>
        <time>2017-06-04T18:34:33.643Z</time>
      </trkpt>
      <trkpt lat="44.974775" lon="4.961472">
        <ele>160.719615</ele>
        <time>2017-06-04T18:34:49.027Z</time>
      </trkpt>
      <trkpt lat="44.974298" lon="4.960689">
        <ele>160.834887</ele>
        <time>2017-06-04T18:35:05.844Z</time>
      </trkpt>
      <trkpt lat="44.974057" lon="4.960293">
        <ele>160.893161</ele>
        <time>2017-06-04T18:35:14.422Z</time>
      </trkpt>
      <trkpt lat="44.973990" lon="4.960191">
        <ele>160.908689</ele>
        <time>2017-06-04T18:35:16.714Z</time>
      </trkpt>
      <trkpt lat="44.973697" lon="4.959744">
        <ele>160.959262</ele>
        <time>2017-06-04T18:35:26.670Z</time>
      </trkpt>
      <trkpt lat="44.973458" lon="4.959261">
        <ele>160.906999</ele>
        <time>2017-06-04T18:35:36.015Z</time>
      </trkpt>
      <trkpt lat="44.972975" lon="4.958484">
        <ele>160.815285</ele>
        <time>2017-06-04T18:35:51.722Z</time>
      </trkpt>
      <trkpt lat="44.972762" lon="4.958231">
        <ele>160.780415</ele>
        <time>2017-06-04T18:35:57.629Z</time>
      </trkpt>
      <trkpt lat="44.972388" lon="4.957636">
        <ele>160.641495</ele>
        <time>2017-06-04T18:36:09.742Z</time>
      </trkpt>
      <trkpt lat="44.972069" lon="4.957118">
        <ele>160.449286</ele>
        <time>2017-06-04T18:36:20.092Z</time>
      </trkpt>
      <trkpt lat="44.972009" lon="4.957021">
        <ele>160.413225</ele>
        <time>2017-06-04T18:36:22.022Z</time>
      </trkpt>
      <trkpt lat="44.971860" lon="4.956777">
        <ele>160.323013</ele>
        <time>2017-06-04T18:36:26.735Z</time>
      </trkpt>
      <trkpt lat="44.971768" lon="4.956625">
        <ele>160.267027</ele>
        <time>2017-06-04T18:36:29.598Z</time>
      </trkpt>
      <trkpt lat="44.971717" lon="4.956542">
        <ele>160.236259</ele>
        <time>2017-06-04T18:36:31.179Z</time>
      </trkpt>
      <trkpt lat="44.971632" lon="4.956402">
        <ele>160.184625</ele>
        <time>2017-06-04T18:36:33.895Z</time>
      </trkpt>
      <trkpt lat="44.971421" lon="4.956056">
        <ele>160.056775</ele>
        <time>2017-06-04T18:36:40.472Z</time>
      </trkpt>
      <trkpt lat="44.971081" lon="4.955500">
        <ele>159.809688</ele>
        <time>2017-06-04T18:36:51.098Z</time>
      </trkpt>
      <trkpt lat="44.970940" lon="4.955270">
        <ele>159.704797</ele>
        <time>2017-06-04T18:36:55.704Z</time>
      </trkpt>
      <trkpt lat="44.970894" lon="4.955121">
        <ele>159.648768</ele>
        <time>2017-06-04T18:36:58.099Z</time>
      </trkpt>
      <trkpt lat="44.970842" lon="4.955012">
        <ele>159.603457</ele>
        <time>2017-06-04T18:36:59.940Z</time>
      </trkpt>
      <trkpt lat="44.970664" lon="4.954726">
        <ele>159.472172</ele>
        <time>2017-06-04T18:37:05.635Z</time>
      </trkpt>
      <trkpt lat="44.970640" lon="4.954710">
        <ele>159.459245</ele>
        <time>2017-06-04T18:37:06.144Z</time>
      </trkpt>
      <trkpt lat="44.970569" lon="4.954671">
        <ele>159.422136</ele>
        <time>2017-06-04T18:37:07.640Z</time>
      </trkpt>
      <trkpt lat="44.970495" lon="4.954601">
        <ele>159.378758</ele>
        <time>2017-06-04T18:37:09.537Z</time>
      </trkpt>
      <trkpt lat="44.970365" lon="4.954379">
        <ele>159.279434</ele>
        <time>2017-06-04T18:37:13.657Z</time>
      </trkpt>
      <trkpt lat="44.970330" lon="4.954326">
        <ele>159.254446</ele>
        <time>2017-06-04T18:37:14.655Z</time>
      </trkpt>
      <trkpt lat="44.970143" lon="4.954034">
        <ele>159.140795</ele>
        <time>2017-06-04T18:37:20.426Z</time>
      </trkpt>
      <trkpt lat="44.970052" lon="4.953889">
        <ele>159.116122</ele>
        <time>2017-06-04T18:37:23.165Z</time>
      </trkpt>
      <trkpt lat="44.969984" lon="4.953780">
        <ele>159.097623</ele>
        <time>2017-06-04T18:37:25.405Z</time>
      </trkpt>
      <trkpt lat="44.969623" lon="4.953201">
        <ele>158.999385</ele>
        <time>2017-06-04T18:37:36.948Z</time>
      </trkpt>
      <trkpt lat="44.969357" lon="4.952772">
        <ele>158.926772</ele>
        <time>2017-06-04T18:37:45.926Z</time>
      </trkpt>
      <trkpt lat="44.969158" lon="4.952425">
        <ele>158.869913</ele>
        <time>2017-06-04T18:37:53.035Z</time>
      </trkpt>
      <trkpt lat="44.968868" lon="4.951911">
        <ele>158.813223</ele>
        <time>2017-06-04T18:38:03.566Z</time>
      </trkpt>
      <trkpt lat="44.968787" lon="4.951770">
        <ele>158.804324</ele>
        <time>2017-06-04T18:38:06.413Z</time>
      </trkpt>
      <trkpt lat="44.968719" lon="4.951682">
        <ele>158.797939</ele>
        <time>2017-06-04T18:38:08.420Z</time>
      </trkpt>
      <trkpt lat="44.968281" lon="4.951011">
        <ele>158.753206</ele>
        <time>2017-06-04T18:38:22.568Z</time>
      </trkpt>
      <trkpt lat="44.967946" lon="4.950490">
        <ele>158.718711</ele>
        <time>2017-06-04T18:38:33.327Z</time>
      </trkpt>
      <trkpt lat="44.967484" lon="4.949772">
        <ele>158.625152</ele>
        <time>2017-06-04T18:38:48.462Z</time>
      </trkpt>
      <trkpt lat="44.967008" lon="4.949002">
        <ele>158.508040</ele>
        <time>2017-06-04T18:39:04.401Z</time>
      </trkpt>
      <trkpt lat="44.966919" lon="4.948858">
        <ele>158.486141</ele>
        <time>2017-06-04T18:39:07.284Z</time>
      </trkpt>
      <trkpt lat="44.966798" lon="4.948661">
        <ele>158.456262</ele>
        <time>2017-06-04T18:39:11.228Z</time>
      </trkpt>
      <trkpt lat="44.966573" lon="4.948297">
        <ele>158.360863</ele>
        <time>2017-06-04T18:39:18.415Z</time>
      </trkpt>
      <trkpt lat="44.966269" lon="4.947803">
        <ele>158.063226</ele>
        <time>2017-06-04T18:39:28.046Z</time>
      </trkpt>
      <trkpt lat="44.965874" lon="4.947179">
        <ele>157.682586</ele>
        <time>2017-06-04T18:39:40.340Z</time>
      </trkpt>
      <trkpt lat="44.965401" lon="4.946410">
        <ele>157.182744</ele>
        <time>2017-06-04T18:39:54.376Z</time>
      </trkpt>
      <trkpt lat="44.965098" lon="4.945945">
        <ele>156.627945</ele>
        <time>2017-06-04T18:40:02.740Z</time>
      </trkpt>
      <trkpt lat="44.964893" lon="4.945630">
        <ele>156.252330</ele>
        <time>2017-06-04T18:40:08.351Z</time>
      </trkpt>
      <trkpt lat="44.964365" lon="4.944776">
        <ele>155.256995</ele>
        <time>2017-06-04T18:40:23.517Z</time>
      </trkpt>
      <trkpt lat="44.964193" lon="4.944494">
        <ele>154.893713</ele>
        <time>2017-06-04T18:40:28.475Z</time>
      </trkpt>
      <trkpt lat="44.963693" lon="4.943673">
        <ele>153.586603</ele>
        <time>2017-06-04T18:40:42.632Z</time>
      </trkpt>
      <trkpt lat="44.963646" lon="4.943462">
        <ele>153.319676</ele>
        <time>2017-06-04T18:40:45.450Z</time>
      </trkpt>
      <trkpt lat="44.963676" lon="4.943352">
        <ele>153.177423</ele>
        <time>2017-06-04T18:40:46.949Z</time>
      </trkpt>
      <trkpt lat="44.963669" lon="4.943208">
        <ele>153.003253</ele>
        <time>2017-06-04T18:40:48.750Z</time>
      </trkpt>
      <trkpt lat="44.963634" lon="4.943117">
        <ele>152.878271</ele>
        <time>2017-06-04T18:40:50.011Z</time>
      </trkpt>
      <trkpt lat="44.963599" lon="4.943068">
        <ele>152.794254</ele>
        <time>2017-06-04T18:40:50.850Z</time>
      </trkpt>
      <trkpt lat="44.963556" lon="4.943031">
        <ele>152.708400</ele>
        <time>2017-06-04T18:40:51.699Z</time>
      </trkpt>
      <trkpt lat="44.963505" lon="4.943009">
        <ele>152.617463</ele>
        <time>2017-06-04T18:40:52.612Z</time>
      </trkpt>
      <trkpt lat="44.963443" lon="4.943008">
        <ele>152.511720</ele>
        <time>2017-06-04T18:40:53.707Z</time>
      </trkpt>
      <trkpt lat="44.963381" lon="4.943034">
        <ele>152.401429</ele>
        <time>2017-06-04T18:40:54.800Z</time>
      </trkpt>
      <trkpt lat="44.963245" lon="4.942960">
        <ele>152.152898</ele>
        <time>2017-06-04T18:40:57.246Z</time>
      </trkpt>
      <trkpt lat="44.962899" lon="4.942434">
        <ele>151.672279</ele>
        <time>2017-06-04T18:41:06.386Z</time>
      </trkpt>
      <trkpt lat="44.962803" lon="4.942319">
        <ele>151.580584</ele>
        <time>2017-06-04T18:41:08.690Z</time>
      </trkpt>
      <trkpt lat="44.962551" lon="4.942019">
        <ele>151.340506</ele>
        <time>2017-06-04T18:41:15.005Z</time>
      </trkpt>
      <trkpt lat="44.962417" lon="4.941860">
        <ele>151.213020</ele>
        <time>2017-06-04T18:41:18.310Z</time>
      </trkpt>
      <trkpt lat="44.962160" lon="4.941573">
        <ele>150.974356</ele>
        <time>2017-06-04T18:41:25.031Z</time>
      </trkpt>
      <trkpt lat="44.961855" lon="4.941232">
        <ele>150.690989</ele>
        <time>2017-06-04T18:41:34.329Z</time>
      </trkpt>
      <trkpt lat="44.961307" lon="4.940584">
        <ele>151.740048</ele>
        <time>2017-06-04T18:41:53.546Z</time>
      </trkpt>
      <trkpt lat="44.961192" lon="4.940352">
        <ele>152.072280</ele>
        <time>2017-06-04T18:41:59.788Z</time>
      </trkpt>
      <trkpt lat="44.961203" lon="4.940273">
        <ele>152.166714</ele>
        <time>2017-06-04T18:42:01.524Z</time>
      </trkpt>
      <trkpt lat="44.961199" lon="4.940156">
        <ele>152.304100</ele>
        <time>2017-06-04T18:42:03.937Z</time>
      </trkpt>
      <trkpt lat="44.961162" lon="4.940013">
        <ele>152.482683</ele>
        <time>2017-06-04T18:42:07.542Z</time>
      </trkpt>
      <trkpt lat="44.961092" lon="4.939927">
        <ele>152.636427</ele>
        <time>2017-06-04T18:42:10.594Z</time>
      </trkpt>
      <trkpt lat="44.960988" lon="4.939888">
        <ele>152.814780</ele>
        <time>2017-06-04T18:42:14.079Z</time>
      </trkpt>
      <trkpt lat="44.960908" lon="4.939905">
        <ele>152.948876</ele>
        <time>2017-06-04T18:42:16.512Z</time>
      </trkpt>
      <trkpt lat="44.960855" lon="4.939942">
        <ele>153.046861</ele>
        <time>2017-06-04T18:42:18.402Z</time>
      </trkpt>
      <trkpt lat="44.960678" lon="4.939784">
        <ele>153.393877</ele>
        <time>2017-06-04T18:42:24.958Z</time>
      </trkpt>
      <trkpt lat="44.959941" lon="4.938904">
        <ele>154.620722</ele>
        <time>2017-06-04T18:42:53.004Z</time>
      </trkpt>
      <trkpt lat="44.959749" lon="4.938634">
        <ele>154.946931</ele>
        <time>2017-06-04T18:43:00.268Z</time>
      </trkpt>
      <trkpt lat="44.959347" lon="4.938067">
        <ele>155.630948</ele>
        <time>2017-06-04T18:43:14.258Z</time>
      </trkpt>
      <trkpt lat="44.958681" lon="4.937263">
        <ele>155.971784</ele>
        <time>2017-06-04T18:43:35.198Z</time>
      </trkpt>
      <trkpt lat="44.958241" lon="4.936694">
        <ele>156.112872</ele>
        <time>2017-06-04T18:43:49.182Z</time>
      </trkpt>
      <trkpt lat="44.957953" lon="4.936336">
        <ele>156.203608</ele>
        <time>2017-06-04T18:43:57.657Z</time>
      </trkpt>
      <trkpt lat="44.957853" lon="4.936222">
        <ele>156.200044</ele>
        <time>2017-06-04T18:44:00.332Z</time>
      </trkpt>
      <trkpt lat="44.957413" lon="4.935718">
        <ele>155.930439</ele>
        <time>2017-06-04T18:44:12.570Z</time>
      </trkpt>
      <trkpt lat="44.957100" lon="4.935376">
        <ele>155.742108</ele>
        <time>2017-06-04T18:44:20.946Z</time>
      </trkpt>
      <trkpt lat="44.956971" lon="4.935235">
        <ele>155.664479</ele>
        <time>2017-06-04T18:44:24.248Z</time>
      </trkpt>
      <trkpt lat="44.956660" lon="4.934945">
        <ele>155.487117</ele>
        <time>2017-06-04T18:44:31.708Z</time>
      </trkpt>
      <trkpt lat="44.956441" lon="4.934761">
        <ele>155.365528</ele>
        <time>2017-06-04T18:44:36.527Z</time>
      </trkpt>
      <trkpt lat="44.956341" lon="4.934677">
        <ele>155.286440</ele>
        <time>2017-06-04T18:44:38.870Z</time>
      </trkpt>
      <trkpt lat="44.956186" lon="4.934472">
        <ele>155.142114</ele>
        <time>2017-06-04T18:44:42.904Z</time>
      </trkpt>
      <trkpt lat="44.956035" lon="4.934240">
        <ele>154.990471</ele>
        <time>2017-06-04T18:44:47.333Z</time>
      </trkpt>
      <trkpt lat="44.955946" lon="4.933982">
        <ele>154.852388</ele>
        <time>2017-06-04T18:44:51.162Z</time>
      </trkpt>
      <trkpt lat="44.955878" lon="4.933744">
        <ele>154.728909</ele>
        <time>2017-06-04T18:44:54.896Z</time>
      </trkpt>
      <trkpt lat="44.955810" lon="4.933465">
        <ele>154.586947</ele>
        <time>2017-06-04T18:44:59.102Z</time>
      </trkpt>
      <trkpt lat="44.955770" lon="4.933314">
        <ele>154.509380</ele>
        <time>2017-06-04T18:45:01.480Z</time>
      </trkpt>
      <trkpt lat="44.955725" lon="4.933147">
        <ele>154.423411</ele>
        <time>2017-06-04T18:45:04.032Z</time>
      </trkpt>
      <trkpt lat="44.955700" lon="4.933064">
        <ele>154.380014</ele>
        <time>2017-06-04T18:45:05.322Z</time>
      </trkpt>
      <trkpt lat="44.955593" lon="4.932863">
        <ele>154.259009</ele>
        <time>2017-06-04T18:45:09.213Z</time>
      </trkpt>
      <trkpt lat="44.955438" lon="4.932687">
        <ele>154.140767</ele>
        <time>2017-06-04T18:45:13.339Z</time>
      </trkpt>
      <trkpt lat="44.954927" lon="4.932489">
        <ele>154.086417</ele>
        <time>2017-06-04T18:45:24.467Z</time>
      </trkpt>
      <trkpt lat="44.954872" lon="4.932418">
        <ele>154.078775</ele>
        <time>2017-06-04T18:45:26.095Z</time>
      </trkpt>
      <trkpt lat="44.954859" lon="4.932371">
        <ele>154.075112</ele>
        <time>2017-06-04T18:45:26.841Z</time>
      </trkpt>
      <trkpt lat="44.954843" lon="4.932324">
        <ele>154.071326</ele>
        <time>2017-06-04T18:45:27.630Z</time>
      </trkpt>
      <trkpt lat="44.954784" lon="4.932209">
        <ele>154.061016</ele>
        <time>2017-06-04T18:45:29.853Z</time>
      </trkpt>
      <trkpt lat="44.954708" lon="4.932116">
        <ele>154.050703</ele>
        <time>2017-06-04T18:45:31.919Z</time>
      </trkpt>
      <trkpt lat="44.954620" lon="4.932050">
        <ele>154.040484</ele>
        <time>2017-06-04T18:45:34.213Z</time>
      </trkpt>
      <trkpt lat="44.954503" lon="4.932012">
        <ele>154.028170</ele>
        <time>2017-06-04T18:45:36.966Z</time>
      </trkpt>
      <trkpt lat="44.954384" lon="4.932021">
        <ele>154.015946</ele>
        <time>2017-06-04T18:45:39.688Z</time>
      </trkpt>
      <trkpt lat="44.954271" lon="4.932075">
        <ele>154.003710</ele>
        <time>2017-06-04T18:45:42.634Z</time>
      </trkpt>
      <trkpt lat="44.954111" lon="4.932058">
        <ele>153.987252</ele>
        <time>2017-06-04T18:45:46.515Z</time>
      </trkpt>
      <trkpt lat="44.954016" lon="4.932012">
        <ele>153.976951</ele>
        <time>2017-06-04T18:45:48.785Z</time>
      </trkpt>
      <trkpt lat="44.952797" lon="4.930537">
        <ele>153.520092</ele>
        <time>2017-06-04T18:46:23.458Z</time>
      </trkpt>
      <trkpt lat="44.952748" lon="4.930435">
        <ele>153.493345</ele>
        <time>2017-06-04T18:46:25.269Z</time>
      </trkpt>
      <trkpt lat="44.952749" lon="4.930269">
        <ele>153.457329</ele>
        <time>2017-06-04T18:46:27.600Z</time>
      </trkpt>
      <trkpt lat="44.952697" lon="4.930130">
        <ele>153.423217</ele>
        <time>2017-06-04T18:46:29.686Z</time>
      </trkpt>
      <trkpt lat="44.952582" lon="4.930027">
        <ele>153.320635</ele>
        <time>2017-06-04T18:46:32.443Z</time>
      </trkpt>
      <trkpt lat="44.952519" lon="4.930027">
        <ele>153.256797</ele>
        <time>2017-06-04T18:46:33.655Z</time>
      </trkpt>
      <trkpt lat="44.952451" lon="4.930027">
        <ele>153.187893</ele>
        <time>2017-06-04T18:46:34.989Z</time>
      </trkpt>
      <trkpt lat="44.952349" lon="4.929991">
        <ele>153.081361</ele>
        <time>2017-06-04T18:46:36.932Z</time>
      </trkpt>
      <trkpt lat="44.952266" lon="4.929915">
        <ele>152.981143</ele>
        <time>2017-06-04T18:46:38.936Z</time>
      </trkpt>
      <trkpt lat="44.950819" lon="4.928183">
        <ele>151.033905</ele>
        <time>2017-06-04T18:47:15.149Z</time>
      </trkpt>
      <trkpt lat="44.950644" lon="4.927974">
        <ele>150.790400</ele>
        <time>2017-06-04T18:47:19.539Z</time>
      </trkpt>
      <trkpt lat="44.950272" lon="4.927419">
        <ele>150.215489</ele>
        <time>2017-06-04T18:47:30.376Z</time>
      </trkpt>
      <trkpt lat="44.950260" lon="4.927296">
        <ele>150.122105</ele>
        <time>2017-06-04T18:47:32.122Z</time>
      </trkpt>
      <trkpt lat="44.950174" lon="4.927291">
        <ele>150.030635</ele>
        <time>2017-06-04T18:47:33.742Z</time>
      </trkpt>
      <trkpt lat="44.949721" lon="4.926870">
        <ele>149.686268</ele>
        <time>2017-06-04T18:47:44.534Z</time>
      </trkpt>
      <trkpt lat="44.948793" lon="4.925758">
        <ele>149.759359</ele>
        <time>2017-06-04T18:48:10.583Z</time>
      </trkpt>
      <trkpt lat="44.946303" lon="4.922849">
        <ele>153.801779</ele>
        <time>2017-06-04T18:49:43.751Z</time>
      </trkpt>
      <trkpt lat="44.946065" lon="4.922479">
        <ele>154.205652</ele>
        <time>2017-06-04T18:49:53.218Z</time>
      </trkpt>
      <trkpt lat="44.946069" lon="4.922321">
        <ele>154.333365</ele>
        <time>2017-06-04T18:49:55.729Z</time>
      </trkpt>
      <trkpt lat="44.945956" lon="4.922343">
        <ele>154.463551</ele>
        <time>2017-06-04T18:49:58.903Z</time>
      </trkpt>
      <trkpt lat="44.945701" lon="4.922136">
        <ele>154.633533</ele>
        <time>2017-06-04T18:50:06.048Z</time>
      </trkpt>
      <trkpt lat="44.944795" lon="4.921072">
        <ele>154.501817</ele>
        <time>2017-06-04T18:50:31.264Z</time>
      </trkpt>
      <trkpt lat="44.944093" lon="4.920246">
        <ele>154.280485</ele>
        <time>2017-06-04T18:50:50.886Z</time>
      </trkpt>
      <trkpt lat="44.943552" lon="4.919580">
        <ele>153.999134</ele>
        <time>2017-06-04T18:51:05.683Z</time>
      </trkpt>
      <trkpt lat="44.943117" lon="4.919044">
        <ele>153.772819</ele>
        <time>2017-06-04T18:51:17.702Z</time>
      </trkpt>
      <trkpt lat="44.942703" lon="4.918538">
        <ele>153.601024</ele>
        <time>2017-06-04T18:51:28.923Z</time>
      </trkpt>
      <trkpt lat="44.942147" lon="4.917882">
        <ele>153.383202</ele>
        <time>2017-06-04T18:51:44.103Z</time>
      </trkpt>
      <trkpt lat="44.942020" lon="4.917732">
        <ele>153.333425</ele>
        <time>2017-06-04T18:51:47.779Z</time>
      </trkpt>
      <trkpt lat="44.941276" lon="4.916854">
        <ele>153.054327</ele>
        <time>2017-06-04T18:52:09.036Z</time>
      </trkpt>
      <trkpt lat="44.940969" lon="4.916492">
        <ele>152.943450</ele>
        <time>2017-06-04T18:52:17.643Z</time>
      </trkpt>
      <trkpt lat="44.940473" lon="4.915959">
        <ele>152.770659</ele>
        <time>2017-06-04T18:52:30.537Z</time>
      </trkpt>
      <trkpt lat="44.940413" lon="4.915842">
        <ele>152.742302</ele>
        <time>2017-06-04T18:52:32.725Z</time>
      </trkpt>
      <trkpt lat="44.940347" lon="4.915653">
        <ele>152.698738</ele>
        <time>2017-06-04T18:52:35.835Z</time>
      </trkpt>
      <trkpt lat="44.940369" lon="4.915508">
        <ele>152.626368</ele>
        <time>2017-06-04T18:52:37.959Z</time>
      </trkpt>
      <trkpt lat="44.940366" lon="4.915288">
        <ele>152.518983</ele>
        <time>2017-06-04T18:52:41.319Z</time>
      </trkpt>
      <trkpt lat="44.940341" lon="4.915137">
        <ele>152.443303</ele>
        <time>2017-06-04T18:52:43.593Z</time>
      </trkpt>
      <trkpt lat="44.940243" lon="4.914962">
        <ele>152.334403</ele>
        <time>2017-06-04T18:52:46.883Z</time>
      </trkpt>
      <trkpt lat="44.940121" lon="4.914857">
        <ele>152.235911</ele>
        <time>2017-06-04T18:52:49.811Z</time>
      </trkpt>
      <trkpt lat="44.940017" lon="4.914828">
        <ele>152.162825</ele>
        <time>2017-06-04T18:52:51.880Z</time>
      </trkpt>
      <trkpt lat="44.939865" lon="4.914837">
        <ele>152.057936</ele>
        <time>2017-06-04T18:52:54.957Z</time>
      </trkpt>
      <trkpt lat="44.939733" lon="4.914845">
        <ele>151.966845</ele>
        <time>2017-06-04T18:52:57.605Z</time>
      </trkpt>
      <trkpt lat="44.939612" lon="4.914807">
        <ele>151.881385</ele>
        <time>2017-06-04T18:53:00.020Z</time>
      </trkpt>
      <trkpt lat="44.939550" lon="4.914772">
        <ele>151.835353</ele>
        <time>2017-06-04T18:53:01.385Z</time>
      </trkpt>
      <trkpt lat="44.939464" lon="4.914675">
        <ele>151.759481</ele>
        <time>2017-06-04T18:53:03.598Z</time>
      </trkpt>
      <trkpt lat="44.939424" lon="4.914637">
        <ele>151.726247</ele>
        <time>2017-06-04T18:53:04.532Z</time>
      </trkpt>
      <trkpt lat="44.939336" lon="4.914543">
        <ele>151.650184</ele>
        <time>2017-06-04T18:53:06.639Z</time>
      </trkpt>
      <trkpt lat="44.939039" lon="4.914256">
        <ele>151.332767</ele>
        <time>2017-06-04T18:53:13.639Z</time>
      </trkpt>
      <trkpt lat="44.938603" lon="4.913772">
        <ele>150.510544</ele>
        <time>2017-06-04T18:53:24.245Z</time>
      </trkpt>
      <trkpt lat="44.938389" lon="4.913503">
        <ele>150.085792</ele>
        <time>2017-06-04T18:53:29.618Z</time>
      </trkpt>
      <trkpt lat="44.938282" lon="4.913367">
        <ele>149.872366</ele>
        <time>2017-06-04T18:53:32.286Z</time>
      </trkpt>
      <trkpt lat="44.937955" lon="4.912942">
        <ele>149.213497</ele>
        <time>2017-06-04T18:53:40.275Z</time>
      </trkpt>
      <trkpt lat="44.937861" lon="4.912833">
        <ele>149.033170</ele>
        <time>2017-06-04T18:53:42.438Z</time>
      </trkpt>
      <trkpt lat="44.937510" lon="4.912425">
        <ele>148.112240</ele>
        <time>2017-06-04T18:53:50.297Z</time>
      </trkpt>
      <trkpt lat="44.937385" lon="4.912241">
        <ele>147.693002</ele>
        <time>2017-06-04T18:53:53.359Z</time>
      </trkpt>
      <trkpt lat="44.937330" lon="4.912159">
        <ele>147.507299</ele>
        <time>2017-06-04T18:53:54.756Z</time>
      </trkpt>
      <trkpt lat="44.937152" lon="4.911898">
        <ele>146.911506</ele>
        <time>2017-06-04T18:53:59.118Z</time>
      </trkpt>
      <trkpt lat="44.937128" lon="4.911863">
        <ele>146.831400</ele>
        <time>2017-06-04T18:53:59.721Z</time>
      </trkpt>
      <trkpt lat="44.936884" lon="4.911504">
        <ele>146.013243</ele>
        <time>2017-06-04T18:54:05.855Z</time>
      </trkpt>
      <trkpt lat="44.936625" lon="4.911123">
        <ele>145.144869</ele>
        <time>2017-06-04T18:54:12.539Z</time>
      </trkpt>
      <trkpt lat="44.936493" lon="4.910928">
        <ele>144.701323</ele>
        <time>2017-06-04T18:54:15.929Z</time>
      </trkpt>
      <trkpt lat="44.936436" lon="4.910848">
        <ele>144.444124</ele>
        <time>2017-06-04T18:54:17.264Z</time>
      </trkpt>
      <trkpt lat="44.936420" lon="4.910826">
        <ele>144.356926</ele>
        <time>2017-06-04T18:54:17.630Z</time>
      </trkpt>
      <trkpt lat="44.936134" lon="4.910423">
        <ele>142.779353</ele>
        <time>2017-06-04T18:54:24.135Z</time>
      </trkpt>
      <trkpt lat="44.935574" lon="4.909636">
        <ele>139.694465</ele>
        <time>2017-06-04T18:54:36.386Z</time>
      </trkpt>
      <trkpt lat="44.935547" lon="4.909597">
        <ele>139.543657</ele>
        <time>2017-06-04T18:54:36.984Z</time>
      </trkpt>
      <trkpt lat="44.935468" lon="4.909485">
        <ele>139.106558</ele>
        <time>2017-06-04T18:54:38.681Z</time>
      </trkpt>
      <trkpt lat="44.935447" lon="4.909455">
        <ele>138.989919</ele>
        <time>2017-06-04T18:54:39.139Z</time>
      </trkpt>
      <trkpt lat="44.935402" lon="4.909391">
        <ele>138.740542</ele>
        <time>2017-06-04T18:54:40.109Z</time>
      </trkpt>
      <trkpt lat="44.935159" lon="4.909034">
        <ele>137.379936</ele>
        <time>2017-06-04T18:54:45.528Z</time>
      </trkpt>
      <trkpt lat="44.935097" lon="4.908920">
        <ele>136.997810</ele>
        <time>2017-06-04T18:54:47.160Z</time>
      </trkpt>
      <trkpt lat="44.934913" lon="4.908215">
        <ele>135.000536</ele>
        <time>2017-06-04T18:54:55.446Z</time>
      </trkpt>
      <trkpt lat="44.934868" lon="4.908042">
        <ele>134.510621</ele>
        <time>2017-06-04T18:54:57.469Z</time>
      </trkpt>
      <trkpt lat="44.934691" lon="4.907364">
        <ele>132.589771</ele>
        <time>2017-06-04T18:55:05.445Z</time>
      </trkpt>
      <trkpt lat="44.934643" lon="4.907187">
        <ele>132.085942</ele>
        <time>2017-06-04T18:55:07.554Z</time>
      </trkpt>
      <trkpt lat="44.934620" lon="4.907099">
        <ele>131.836593</ele>
        <time>2017-06-04T18:55:08.624Z</time>
      </trkpt>
      <trkpt lat="44.934503" lon="4.906646">
        <ele>130.764408</ele>
        <time>2017-06-04T18:55:14.396Z</time>
      </trkpt>
      <trkpt lat="44.934263" lon="4.905726">
        <ele>130.071151</ele>
        <time>2017-06-04T18:55:27.307Z</time>
      </trkpt>
      <trkpt lat="44.933958" lon="4.904554">
        <ele>129.188253</ele>
        <time>2017-06-04T18:55:46.223Z</time>
      </trkpt>
      <trkpt lat="44.933925" lon="4.904438">
        <ele>129.099859</ele>
        <time>2017-06-04T18:55:48.070Z</time>
      </trkpt>
      <trkpt lat="44.933908" lon="4.904237">
        <ele>129.030069</ele>
        <time>2017-06-04T18:55:51.136Z</time>
      </trkpt>
      <trkpt lat="44.933944" lon="4.904217">
        <ele>129.023942</ele>
        <time>2017-06-04T18:55:52.022Z</time>
      </trkpt>
      <trkpt lat="44.933974" lon="4.904172">
        <ele>129.017010</ele>
        <time>2017-06-04T18:55:53.025Z</time>
      </trkpt>
      <trkpt lat="44.933986" lon="4.904115">
        <ele>129.010342</ele>
        <time>2017-06-04T18:55:53.951Z</time>
      </trkpt>
      <trkpt lat="44.933973" lon="4.904040">
        <ele>129.001684</ele>
        <time>2017-06-04T18:55:55.110Z</time>
      </trkpt>
      <trkpt lat="44.933951" lon="4.904003">
        <ele>128.996265</ele>
        <time>2017-06-04T18:55:55.807Z</time>
      </trkpt>
      <trkpt lat="44.933923" lon="4.903981">
        <ele>128.991190</ele>
        <time>2017-06-04T18:55:56.468Z</time>
      </trkpt>
      <trkpt lat="44.933870" lon="4.903978">
        <ele>128.982788</ele>
        <time>2017-06-04T18:55:57.556Z</time>
      </trkpt>
      <trkpt lat="44.933812" lon="4.903821">
        <ele>128.962930</ele>
        <time>2017-06-04T18:56:00.319Z</time>
      </trkpt>
      <trkpt lat="44.933470" lon="4.902440">
        <ele>128.798870</ele>
        <time>2017-06-04T18:56:22.541Z</time>
      </trkpt>
      <trkpt lat="44.933427" lon="4.902267">
        <ele>128.778309</ele>
        <time>2017-06-04T18:56:25.599Z</time>
      </trkpt>
      <trkpt lat="44.933002" lon="4.900318">
        <ele>128.750132</ele>
        <time>2017-06-04T18:56:58.080Z</time>
      </trkpt>
      <trkpt lat="44.932963" lon="4.900137">
        <ele>128.749234</ele>
        <time>2017-06-04T18:57:00.906Z</time>
      </trkpt>
      <trkpt lat="44.932886" lon="4.899782">
        <ele>128.747473</ele>
        <time>2017-06-04T18:57:06.703Z</time>
      </trkpt>
      <trkpt lat="44.932710" lon="4.898973">
        <ele>128.970842</ele>
        <time>2017-06-04T18:57:19.786Z</time>
      </trkpt>
      <trkpt lat="44.932706" lon="4.898953">
        <ele>128.977189</ele>
        <time>2017-06-04T18:57:20.129Z</time>
      </trkpt>
      <trkpt lat="44.932701" lon="4.898845">
        <ele>129.010241</ele>
        <time>2017-06-04T18:57:21.864Z</time>
      </trkpt>
      <trkpt lat="44.932721" lon="4.898831">
        <ele>129.019869</ele>
        <time>2017-06-04T18:57:22.415Z</time>
      </trkpt>
      <trkpt lat="44.932770" lon="4.898735">
        <ele>129.056012</ele>
        <time>2017-06-04T18:57:24.450Z</time>
      </trkpt>
      <trkpt lat="44.932774" lon="4.898700">
        <ele>129.066839</ele>
        <time>2017-06-04T18:57:25.015Z</time>
      </trkpt>
      <trkpt lat="44.932870" lon="4.898616">
        <ele>129.115552</ele>
        <time>2017-06-04T18:57:27.595Z</time>
      </trkpt>
      <trkpt lat="44.932963" lon="4.898534">
        <ele>129.162844</ele>
        <time>2017-06-04T18:57:30.148Z</time>
      </trkpt>
      <trkpt lat="44.933801" lon="4.898190">
        <ele>129.557194</ele>
        <time>2017-06-04T18:57:52.636Z</time>
      </trkpt>
      <trkpt lat="44.933855" lon="4.898170">
        <ele>129.607459</ele>
        <time>2017-06-04T18:57:53.969Z</time>
      </trkpt>
      <trkpt lat="44.933992" lon="4.898113">
        <ele>129.736055</ele>
        <time>2017-06-04T18:57:57.699Z</time>
      </trkpt>
      <trkpt lat="44.933996" lon="4.897974">
        <ele>129.824729</ele>
        <time>2017-06-04T18:58:00.436Z</time>
      </trkpt>
      <trkpt lat="44.934206" lon="4.897349">
        <ele>130.265710</ele>
        <time>2017-06-04T18:58:12.819Z</time>
      </trkpt>
      <trkpt lat="44.934252" lon="4.897210">
        <ele>130.363513</ele>
        <time>2017-06-04T18:58:15.772Z</time>
      </trkpt>
      <trkpt lat="44.934157" lon="4.896898">
        <ele>130.580003</ele>
        <time>2017-06-04T18:58:21.949Z</time>
      </trkpt>
      <trkpt lat="44.934123" lon="4.896499">
        <ele>130.836167</ele>
        <time>2017-06-04T18:58:29.549Z</time>
      </trkpt>
      <trkpt lat="44.934118" lon="4.896375">
        <ele>130.915335</ele>
        <time>2017-06-04T18:58:31.671Z</time>
      </trkpt>
      <trkpt lat="44.933996" lon="4.896267">
        <ele>131.044973</ele>
        <time>2017-06-04T18:58:35.552Z</time>
      </trkpt>
      <trkpt lat="44.933897" lon="4.896175">
        <ele>131.145157</ele>
        <time>2017-06-04T18:58:38.746Z</time>
      </trkpt>
      <trkpt lat="44.933839" lon="4.896138">
        <ele>131.162464</ele>
        <time>2017-06-04T18:58:40.320Z</time>
      </trkpt>
      <trkpt lat="44.933673" lon="4.896030">
        <ele>131.212168</ele>
        <time>2017-06-04T18:58:45.274Z</time>
      </trkpt>
      <trkpt lat="44.933341" lon="4.895817">
        <ele>131.311336</ele>
        <time>2017-06-04T18:58:54.717Z</time>
      </trkpt>
      <trkpt lat="44.933030" lon="4.895616">
        <ele>131.404349</ele>
        <time>2017-06-04T18:59:03.128Z</time>
      </trkpt>
      <trkpt lat="44.932281" lon="4.895133">
        <ele>131.628271</ele>
        <time>2017-06-04T18:59:22.035Z</time>
      </trkpt>
      <trkpt lat="44.931551" lon="4.894662">
        <ele>130.947360</ele>
        <time>2017-06-04T18:59:39.072Z</time>
      </trkpt>
      <trkpt lat="44.930930" lon="4.894262">
        <ele>130.356808</ele>
        <time>2017-06-04T18:59:52.481Z</time>
      </trkpt>
      <trkpt lat="44.930719" lon="4.894101">
        <ele>130.149305</ele>
        <time>2017-06-04T18:59:57.212Z</time>
      </trkpt>
      <trkpt lat="44.930640" lon="4.893928">
        <ele>130.013746</ele>
        <time>2017-06-04T19:00:00.112Z</time>
      </trkpt>
      <trkpt lat="44.930640" lon="4.893625">
        <ele>129.794413</ele>
        <time>2017-06-04T19:00:04.389Z</time>
      </trkpt>
      <trkpt lat="44.930638" lon="4.893111">
        <ele>129.422337</ele>
        <time>2017-06-04T19:00:11.754Z</time>
      </trkpt>
      <trkpt lat="44.930637" lon="4.892303">
        <ele>128.837447</ele>
        <time>2017-06-04T19:00:23.802Z</time>
      </trkpt>
      <trkpt lat="44.930620" lon="4.891367">
        <ele>128.079877</ele>
        <time>2017-06-04T19:00:37.125Z</time>
      </trkpt>
      <trkpt lat="44.930607" lon="4.890237">
        <ele>126.408095</ele>
        <time>2017-06-04T19:00:52.437Z</time>
      </trkpt>
      <trkpt lat="44.930504" lon="4.890140">
        <ele>126.149434</ele>
        <time>2017-06-04T19:00:54.801Z</time>
      </trkpt>
      <trkpt lat="44.930444" lon="4.890091">
        <ele>126.004620</ele>
        <time>2017-06-04T19:00:56.032Z</time>
      </trkpt>
      <trkpt lat="44.930447" lon="4.890000">
        <ele>125.869862</ele>
        <time>2017-06-04T19:00:57.159Z</time>
      </trkpt>
      <trkpt lat="44.930449" lon="4.889910">
        <ele>125.736663</ele>
        <time>2017-06-04T19:00:58.361Z</time>
      </trkpt>
      <trkpt lat="44.930456" lon="4.889668">
        <ele>125.378383</ele>
        <time>2017-06-04T19:01:01.502Z</time>
      </trkpt>
      <trkpt lat="44.930472" lon="4.889073">
        <ele>124.497588</ele>
        <time>2017-06-04T19:01:08.838Z</time>
      </trkpt>
      <trkpt lat="44.930505" lon="4.888811">
        <ele>123.728264</ele>
        <time>2017-06-04T19:01:11.901Z</time>
      </trkpt>
      <trkpt lat="44.930532" lon="4.888664">
        <ele>123.277978</ele>
        <time>2017-06-04T19:01:13.624Z</time>
      </trkpt>
      <trkpt lat="44.930545" lon="4.888564">
        <ele>122.976520</ele>
        <time>2017-06-04T19:01:14.723Z</time>
      </trkpt>
      <trkpt lat="44.930555" lon="4.888506">
        <ele>122.799523</ele>
        <time>2017-06-04T19:01:15.399Z</time>
      </trkpt>
      <trkpt lat="44.930588" lon="4.888356">
        <ele>122.333792</ele>
        <time>2017-06-04T19:01:17.149Z</time>
      </trkpt>
      <trkpt lat="44.930771" lon="4.887528">
        <ele>119.761918</ele>
        <time>2017-06-04T19:01:26.519Z</time>
      </trkpt>
      <trkpt lat="44.930908" lon="4.886907">
        <ele>117.833328</ele>
        <time>2017-06-04T19:01:33.629Z</time>
      </trkpt>
      <trkpt lat="44.930939" lon="4.886765">
        <ele>117.392737</ele>
        <time>2017-06-04T19:01:35.255Z</time>
      </trkpt>
      <trkpt lat="44.930953" lon="4.886692">
        <ele>117.168491</ele>
        <time>2017-06-04T19:01:36.067Z</time>
      </trkpt>
      <trkpt lat="44.931058" lon="4.886232">
        <ele>115.954836</ele>
        <time>2017-06-04T19:01:41.400Z</time>
      </trkpt>
      <trkpt lat="44.931112" lon="4.885880">
        <ele>115.080612</ele>
        <time>2017-06-04T19:01:45.443Z</time>
      </trkpt>
      <trkpt lat="44.931165" lon="4.885680">
        <ele>114.562266</ele>
        <time>2017-06-04T19:01:47.763Z</time>
      </trkpt>
      <trkpt lat="44.931217" lon="4.885499">
        <ele>114.088137</ele>
        <time>2017-06-04T19:01:49.963Z</time>
      </trkpt>
      <trkpt lat="44.931370" lon="4.885021">
        <ele>112.814838</ele>
        <time>2017-06-04T19:01:55.844Z</time>
      </trkpt>
      <trkpt lat="44.932008" lon="4.883081">
        <ele>109.930577</ele>
        <time>2017-06-04T19:02:22.261Z</time>
      </trkpt>
      <trkpt lat="44.932010" lon="4.883076">
        <ele>109.926832</ele>
        <time>2017-06-04T19:02:22.343Z</time>
      </trkpt>
      <trkpt lat="44.932674" lon="4.881058">
        <ele>109.427139</ele>
        <time>2017-06-04T19:03:00.005Z</time>
      </trkpt>
      <trkpt lat="44.932694" lon="4.880992">
        <ele>109.449284</ele>
        <time>2017-06-04T19:03:01.498Z</time>
      </trkpt>
      <trkpt lat="44.932748" lon="4.880809">
        <ele>109.510438</ele>
        <time>2017-06-04T19:03:05.168Z</time>
      </trkpt>
      <trkpt lat="44.932770" lon="4.880692">
        <ele>109.547779</ele>
        <time>2017-06-04T19:03:07.325Z</time>
      </trkpt>
      <trkpt lat="44.932838" lon="4.880465">
        <ele>109.623809</ele>
        <time>2017-06-04T19:03:12.023Z</time>
      </trkpt>
      <trkpt lat="44.932977" lon="4.880122">
        <ele>109.745717</ele>
        <time>2017-06-04T19:03:18.892Z</time>
      </trkpt>
      <trkpt lat="44.933038" lon="4.880158">
        <ele>109.774521</ele>
        <time>2017-06-04T19:03:20.667Z</time>
      </trkpt>
      <trkpt lat="44.933188" lon="4.880411">
        <ele>109.876313</ele>
        <time>2017-06-04T19:03:26.231Z</time>
      </trkpt>
      <trkpt lat="44.933232" lon="4.880659">
        <ele>109.826051</ele>
        <time>2017-06-04T19:03:30.639Z</time>
      </trkpt>
      <trkpt lat="44.933117" lon="4.880955">
        <ele>109.660574</ele>
        <time>2017-06-04T19:03:35.768Z</time>
      </trkpt>
      <trkpt lat="44.932840" lon="4.880775">
        <ele>109.449492</ele>
        <time>2017-06-04T19:03:42.448Z</time>
      </trkpt>
      <trkpt lat="44.932579" lon="4.880614">
        <ele>109.252327</ele>
        <time>2017-06-04T19:03:48.255Z</time>
      </trkpt>
      <trkpt lat="44.932420" lon="4.880508">
        <ele>109.130610</ele>
        <time>2017-06-04T19:03:51.660Z</time>
      </trkpt>
      <trkpt lat="44.932079" lon="4.880302">
        <ele>108.873857</ele>
        <time>2017-06-04T19:03:59.026Z</time>
      </trkpt>
      <trkpt lat="44.931879" lon="4.880185">
        <ele>108.723995</ele>
        <time>2017-06-04T19:04:03.512Z</time>
      </trkpt>
      <trkpt lat="44.931795" lon="4.880178">
        <ele>108.665741</ele>
        <time>2017-06-04T19:04:05.108Z</time>
      </trkpt>
      <trkpt lat="44.931497" lon="4.879994">
        <ele>108.482200</ele>
        <time>2017-06-04T19:04:11.793Z</time>
      </trkpt>
      <trkpt lat="44.931410" lon="4.879998">
        <ele>108.433360</ele>
        <time>2017-06-04T19:04:13.484Z</time>
      </trkpt>
      <trkpt lat="44.931385" lon="4.879973">
        <ele>108.416174</ele>
        <time>2017-06-04T19:04:14.148Z</time>
      </trkpt>
      <trkpt lat="44.931157" lon="4.879732">
        <ele>108.256397</ele>
        <time>2017-06-04T19:04:20.070Z</time>
      </trkpt>
      <trkpt lat="44.931147" lon="4.879872">
        <ele>108.200504</ele>
        <time>2017-06-04T19:04:22.817Z</time>
      </trkpt>
      <trkpt lat="44.931023" lon="4.880210">
        <ele>108.049290</ele>
        <time>2017-06-04T19:04:30.200Z</time>
      </trkpt>
      <trkpt lat="44.930792" lon="4.879840">
        <ele>107.853334</ele>
        <time>2017-06-04T19:04:37.749Z</time>
      </trkpt>
      <trkpt lat="44.930777" lon="4.879710">
        <ele>107.801015</ele>
        <time>2017-06-04T19:04:39.838Z</time>
      </trkpt>
      <trkpt lat="44.930715" lon="4.879568">
        <ele>107.734745</ele>
        <time>2017-06-04T19:04:42.601Z</time>
      </trkpt>
      <trkpt lat="44.927635" lon="4.876677">
        <ele>107.505173</ele>
        <time>2017-06-04T19:06:08.169Z</time>
      </trkpt>
      <trkpt lat="44.927234" lon="4.876287">
        <ele>107.351313</ele>
        <time>2017-06-04T19:06:18.939Z</time>
      </trkpt>
      <trkpt lat="44.926782" lon="4.875847">
        <ele>107.161677</ele>
        <time>2017-06-04T19:06:30.942Z</time>
      </trkpt>
      <trkpt lat="44.926546" lon="4.875572">
        <ele>107.055987</ele>
        <time>2017-06-04T19:06:37.592Z</time>
      </trkpt>
      <trkpt lat="44.926498" lon="4.875526">
        <ele>107.035949</ele>
        <time>2017-06-04T19:06:38.789Z</time>
      </trkpt>
      <trkpt lat="44.926038" lon="4.875081">
        <ele>106.850272</ele>
        <time>2017-06-04T19:06:50.884Z</time>
      </trkpt>
      <trkpt lat="44.925684" lon="4.874768">
        <ele>106.732280</ele>
        <time>2017-06-04T19:07:00.014Z</time>
      </trkpt>
      <trkpt lat="44.925504" lon="4.874609">
        <ele>106.672301</ele>
        <time>2017-06-04T19:07:04.618Z</time>
      </trkpt>
      <trkpt lat="44.925322" lon="4.874448">
        <ele>106.611630</ele>
        <time>2017-06-04T19:07:09.408Z</time>
      </trkpt>
      <trkpt lat="44.924095" lon="4.873569">
        <ele>106.336569</ele>
        <time>2017-06-04T19:07:40.321Z</time>
      </trkpt>
      <trkpt lat="44.923797" lon="4.873336">
        <ele>106.313092</ele>
        <time>2017-06-04T19:07:48.236Z</time>
      </trkpt>
      <trkpt lat="44.922986" lon="4.872700">
        <ele>106.248932</ele>
        <time>2017-06-04T19:08:09.862Z</time>
      </trkpt>
      <trkpt lat="44.921634" lon="4.871619">
        <ele>105.923817</ele>
        <time>2017-06-04T19:08:44.561Z</time>
      </trkpt>
      <trkpt lat="44.921431" lon="4.871456">
        <ele>105.874952</ele>
        <time>2017-06-04T19:08:49.437Z</time>
      </trkpt>
      <trkpt lat="44.921140" lon="4.871224">
        <ele>105.842113</ele>
        <time>2017-06-04T19:08:57.102Z</time>
      </trkpt>
      <trkpt lat="44.920207" lon="4.870451">
        <ele>105.739477</ele>
        <time>2017-06-04T19:09:21.833Z</time>
      </trkpt>
      <trkpt lat="44.920190" lon="4.870419">
        <ele>105.736789</ele>
        <time>2017-06-04T19:09:22.354Z</time>
      </trkpt>
      <trkpt lat="44.920136" lon="4.870317">
        <ele>105.728232</ele>
        <time>2017-06-04T19:09:24.547Z</time>
      </trkpt>
      <trkpt lat="44.920049" lon="4.869880">
        <ele>105.703873</ele>
        <time>2017-06-04T19:09:31.972Z</time>
      </trkpt>
      <trkpt lat="44.919849" lon="4.869796">
        <ele>105.711175</ele>
        <time>2017-06-04T19:09:39.975Z</time>
      </trkpt>
      <trkpt lat="44.919432" lon="4.869747">
        <ele>105.725817</ele>
        <time>2017-06-04T19:09:55.798Z</time>
      </trkpt>
      <trkpt lat="44.916706" lon="4.869208">
        <ele>105.729647</ele>
        <time>2017-06-04T19:11:37.615Z</time>
      </trkpt>
      <trkpt lat="44.913815" lon="4.868405">
        <ele>105.622335</ele>
        <time>2017-06-04T19:13:26.039Z</time>
      </trkpt>
      <trkpt lat="44.913001" lon="4.868021">
        <ele>105.629183</ele>
        <time>2017-06-04T19:13:58.034Z</time>
      </trkpt>
      <trkpt lat="44.911361" lon="4.866943">
        <ele>105.906679</ele>
        <time>2017-06-04T19:15:06.134Z</time>
      </trkpt>
      <trkpt lat="44.910077" lon="4.865827">
        <ele>106.186384</ele>
        <time>2017-06-04T19:16:04.008Z</time>
      </trkpt>
      <trkpt lat="44.910227" lon="4.865498">
        <ele>106.230597</ele>
        <time>2017-06-04T19:16:13.896Z</time>
      </trkpt>
      <trkpt lat="44.910262" lon="4.865421">
        <ele>106.228732</ele>
        <time>2017-06-04T19:16:16.325Z</time>
      </trkpt>
      <trkpt lat="44.910311" lon="4.865326">
        <ele>106.226337</ele>
        <time>2017-06-04T19:16:19.408Z</time>
      </trkpt>
      <trkpt lat="44.910343" lon="4.865185">
        <ele>106.223319</ele>
        <time>2017-06-04T19:16:22.981Z</time>
      </trkpt>
      <trkpt lat="44.910625" lon="4.864510">
        <ele>106.207345</ele>
        <time>2017-06-04T19:16:43.712Z</time>
      </trkpt>
      <trkpt lat="44.910340" lon="4.863866">
        <ele>106.191867</ele>
        <time>2017-06-04T19:16:56.265Z</time>
      </trkpt>
      <trkpt lat="44.910153" lon="4.863473">
        <ele>106.182217</ele>
        <time>2017-06-04T19:17:03.952Z</time>
      </trkpt>
      <trkpt lat="44.909792" lon="4.862539">
        <ele>106.314195</ele>
        <time>2017-06-04T19:17:21.265Z</time>
      </trkpt>
      <trkpt lat="44.909707" lon="4.861949">
        <ele>106.399789</ele>
        <time>2017-06-04T19:17:31.942Z</time>
      </trkpt>
      <trkpt lat="44.910000" lon="4.856165">
        <ele>107.560987</ele>
        <time>2017-06-04T19:19:12.288Z</time>
      </trkpt>
      <trkpt lat="44.910088" lon="4.855802">
        <ele>107.644057</ele>
        <time>2017-06-04T19:19:18.881Z</time>
      </trkpt>
      <trkpt lat="44.910143" lon="4.855638">
        <ele>107.686121</ele>
        <time>2017-06-04T19:19:21.975Z</time>
      </trkpt>
      <trkpt lat="44.910263" lon="4.855310">
        <ele>107.771700</ele>
        <time>2017-06-04T19:19:28.389Z</time>
      </trkpt>
      <trkpt lat="44.910366" lon="4.854919">
        <ele>107.868405</ele>
        <time>2017-06-04T19:19:35.594Z</time>
      </trkpt>
      <trkpt lat="44.909694" lon="4.854474">
        <ele>108.111349</ele>
        <time>2017-06-04T19:19:54.172Z</time>
      </trkpt>
      <trkpt lat="44.909338" lon="4.854238">
        <ele>108.187642</ele>
        <time>2017-06-04T19:20:03.866Z</time>
      </trkpt>
      <trkpt lat="44.908641" lon="4.854007">
        <ele>108.049656</ele>
        <time>2017-06-04T19:20:20.303Z</time>
      </trkpt>
      <trkpt lat="44.907909" lon="4.853881">
        <ele>107.907531</ele>
        <time>2017-06-04T19:20:36.733Z</time>
      </trkpt>
      <trkpt lat="44.907743" lon="4.853861">
        <ele>107.875421</ele>
        <time>2017-06-04T19:20:40.097Z</time>
      </trkpt>
      <trkpt lat="44.906633" lon="4.853754">
        <ele>107.213024</ele>
        <time>2017-06-04T19:21:03.293Z</time>
      </trkpt>
      <trkpt lat="44.906181" lon="4.853763">
        <ele>106.930197</ele>
        <time>2017-06-04T19:21:12.583Z</time>
      </trkpt>
      <trkpt lat="44.905966" lon="4.853769">
        <ele>106.795654</ele>
        <time>2017-06-04T19:21:17.229Z</time>
      </trkpt>
      <trkpt lat="44.905751" lon="4.853757">
        <ele>106.730464</ele>
        <time>2017-06-04T19:21:21.899Z</time>
      </trkpt>
      <trkpt lat="44.904742" lon="4.853704">
        <ele>106.691119</ele>
        <time>2017-06-04T19:21:44.963Z</time>
      </trkpt>
      <trkpt lat="44.904027" lon="4.853578">
        <ele>106.658945</ele>
        <time>2017-06-04T19:22:02.401Z</time>
      </trkpt>
      <trkpt lat="44.903036" lon="4.853280">
        <ele>106.536347</ele>
        <time>2017-06-04T19:22:26.458Z</time>
      </trkpt>
      <trkpt lat="44.901500" lon="4.852639">
        <ele>105.738421</ele>
        <time>2017-06-04T19:23:00.662Z</time>
      </trkpt>
      <trkpt lat="44.900427" lon="4.852395">
        <ele>104.868977</ele>
        <time>2017-06-04T19:23:22.306Z</time>
      </trkpt>
      <trkpt lat="44.899219" lon="4.852231">
        <ele>104.033209</ele>
        <time>2017-06-04T19:23:47.050Z</time>
      </trkpt>
      <trkpt lat="44.895168" lon="4.851845">
        <ele>104.049512</ele>
        <time>2017-06-04T19:25:21.650Z</time>
      </trkpt>
      <trkpt lat="44.894500" lon="4.851789">
        <ele>104.737784</ele>
        <time>2017-06-04T19:25:39.818Z</time>
      </trkpt>
      <trkpt lat="44.894161" lon="4.851784">
        <ele>105.086476</ele>
        <time>2017-06-04T19:25:49.454Z</time>
      </trkpt>
      <trkpt lat="44.893726" lon="4.851760">
        <ele>105.534230</ele>
        <time>2017-06-04T19:26:01.759Z</time>
      </trkpt>
      <trkpt lat="44.893151" lon="4.851730">
        <ele>106.009063</ele>
        <time>2017-06-04T19:26:17.868Z</time>
      </trkpt>
      <trkpt lat="44.893089" lon="4.851727">
        <ele>106.044136</ele>
        <time>2017-06-04T19:26:19.904Z</time>
      </trkpt>
      <trkpt lat="44.892211" lon="4.851813">
        <ele>106.541716</ele>
        <time>2017-06-04T19:26:43.479Z</time>
      </trkpt>
      <trkpt lat="44.889781" lon="4.852366">
        <ele>106.129562</ele>
        <time>2017-06-04T19:27:37.306Z</time>
      </trkpt>
      <trkpt lat="44.889668" lon="4.852317">
        <ele>106.064932</ele>
        <time>2017-06-04T19:27:39.594Z</time>
      </trkpt>
      <trkpt lat="44.889628" lon="4.852382">
        <ele>106.031584</ele>
        <time>2017-06-04T19:27:40.855Z</time>
      </trkpt>
      <trkpt lat="44.889558" lon="4.852435">
        <ele>105.988154</ele>
        <time>2017-06-04T19:27:42.616Z</time>
      </trkpt>
      <trkpt lat="44.889397" lon="4.852472">
        <ele>105.898972</ele>
        <time>2017-06-04T19:27:45.987Z</time>
      </trkpt>
      <trkpt lat="44.889342" lon="4.852470">
        <ele>105.868893</ele>
        <time>2017-06-04T19:27:47.067Z</time>
      </trkpt>
      <trkpt lat="44.888013" lon="4.853004">
        <ele>105.159451</ele>
        <time>2017-06-04T19:28:16.398Z</time>
      </trkpt>
      <trkpt lat="44.887099" lon="4.853481">
        <ele>105.004410</ele>
        <time>2017-06-04T19:28:39.210Z</time>
      </trkpt>
      <trkpt lat="44.885429" lon="4.854677">
        <ele>104.429480</ele>
        <time>2017-06-04T19:29:20.972Z</time>
      </trkpt>
      <trkpt lat="44.885347" lon="4.854686">
        <ele>104.396877</ele>
        <time>2017-06-04T19:29:22.996Z</time>
      </trkpt>
      <trkpt lat="44.885017" lon="4.854672">
        <ele>104.266007</ele>
        <time>2017-06-04T19:29:32.096Z</time>
      </trkpt>
      <trkpt lat="44.884413" lon="4.854862">
        <ele>103.934574</ele>
        <time>2017-06-04T19:29:48.849Z</time>
      </trkpt>
      <trkpt lat="44.883316" lon="4.854957">
        <ele>103.262141</ele>
        <time>2017-06-04T19:30:18.421Z</time>
      </trkpt>
      <trkpt lat="44.883073" lon="4.854911">
        <ele>103.112137</ele>
        <time>2017-06-04T19:30:25.176Z</time>
      </trkpt>
      <trkpt lat="44.881804" lon="4.854193">
        <ele>102.845063</ele>
        <time>2017-06-04T19:31:03.430Z</time>
      </trkpt>
      <trkpt lat="44.880942" lon="4.853971">
        <ele>103.120989</ele>
        <time>2017-06-04T19:31:29.746Z</time>
      </trkpt>
      <trkpt lat="44.880219" lon="4.852541">
        <ele>104.277253</ele>
        <time>2017-06-04T19:32:11.660Z</time>
      </trkpt>
      <trkpt lat="44.880075" lon="4.852365">
        <ele>104.462443</ele>
        <time>2017-06-04T19:32:18.305Z</time>
      </trkpt>
      <trkpt lat="44.879777" lon="4.852398">
        <ele>104.831926</ele>
        <time>2017-06-04T19:32:28.833Z</time>
      </trkpt>
      <trkpt lat="44.879733" lon="4.852394">
        <ele>104.886426</ele>
        <time>2017-06-04T19:32:30.621Z</time>
      </trkpt>
      <trkpt lat="44.879635" lon="4.852384">
        <ele>105.007878</ele>
        <time>2017-06-04T19:32:34.376Z</time>
      </trkpt>
      <trkpt lat="44.879527" lon="4.852310">
        <ele>105.156277</ele>
        <time>2017-06-04T19:32:38.487Z</time>
      </trkpt>
      <trkpt lat="44.879431" lon="4.852152">
        <ele>105.338574</ele>
        <time>2017-06-04T19:32:43.653Z</time>
      </trkpt>
      <trkpt lat="44.879376" lon="4.851933">
        <ele>105.542082</ele>
        <time>2017-06-04T19:32:49.632Z</time>
      </trkpt>
      <trkpt lat="44.879388" lon="4.851617">
        <ele>105.819256</ele>
        <time>2017-06-04T19:32:57.326Z</time>
      </trkpt>
      <trkpt lat="44.879388" lon="4.851438">
        <ele>105.976038</ele>
        <time>2017-06-04T19:33:01.882Z</time>
      </trkpt>
      <trkpt lat="44.879724" lon="4.851081">
        <ele>106.495909</ele>
        <time>2017-06-04T19:33:13.238Z</time>
      </trkpt>
      <trkpt lat="44.880123" lon="4.850758">
        <ele>106.584633</ele>
        <time>2017-06-04T19:33:25.029Z</time>
      </trkpt>
      <trkpt lat="44.880267" lon="4.850703">
        <ele>106.554227</ele>
        <time>2017-06-04T19:33:28.616Z</time>
      </trkpt>
      <trkpt lat="44.880652" lon="4.850718">
        <ele>106.475725</ele>
        <time>2017-06-04T19:33:37.533Z</time>
      </trkpt>
      <trkpt lat="44.880706" lon="4.850660">
        <ele>106.461893</ele>
        <time>2017-06-04T19:33:39.046Z</time>
      </trkpt>
      <trkpt lat="44.880461" lon="4.850606">
        <ele>106.411351</ele>
        <time>2017-06-04T19:33:44.386Z</time>
      </trkpt>
      <trkpt lat="44.878738" lon="4.850220">
        <ele>105.152882</ele>
        <time>2017-06-04T19:34:19.782Z</time>
      </trkpt>
      <trkpt lat="44.878368" lon="4.850075">
        <ele>104.767613</ele>
        <time>2017-06-04T19:34:27.437Z</time>
      </trkpt>
      <trkpt lat="44.877839" lon="4.849982">
        <ele>104.253746</ele>
        <time>2017-06-04T19:34:38.066Z</time>
      </trkpt>
      <trkpt lat="44.877577" lon="4.850027">
        <ele>104.011291</ele>
        <time>2017-06-04T19:34:43.340Z</time>
      </trkpt>
      <trkpt lat="44.876392" lon="4.850542">
        <ele>102.872272</ele>
        <time>2017-06-04T19:35:08.544Z</time>
      </trkpt>
      <trkpt lat="44.876062" lon="4.850598">
        <ele>102.800402</ele>
        <time>2017-06-04T19:35:15.604Z</time>
      </trkpt>
      <trkpt lat="44.875219" lon="4.850593">
        <ele>102.715639</ele>
        <time>2017-06-04T19:35:34.286Z</time>
      </trkpt>
      <trkpt lat="44.873539" lon="4.850113">
        <ele>103.279580</ele>
        <time>2017-06-04T19:36:17.112Z</time>
      </trkpt>
      <trkpt lat="44.873360" lon="4.850013">
        <ele>103.396019</ele>
        <time>2017-06-04T19:36:22.203Z</time>
      </trkpt>
      <trkpt lat="44.873011" lon="4.849689">
        <ele>103.648688</ele>
        <time>2017-06-04T19:36:33.317Z</time>
      </trkpt>
      <trkpt lat="44.872811" lon="4.849614">
        <ele>103.779115</ele>
        <time>2017-06-04T19:36:38.801Z</time>
      </trkpt>
      <trkpt lat="44.871473" lon="4.849222">
        <ele>104.720876</ele>
        <time>2017-06-04T19:37:14.622Z</time>
      </trkpt>
      <trkpt lat="44.869429" lon="4.848804">
        <ele>105.612744</ele>
        <time>2017-06-04T19:38:05.939Z</time>
      </trkpt>
      <trkpt lat="44.869152" lon="4.848629">
        <ele>105.643015</ele>
        <time>2017-06-04T19:38:13.062Z</time>
      </trkpt>
      <trkpt lat="44.868890" lon="4.848624">
        <ele>105.632007</ele>
        <time>2017-06-04T19:38:19.129Z</time>
      </trkpt>
      <trkpt lat="44.868835" lon="4.848597">
        <ele>105.629561</ele>
        <time>2017-06-04T19:38:20.446Z</time>
      </trkpt>
      <trkpt lat="44.869793" lon="4.846581">
        <ele>105.571991</ele>
        <time>2017-06-04T19:38:59.477Z</time>
      </trkpt>
      <trkpt lat="44.870198" lon="4.845757">
        <ele>105.565750</ele>
        <time>2017-06-04T19:39:16.008Z</time>
      </trkpt>
      <trkpt lat="44.870846" lon="4.844564">
        <ele>105.562637</ele>
        <time>2017-06-04T19:39:41.006Z</time>
      </trkpt>
      <trkpt lat="44.870770" lon="4.844504">
        <ele>105.563168</ele>
        <time>2017-06-04T19:39:43.015Z</time>
      </trkpt>
      <trkpt lat="44.870543" lon="4.844271">
        <ele>105.564878</ele>
        <time>2017-06-04T19:39:49.625Z</time>
      </trkpt>
      <trkpt lat="44.869646" lon="4.843541">
        <ele>105.569682</ele>
        <time>2017-06-04T19:40:13.471Z</time>
      </trkpt>
      <trkpt lat="44.866635" lon="4.841165">
        <ele>105.462880</ele>
        <time>2017-06-04T19:41:32.617Z</time>
      </trkpt>
      <trkpt lat="44.866006" lon="4.840709">
        <ele>105.679129</ele>
        <time>2017-06-04T19:41:49.741Z</time>
      </trkpt>
      <trkpt lat="44.865883" lon="4.840647">
        <ele>105.727614</ele>
        <time>2017-06-04T19:41:52.946Z</time>
      </trkpt>
      <trkpt lat="44.865816" lon="4.840639">
        <ele>105.752574</ele>
        <time>2017-06-04T19:41:54.695Z</time>
      </trkpt>
      <trkpt lat="44.863356" lon="4.838582">
        <ele>107.054534</ele>
        <time>2017-06-04T19:43:06.373Z</time>
      </trkpt>
      <trkpt lat="44.863157" lon="4.838483">
        <ele>107.179611</ele>
        <time>2017-06-04T19:43:11.868Z</time>
      </trkpt>
      <trkpt lat="44.862632" lon="4.838063">
        <ele>107.537356</ele>
        <time>2017-06-04T19:43:27.492Z</time>
      </trkpt>
      <trkpt lat="44.862130" lon="4.837641">
        <ele>107.883737</ele>
        <time>2017-06-04T19:43:42.473Z</time>
      </trkpt>
      <trkpt lat="44.861863" lon="4.837391">
        <ele>108.073687</ele>
        <time>2017-06-04T19:43:50.675Z</time>
      </trkpt>
      <trkpt lat="44.861811" lon="4.837462">
        <ele>108.099260</ele>
        <time>2017-06-04T19:43:52.482Z</time>
      </trkpt>
      <trkpt lat="44.861689" lon="4.837573">
        <ele>108.117851</ele>
        <time>2017-06-04T19:43:56.165Z</time>
      </trkpt>
      <trkpt lat="44.861563" lon="4.837745">
        <ele>108.140304</ele>
        <time>2017-06-04T19:44:00.504Z</time>
      </trkpt>
      <trkpt lat="44.861489" lon="4.837672">
        <ele>108.151867</ele>
        <time>2017-06-04T19:44:03.328Z</time>
      </trkpt>
      <trkpt lat="44.860842" lon="4.837085">
        <ele>108.250379</ele>
        <time>2017-06-04T19:44:26.625Z</time>
      </trkpt>
      <trkpt lat="44.860696" lon="4.836852">
        <ele>108.278609</ele>
        <time>2017-06-04T19:44:33.099Z</time>
      </trkpt>
      <trkpt lat="44.860162" lon="4.836447">
        <ele>108.180062</ele>
        <time>2017-06-04T19:44:49.929Z</time>
      </trkpt>
      <trkpt lat="44.860034" lon="4.836238">
        <ele>108.064555</ele>
        <time>2017-06-04T19:44:55.249Z</time>
      </trkpt>
      <trkpt lat="44.859677" lon="4.835923">
        <ele>107.816131</ele>
        <time>2017-06-04T19:45:06.703Z</time>
      </trkpt>
      <trkpt lat="44.859578" lon="4.835776">
        <ele>107.731333</ele>
        <time>2017-06-04T19:45:10.619Z</time>
      </trkpt>
      <trkpt lat="44.859440" lon="4.835476">
        <ele>107.581772</ele>
        <time>2017-06-04T19:45:17.469Z</time>
      </trkpt>
      <trkpt lat="44.859277" lon="4.835575">
        <ele>107.477073</ele>
        <time>2017-06-04T19:45:21.144Z</time>
      </trkpt>
      <trkpt lat="44.857934" lon="4.836502">
        <ele>106.617641</ele>
        <time>2017-06-04T19:45:52.426Z</time>
      </trkpt>
      <trkpt lat="44.857228" lon="4.837047">
        <ele>106.196174</ele>
        <time>2017-06-04T19:46:09.998Z</time>
      </trkpt>
      <trkpt lat="44.857078" lon="4.837156">
        <ele>106.145031</ele>
        <time>2017-06-04T19:46:13.713Z</time>
      </trkpt>
      <trkpt lat="44.856195" lon="4.837796">
        <ele>105.844130</ele>
        <time>2017-06-04T19:46:35.793Z</time>
      </trkpt>
      <trkpt lat="44.855967" lon="4.837873">
        <ele>105.773069</ele>
        <time>2017-06-04T19:46:40.922Z</time>
      </trkpt>
      <trkpt lat="44.855470" lon="4.837933">
        <ele>105.457015</ele>
        <time>2017-06-04T19:46:52.201Z</time>
      </trkpt>
      <trkpt lat="44.855447" lon="4.837882">
        <ele>105.414051</ele>
        <time>2017-06-04T19:46:53.664Z</time>
      </trkpt>
      <trkpt lat="44.854931" lon="4.838021">
        <ele>104.887309</ele>
        <time>2017-06-04T19:47:11.933Z</time>
      </trkpt>
      <trkpt lat="44.854799" lon="4.838204">
        <ele>104.701733</ele>
        <time>2017-06-04T19:47:17.949Z</time>
      </trkpt>
      <trkpt lat="44.854760" lon="4.838195">
        <ele>104.662108</ele>
        <time>2017-06-04T19:47:19.303Z</time>
      </trkpt>
      <trkpt lat="44.854714" lon="4.838106">
        <ele>104.583817</ele>
        <time>2017-06-04T19:47:22.056Z</time>
      </trkpt>
      <trkpt lat="44.854672" lon="4.838099">
        <ele>104.541410</ele>
        <time>2017-06-04T19:47:23.374Z</time>
      </trkpt>
      <trkpt lat="44.854606" lon="4.838089">
        <ele>104.474852</ele>
        <time>2017-06-04T19:47:25.597Z</time>
      </trkpt>
      <trkpt lat="44.854590" lon="4.838067">
        <ele>104.452448</ele>
        <time>2017-06-04T19:47:26.359Z</time>
      </trkpt>
      <trkpt lat="44.854704" lon="4.837242">
        <ele>103.833759</ele>
        <time>2017-06-04T19:47:45.849Z</time>
      </trkpt>
      <trkpt lat="44.854711" lon="4.837172">
        <ele>103.752863</ele>
        <time>2017-06-04T19:47:47.427Z</time>
      </trkpt>
      <trkpt lat="44.854783" lon="4.836615">
        <ele>103.104961</ele>
        <time>2017-06-04T19:48:00.465Z</time>
      </trkpt>
      <trkpt lat="44.854773" lon="4.836497">
        <ele>102.968969</ele>
        <time>2017-06-04T19:48:03.057Z</time>
      </trkpt>
      <trkpt lat="44.854627" lon="4.836466">
        <ele>102.730636</ele>
        <time>2017-06-04T19:48:05.733Z</time>
      </trkpt>
      <trkpt lat="44.853467" lon="4.836278">
        <ele>100.957015</ele>
        <time>2017-06-04T19:48:27.775Z</time>
      </trkpt>
      <trkpt lat="44.853270" lon="4.836205">
        <ele>100.888359</ele>
        <time>2017-06-04T19:48:31.946Z</time>
      </trkpt>
      <trkpt lat="44.853227" lon="4.836122">
        <ele>100.863793</ele>
        <time>2017-06-04T19:48:33.249Z</time>
      </trkpt>
      <trkpt lat="44.853106" lon="4.836090">
        <ele>100.822297</ele>
        <time>2017-06-04T19:48:36.226Z</time>
      </trkpt>
      <trkpt lat="44.852910" lon="4.835959">
        <ele>100.749189</ele>
        <time>2017-06-04T19:48:40.894Z</time>
      </trkpt>
      <trkpt lat="44.852818" lon="4.835841">
        <ele>100.707276</ele>
        <time>2017-06-04T19:48:43.756Z</time>
      </trkpt>
      <trkpt lat="44.852216" lon="4.834931">
        <ele>100.409850</ele>
        <time>2017-06-04T19:49:04.403Z</time>
      </trkpt>
      <trkpt lat="44.850021" lon="4.831385">
        <ele>101.496540</ele>
        <time>2017-06-04T19:50:27.214Z</time>
      </trkpt>
      <trkpt lat="44.849670" lon="4.830811">
        <ele>101.536458</ele>
        <time>2017-06-04T19:50:39.863Z</time>
      </trkpt>
      <trkpt lat="44.849270" lon="4.830200">
        <ele>101.321987</ele>
        <time>2017-06-04T19:50:56.908Z</time>
      </trkpt>
      <trkpt lat="44.845929" lon="4.824779">
        <ele>99.803558</ele>
        <time>2017-06-04T19:53:17.668Z</time>
      </trkpt>
      <trkpt lat="44.844824" lon="4.823197">
        <ele>100.924236</ele>
        <time>2017-06-04T19:54:09.826Z</time>
      </trkpt>
      <trkpt lat="44.844465" lon="4.822596">
        <ele>101.689464</ele>
        <time>2017-06-04T19:54:29.851Z</time>
      </trkpt>
      <trkpt lat="44.844385" lon="4.822491">
        <ele>101.839547</ele>
        <time>2017-06-04T19:54:33.795Z</time>
      </trkpt>
      <trkpt lat="44.844212" lon="4.822373">
        <ele>102.103466</ele>
        <time>2017-06-04T19:54:40.619Z</time>
      </trkpt>
      <trkpt lat="44.844157" lon="4.822282">
        <ele>102.219903</ele>
        <time>2017-06-04T19:54:43.648Z</time>
      </trkpt>
      <trkpt lat="44.844136" lon="4.822167">
        <ele>102.335540</ele>
        <time>2017-06-04T19:54:46.687Z</time>
      </trkpt>
      <trkpt lat="44.844155" lon="4.822059">
        <ele>102.443894</ele>
        <time>2017-06-04T19:54:49.496Z</time>
      </trkpt>
      <trkpt lat="44.844440" lon="4.821687">
        <ele>102.977202</ele>
        <time>2017-06-04T19:55:03.135Z</time>
      </trkpt>
      <trkpt lat="44.844480" lon="4.821593">
        <ele>103.056866</ele>
        <time>2017-06-04T19:55:05.799Z</time>
      </trkpt>
      <trkpt lat="44.844503" lon="4.821405">
        <ele>103.097246</ele>
        <time>2017-06-04T19:55:10.472Z</time>
      </trkpt>
      <trkpt lat="44.844438" lon="4.821244">
        <ele>103.136460</ele>
        <time>2017-06-04T19:55:14.955Z</time>
      </trkpt>
      <trkpt lat="44.843700" lon="4.820729">
        <ele>103.382262</ele>
        <time>2017-06-04T19:55:40.563Z</time>
      </trkpt>
      <trkpt lat="44.843196" lon="4.820292">
        <ele>103.558876</ele>
        <time>2017-06-04T19:55:57.447Z</time>
      </trkpt>
      <trkpt lat="44.842968" lon="4.820069">
        <ele>103.345249</ele>
        <time>2017-06-04T19:56:04.870Z</time>
      </trkpt>
      <trkpt lat="44.842555" lon="4.819753">
        <ele>102.735289</ele>
        <time>2017-06-04T19:56:17.100Z</time>
      </trkpt>
      <trkpt lat="44.842483" lon="4.819731">
        <ele>102.639653</ele>
        <time>2017-06-04T19:56:19.042Z</time>
      </trkpt>
      <trkpt lat="44.842411" lon="4.819729">
        <ele>102.546167</ele>
        <time>2017-06-04T19:56:20.838Z</time>
      </trkpt>
      <trkpt lat="44.842219" lon="4.819621">
        <ele>102.277826</ele>
        <time>2017-06-04T19:56:26.016Z</time>
      </trkpt>
      <trkpt lat="44.840889" lon="4.818607">
        <ele>99.957233</ele>
        <time>2017-06-04T19:57:03.143Z</time>
      </trkpt>
      <trkpt lat="44.840060" lon="4.818181">
        <ele>98.373976</ele>
        <time>2017-06-04T19:57:24.462Z</time>
      </trkpt>
      <trkpt lat="44.839298" lon="4.817594">
        <ele>97.213288</ele>
        <time>2017-06-04T19:57:46.059Z</time>
      </trkpt>
      <trkpt lat="44.838579" lon="4.817127">
        <ele>96.260126</ele>
        <time>2017-06-04T19:58:06.426Z</time>
      </trkpt>
      <trkpt lat="44.837369" lon="4.816502">
        <ele>95.564891</ele>
        <time>2017-06-04T19:58:41.734Z</time>
      </trkpt>
      <trkpt lat="44.836116" lon="4.816022">
        <ele>95.417085</ele>
        <time>2017-06-04T19:59:19.685Z</time>
      </trkpt>
      <trkpt lat="44.835901" lon="4.815925">
        <ele>95.472394</ele>
        <time>2017-06-04T19:59:26.483Z</time>
      </trkpt>
      <trkpt lat="44.835484" lon="4.815737">
        <ele>95.579661</ele>
        <time>2017-06-04T19:59:39.927Z</time>
      </trkpt>
      <trkpt lat="44.834090" lon="4.815104">
        <ele>95.871758</ele>
        <time>2017-06-04T20:00:24.908Z</time>
      </trkpt>
      <trkpt lat="44.833299" lon="4.814573">
        <ele>96.011828</ele>
        <time>2017-06-04T20:00:50.781Z</time>
      </trkpt>
      <trkpt lat="44.832313" lon="4.813763">
        <ele>96.069579</ele>
        <time>2017-06-04T20:01:23.492Z</time>
      </trkpt>
      <trkpt lat="44.830270" lon="4.811741">
        <ele>96.695462</ele>
        <time>2017-06-04T20:02:38.849Z</time>
      </trkpt>
      <trkpt lat="44.829911" lon="4.811456">
        <ele>96.956153</ele>
        <time>2017-06-04T20:02:52.543Z</time>
      </trkpt>
      <trkpt lat="44.829201" lon="4.810982">
        <ele>97.522996</ele>
        <time>2017-06-04T20:03:19.037Z</time>
      </trkpt>
      <trkpt lat="44.826635" lon="4.809815">
        <ele>98.381251</ele>
        <time>2017-06-04T20:04:42.020Z</time>
      </trkpt>
      <trkpt lat="44.826515" lon="4.809778">
        <ele>98.281514</ele>
        <time>2017-06-04T20:04:45.209Z</time>
      </trkpt>
      <trkpt lat="44.826262" lon="4.809815">
        <ele>98.074988</ele>
        <time>2017-06-04T20:04:51.923Z</time>
      </trkpt>
      <trkpt lat="44.826061" lon="4.809987">
        <ele>97.884080</ele>
        <time>2017-06-04T20:04:58.178Z</time>
      </trkpt>
      <trkpt lat="44.825964" lon="4.810086">
        <ele>97.786852</ele>
        <time>2017-06-04T20:05:01.319Z</time>
      </trkpt>
      <trkpt lat="44.825802" lon="4.810247">
        <ele>97.625923</ele>
        <time>2017-06-04T20:05:06.522Z</time>
      </trkpt>
      <trkpt lat="44.825254" lon="4.810072">
        <ele>97.169703</ele>
        <time>2017-06-04T20:05:20.836Z</time>
      </trkpt>
      <trkpt lat="44.825036" lon="4.810002">
        <ele>97.007103</ele>
        <time>2017-06-04T20:05:26.421Z</time>
      </trkpt>
      <trkpt lat="44.824890" lon="4.809783">
        <ele>96.869235</ele>
        <time>2017-06-04T20:05:33.448Z</time>
      </trkpt>
      <trkpt lat="44.824599" lon="4.809423">
        <ele>96.618855</ele>
        <time>2017-06-04T20:05:46.463Z</time>
      </trkpt>
      <trkpt lat="44.824272" lon="4.809109">
        <ele>96.362980</ele>
        <time>2017-06-04T20:06:00.831Z</time>
      </trkpt>
      <trkpt lat="44.824202" lon="4.808954">
        <ele>96.278690</ele>
        <time>2017-06-04T20:06:05.412Z</time>
      </trkpt>
      <trkpt lat="44.824164" lon="4.808816">
        <ele>96.210784</ele>
        <time>2017-06-04T20:06:09.192Z</time>
      </trkpt>
      <trkpt lat="44.824153" lon="4.808776">
        <ele>96.191104</ele>
        <time>2017-06-04T20:06:10.370Z</time>
      </trkpt>
      <trkpt lat="44.824167" lon="4.808620">
        <ele>96.118974</ele>
        <time>2017-06-04T20:06:14.442Z</time>
      </trkpt>
      <trkpt lat="44.824130" lon="4.808506">
        <ele>96.061465</ele>
        <time>2017-06-04T20:06:17.477Z</time>
      </trkpt>
      <trkpt lat="44.824089" lon="4.808438">
        <ele>96.020525</ele>
        <time>2017-06-04T20:06:19.840Z</time>
      </trkpt>
      <trkpt lat="44.824032" lon="4.808412">
        <ele>95.981780</ele>
        <time>2017-06-04T20:06:21.976Z</time>
      </trkpt>
      <trkpt lat="44.824255" lon="4.807286">
        <ele>96.070293</ele>
        <time>2017-06-04T20:06:40.701Z</time>
      </trkpt>
      <trkpt lat="44.824296" lon="4.807028">
        <ele>96.109391</ele>
        <time>2017-06-04T20:06:45.028Z</time>
      </trkpt>
      <trkpt lat="44.824305" lon="4.806972">
        <ele>96.117882</ele>
        <time>2017-06-04T20:06:45.939Z</time>
      </trkpt>
      <trkpt lat="44.824375" lon="4.806606">
        <ele>96.173937</ele>
        <time>2017-06-04T20:06:52.883Z</time>
      </trkpt>
      <trkpt lat="44.824449" lon="4.806177">
        <ele>96.239225</ele>
        <time>2017-06-04T20:07:01.047Z</time>
      </trkpt>
      <trkpt lat="44.824523" lon="4.805957">
        <ele>96.275231</ele>
        <time>2017-06-04T20:07:05.624Z</time>
      </trkpt>
      <trkpt lat="44.824621" lon="4.805780">
        <ele>96.341042</ele>
        <time>2017-06-04T20:07:09.661Z</time>
      </trkpt>
      <trkpt lat="44.824896" lon="4.805453">
        <ele>96.574288</ele>
        <time>2017-06-04T20:07:18.754Z</time>
      </trkpt>
      <trkpt lat="44.824983" lon="4.805357">
        <ele>96.645918</ele>
        <time>2017-06-04T20:07:21.568Z</time>
      </trkpt>
      <trkpt lat="44.825030" lon="4.805286">
        <ele>96.690579</ele>
        <time>2017-06-04T20:07:23.252Z</time>
      </trkpt>
      <trkpt lat="44.825054" lon="4.805248">
        <ele>96.713978</ele>
        <time>2017-06-04T20:07:24.155Z</time>
      </trkpt>
      <trkpt lat="44.825088" lon="4.805183">
        <ele>96.751119</ele>
        <time>2017-06-04T20:07:25.538Z</time>
      </trkpt>
      <trkpt lat="44.825114" lon="4.805132">
        <ele>96.780001</ele>
        <time>2017-06-04T20:07:26.687Z</time>
      </trkpt>
      <trkpt lat="44.825344" lon="4.804341">
        <ele>97.173131</ele>
        <time>2017-06-04T20:07:42.768Z</time>
      </trkpt>
      <trkpt lat="44.825454" lon="4.803969">
        <ele>97.358470</ele>
        <time>2017-06-04T20:07:50.314Z</time>
      </trkpt>
      <trkpt lat="44.825647" lon="4.803317">
        <ele>97.506530</ele>
        <time>2017-06-04T20:08:03.114Z</time>
      </trkpt>
      <trkpt lat="44.825711" lon="4.803142">
        <ele>97.525661</ele>
        <time>2017-06-04T20:08:06.613Z</time>
      </trkpt>
      <trkpt lat="44.825771" lon="4.803063">
        <ele>97.536908</ele>
        <time>2017-06-04T20:08:08.531Z</time>
      </trkpt>
      <trkpt lat="44.825806" lon="4.803017">
        <ele>97.543463</ele>
        <time>2017-06-04T20:08:09.627Z</time>
      </trkpt>
      <trkpt lat="44.825984" lon="4.802818">
        <ele>97.574584</ele>
        <time>2017-06-04T20:08:15.018Z</time>
      </trkpt>
      <trkpt lat="44.826153" lon="4.802778">
        <ele>97.598060</ele>
        <time>2017-06-04T20:08:18.942Z</time>
      </trkpt>
      <trkpt lat="44.826209" lon="4.802737">
        <ele>97.606704</ele>
        <time>2017-06-04T20:08:20.415Z</time>
      </trkpt>
      <trkpt lat="44.826252" lon="4.802707">
        <ele>97.613277</ele>
        <time>2017-06-04T20:08:21.644Z</time>
      </trkpt>
      <trkpt lat="44.826170" lon="4.802548">
        <ele>97.632378</ele>
        <time>2017-06-04T20:08:24.686Z</time>
      </trkpt>
      <trkpt lat="44.826100" lon="4.802413">
        <ele>97.648627</ele>
        <time>2017-06-04T20:08:27.231Z</time>
      </trkpt>
      <trkpt lat="44.825422" lon="4.801060">
        <ele>97.428550</ele>
        <time>2017-06-04T20:08:52.500Z</time>
      </trkpt>
      <trkpt lat="44.825290" lon="4.800822">
        <ele>97.350380</ele>
        <time>2017-06-04T20:08:56.774Z</time>
      </trkpt>
      <trkpt lat="44.825145" lon="4.800549">
        <ele>97.262135</ele>
        <time>2017-06-04T20:09:01.742Z</time>
      </trkpt>
      <trkpt lat="44.825060" lon="4.800197">
        <ele>97.165926</ele>
        <time>2017-06-04T20:09:07.229Z</time>
      </trkpt>
      <trkpt lat="44.825040" lon="4.800034">
        <ele>97.123126</ele>
        <time>2017-06-04T20:09:09.651Z</time>
      </trkpt>
      <trkpt lat="44.824996" lon="4.800037">
        <ele>97.107056</ele>
        <time>2017-06-04T20:09:10.528Z</time>
      </trkpt>
      <trkpt lat="44.824888" lon="4.800006">
        <ele>97.066850</ele>
        <time>2017-06-04T20:09:12.878Z</time>
      </trkpt>
      <trkpt lat="44.824825" lon="4.799893">
        <ele>97.032814</ele>
        <time>2017-06-04T20:09:14.969Z</time>
      </trkpt>
      <trkpt lat="44.824790" lon="4.799926">
        <ele>97.019904</ele>
        <time>2017-06-04T20:09:15.856Z</time>
      </trkpt>
      <trkpt lat="44.823878" lon="4.798093">
        <ele>96.532977</ele>
        <time>2017-06-04T20:09:49.623Z</time>
      </trkpt>
      <trkpt lat="44.823791" lon="4.798031">
        <ele>96.503088</ele>
        <time>2017-06-04T20:09:52.072Z</time>
      </trkpt>
      <trkpt lat="44.823702" lon="4.798390">
        <ele>96.383430</ele>
        <time>2017-06-04T20:09:58.378Z</time>
      </trkpt>
      <trkpt lat="44.823349" lon="4.799135">
        <ele>96.095747</ele>
        <time>2017-06-04T20:10:13.282Z</time>
      </trkpt>
      <trkpt lat="44.823065" lon="4.799493">
        <ele>95.923283</ele>
        <time>2017-06-04T20:10:22.083Z</time>
      </trkpt>
      <trkpt lat="44.822102" lon="4.800241">
        <ele>95.393355</ele>
        <time>2017-06-04T20:10:46.939Z</time>
      </trkpt>
      <trkpt lat="44.821862" lon="4.800547">
        <ele>95.228598</ele>
        <time>2017-06-04T20:10:54.265Z</time>
      </trkpt>
      <trkpt lat="44.821378" lon="4.800826">
        <ele>94.962363</ele>
        <time>2017-06-04T20:11:06.252Z</time>
      </trkpt>
      <trkpt lat="44.821093" lon="4.800947">
        <ele>94.810817</ele>
        <time>2017-06-04T20:11:13.220Z</time>
      </trkpt>
      <trkpt lat="44.820804" lon="4.801014">
        <ele>94.740158</ele>
        <time>2017-06-04T20:11:20.154Z</time>
      </trkpt>
      <trkpt lat="44.819433" lon="4.801165">
        <ele>94.557291</ele>
        <time>2017-06-04T20:11:53.505Z</time>
      </trkpt>
      <trkpt lat="44.817414" lon="4.801463">
        <ele>94.574401</ele>
        <time>2017-06-04T20:12:43.813Z</time>
      </trkpt>
      <trkpt lat="44.816748" lon="4.801501">
        <ele>94.582926</ele>
        <time>2017-06-04T20:13:00.695Z</time>
      </trkpt>
      <trkpt lat="44.815495" lon="4.801399">
        <ele>94.560108</ele>
        <time>2017-06-04T20:13:31.675Z</time>
      </trkpt>
      <trkpt lat="44.814138" lon="4.801172">
        <ele>94.196820</ele>
        <time>2017-06-04T20:14:03.740Z</time>
      </trkpt>
      <trkpt lat="44.813605" lon="4.801125">
        <ele>94.158713</ele>
        <time>2017-06-04T20:14:16.256Z</time>
      </trkpt>
      <trkpt lat="44.813168" lon="4.801007">
        <ele>94.231860</ele>
        <time>2017-06-04T20:14:27.186Z</time>
      </trkpt>
      <trkpt lat="44.813060" lon="4.800888">
        <ele>94.254395</ele>
        <time>2017-06-04T20:14:30.687Z</time>
      </trkpt>
      <trkpt lat="44.812918" lon="4.800873">
        <ele>94.277804</ele>
        <time>2017-06-04T20:14:34.301Z</time>
      </trkpt>
      <trkpt lat="44.812547" lon="4.800989">
        <ele>94.340277</ele>
        <time>2017-06-04T20:14:44.319Z</time>
      </trkpt>
      <trkpt lat="44.812226" lon="4.800974">
        <ele>94.393077</ele>
        <time>2017-06-04T20:14:52.855Z</time>
      </trkpt>
      <trkpt lat="44.811085" lon="4.800787">
        <ele>94.693112</ele>
        <time>2017-06-04T20:15:23.489Z</time>
      </trkpt>
      <trkpt lat="44.810153" lon="4.800560">
        <ele>94.855137</ele>
        <time>2017-06-04T20:15:47.136Z</time>
      </trkpt>
      <trkpt lat="44.809801" lon="4.800397">
        <ele>94.738037</ele>
        <time>2017-06-04T20:15:55.891Z</time>
      </trkpt>
      <trkpt lat="44.808774" lon="4.799737">
        <ele>94.381306</ele>
        <time>2017-06-04T20:16:22.026Z</time>
      </trkpt>
      <trkpt lat="44.808494" lon="4.799446">
        <ele>94.281098</ele>
        <time>2017-06-04T20:16:30.139Z</time>
      </trkpt>
      <trkpt lat="44.808079" lon="4.799102">
        <ele>94.150986</ele>
        <time>2017-06-04T20:16:41.503Z</time>
      </trkpt>
      <trkpt lat="44.807518" lon="4.798700">
        <ele>93.980907</ele>
        <time>2017-06-04T20:16:56.622Z</time>
      </trkpt>
      <trkpt lat="44.806341" lon="4.797255">
        <ele>93.500426</ele>
        <time>2017-06-04T20:17:33.832Z</time>
      </trkpt>
      <trkpt lat="44.805817" lon="4.796462">
        <ele>93.244628</ele>
        <time>2017-06-04T20:17:51.662Z</time>
      </trkpt>
      <trkpt lat="44.805606" lon="4.796030">
        <ele>93.080822</ele>
        <time>2017-06-04T20:18:00.248Z</time>
      </trkpt>
      <trkpt lat="44.805259" lon="4.794420">
        <ele>92.555285</ele>
        <time>2017-06-04T20:18:27.854Z</time>
      </trkpt>
      <trkpt lat="44.804935" lon="4.793449">
        <ele>92.372895</ele>
        <time>2017-06-04T20:18:45.844Z</time>
      </trkpt>
      <trkpt lat="44.804688" lon="4.793076">
        <ele>92.308131</ele>
        <time>2017-06-04T20:18:54.491Z</time>
      </trkpt>
      <trkpt lat="44.804618" lon="4.792503">
        <ele>92.234326</ele>
        <time>2017-06-04T20:19:04.489Z</time>
      </trkpt>
      <trkpt lat="44.804289" lon="4.791868">
        <ele>92.199940</ele>
        <time>2017-06-04T20:19:18.231Z</time>
      </trkpt>
      <trkpt lat="44.804148" lon="4.791466">
        <ele>92.318919</ele>
        <time>2017-06-04T20:19:26.231Z</time>
      </trkpt>
      <trkpt lat="44.804120" lon="4.791189">
        <ele>92.393155</ele>
        <time>2017-06-04T20:19:31.319Z</time>
      </trkpt>
      <trkpt lat="44.803579" lon="4.789819">
        <ele>92.809148</ele>
        <time>2017-06-04T20:20:01.176Z</time>
      </trkpt>
      <trkpt lat="44.803197" lon="4.788446">
        <ele>93.365900</ele>
        <time>2017-06-04T20:20:29.953Z</time>
      </trkpt>
      <trkpt lat="44.802953" lon="4.787248">
        <ele>93.800854</ele>
        <time>2017-06-04T20:20:53.667Z</time>
      </trkpt>
      <trkpt lat="44.802731" lon="4.786764">
        <ele>93.805734</ele>
        <time>2017-06-04T20:21:03.895Z</time>
      </trkpt>
      <trkpt lat="44.802450" lon="4.785959">
        <ele>93.813331</ele>
        <time>2017-06-04T20:21:19.735Z</time>
      </trkpt>
      <trkpt lat="44.802418" lon="4.785846">
        <ele>93.814362</ele>
        <time>2017-06-04T20:21:21.563Z</time>
      </trkpt>
      <trkpt lat="44.802467" lon="4.785790">
        <ele>93.815115</ele>
        <time>2017-06-04T20:21:23.108Z</time>
      </trkpt>
      <trkpt lat="44.802604" lon="4.786061">
        <ele>93.817932</ele>
        <time>2017-06-04T20:21:28.562Z</time>
      </trkpt>
      <trkpt lat="44.802592" lon="4.785874">
        <ele>93.819523</ele>
        <time>2017-06-04T20:21:31.435Z</time>
      </trkpt>
      <trkpt lat="44.802599" lon="4.785742">
        <ele>93.820643</ele>
        <time>2017-06-04T20:21:33.726Z</time>
      </trkpt>
      <trkpt lat="44.802649" lon="4.785614">
        <ele>93.802761</ele>
        <time>2017-06-04T20:21:36.377Z</time>
      </trkpt>
      <trkpt lat="44.802686" lon="4.785582">
        <ele>93.784466</ele>
        <time>2017-06-04T20:21:37.223Z</time>
      </trkpt>
      <trkpt lat="44.802733" lon="4.785578">
        <ele>93.764623</ele>
        <time>2017-06-04T20:21:38.155Z</time>
      </trkpt>
      <trkpt lat="44.802764" lon="4.785538">
        <ele>93.746911</ele>
        <time>2017-06-04T20:21:39.075Z</time>
      </trkpt>
      <trkpt lat="44.802771" lon="4.785480">
        <ele>93.729319</ele>
        <time>2017-06-04T20:21:40.060Z</time>
      </trkpt>
      <trkpt lat="44.802752" lon="4.785427">
        <ele>93.711563</ele>
        <time>2017-06-04T20:21:41.022Z</time>
      </trkpt>
      <trkpt lat="44.802717" lon="4.785402">
        <ele>93.695027</ele>
        <time>2017-06-04T20:21:41.951Z</time>
      </trkpt>
      <trkpt lat="44.802678" lon="4.785409">
        <ele>93.678459</ele>
        <time>2017-06-04T20:21:42.932Z</time>
      </trkpt>
      <trkpt lat="44.802649" lon="4.785446">
        <ele>93.661974</ele>
        <time>2017-06-04T20:21:43.871Z</time>
      </trkpt>
      <trkpt lat="44.802607" lon="4.785440">
        <ele>93.644183</ele>
        <time>2017-06-04T20:21:44.809Z</time>
      </trkpt>
      <trkpt lat="44.802510" lon="4.785307">
        <ele>93.587152</ele>
        <time>2017-06-04T20:21:47.507Z</time>
      </trkpt>
      <trkpt lat="44.802463" lon="4.785234">
        <ele>93.557677</ele>
        <time>2017-06-04T20:21:49.074Z</time>
      </trkpt>
      <trkpt lat="44.801866" lon="4.784307">
        <ele>93.183336</ele>
        <time>2017-06-04T20:22:08.038Z</time>
      </trkpt>
      <trkpt lat="44.801494" lon="4.783733">
        <ele>93.010405</ele>
        <time>2017-06-04T20:22:19.902Z</time>
      </trkpt>
      <trkpt lat="44.801218" lon="4.783260">
        <ele>92.924188</ele>
        <time>2017-06-04T20:22:29.550Z</time>
      </trkpt>
      <trkpt lat="44.801101" lon="4.783381">
        <ele>92.895393</ele>
        <time>2017-06-04T20:22:32.654Z</time>
      </trkpt>
      <trkpt lat="44.800724" lon="4.783774">
        <ele>92.802352</ele>
        <time>2017-06-04T20:22:42.427Z</time>
      </trkpt>
      <trkpt lat="44.799414" lon="4.785163">
        <ele>92.949236</ele>
        <time>2017-06-04T20:23:20.485Z</time>
      </trkpt>
      <trkpt lat="44.798996" lon="4.785613">
        <ele>93.059671</ele>
        <time>2017-06-04T20:23:32.556Z</time>
      </trkpt>
      <trkpt lat="44.798948" lon="4.785664">
        <ele>93.072292</ele>
        <time>2017-06-04T20:23:34.035Z</time>
      </trkpt>
      <trkpt lat="44.798897" lon="4.785719">
        <ele>93.083596</ele>
        <time>2017-06-04T20:23:35.582Z</time>
      </trkpt>
      <trkpt lat="44.798611" lon="4.785442">
        <ele>93.060827</ele>
        <time>2017-06-04T20:23:43.916Z</time>
      </trkpt>
      <trkpt lat="44.798562" lon="4.785395">
        <ele>93.056938</ele>
        <time>2017-06-04T20:23:45.195Z</time>
      </trkpt>
      <trkpt lat="44.798479" lon="4.785313">
        <ele>93.050288</ele>
        <time>2017-06-04T20:23:47.588Z</time>
      </trkpt>
      <trkpt lat="44.798273" lon="4.785154">
        <ele>93.034878</ele>
        <time>2017-06-04T20:23:53.328Z</time>
      </trkpt>
      <trkpt lat="44.797935" lon="4.784858">
        <ele>93.008768</ele>
        <time>2017-06-04T20:24:02.417Z</time>
      </trkpt>
      <trkpt lat="44.797849" lon="4.784782">
        <ele>93.002108</ele>
        <time>2017-06-04T20:24:04.703Z</time>
      </trkpt>
      <trkpt lat="44.797660" lon="4.784614">
        <ele>92.987447</ele>
        <time>2017-06-04T20:24:09.677Z</time>
      </trkpt>
      <trkpt lat="44.797489" lon="4.784467">
        <ele>92.974305</ele>
        <time>2017-06-04T20:24:13.971Z</time>
      </trkpt>
      <trkpt lat="44.797199" lon="4.784217">
        <ele>92.945265</ele>
        <time>2017-06-04T20:24:21.243Z</time>
      </trkpt>
      <trkpt lat="44.796923" lon="4.783984">
        <ele>92.914078</ele>
        <time>2017-06-04T20:24:28.292Z</time>
      </trkpt>
      <trkpt lat="44.796699" lon="4.783808">
        <ele>92.889217</ele>
        <time>2017-06-04T20:24:34.032Z</time>
      </trkpt>
      <trkpt lat="44.796559" lon="4.783674">
        <ele>92.872811</ele>
        <time>2017-06-04T20:24:38.015Z</time>
      </trkpt>
      <trkpt lat="44.795868" lon="4.783224">
        <ele>92.799021</ele>
        <time>2017-06-04T20:24:56.124Z</time>
      </trkpt>
      <trkpt lat="44.795662" lon="4.783111">
        <ele>92.768345</ele>
        <time>2017-06-04T20:25:01.243Z</time>
      </trkpt>
      <trkpt lat="44.795527" lon="4.783036">
        <ele>92.745090</ele>
        <time>2017-06-04T20:25:04.724Z</time>
      </trkpt>
      <trkpt lat="44.795256" lon="4.782892">
        <ele>92.698676</ele>
        <time>2017-06-04T20:25:11.284Z</time>
      </trkpt>
      <trkpt lat="44.795142" lon="4.782833">
        <ele>92.679214</ele>
        <time>2017-06-04T20:25:14.112Z</time>
      </trkpt>
      <trkpt lat="44.795035" lon="4.782781">
        <ele>92.661075</ele>
        <time>2017-06-04T20:25:16.621Z</time>
      </trkpt>
      <trkpt lat="44.794872" lon="4.782615">
        <ele>92.628846</ele>
        <time>2017-06-04T20:25:21.175Z</time>
      </trkpt>
      <trkpt lat="44.794520" lon="4.782196">
        <ele>92.555004</ele>
        <time>2017-06-04T20:25:31.273Z</time>
      </trkpt>
      <trkpt lat="44.794349" lon="4.781970">
        <ele>92.517434</ele>
        <time>2017-06-04T20:25:36.580Z</time>
      </trkpt>
      <trkpt lat="44.793611" lon="4.781523">
        <ele>92.133798</ele>
        <time>2017-06-04T20:25:54.142Z</time>
      </trkpt>
      <trkpt lat="44.793563" lon="4.781510">
        <ele>92.108573</ele>
        <time>2017-06-04T20:25:55.140Z</time>
      </trkpt>
      <trkpt lat="44.793489" lon="4.781445">
        <ele>92.063571</ele>
        <time>2017-06-04T20:25:57.016Z</time>
      </trkpt>
      <trkpt lat="44.793388" lon="4.781361">
        <ele>92.003045</ele>
        <time>2017-06-04T20:25:59.505Z</time>
      </trkpt>
      <trkpt lat="44.793282" lon="4.781235">
        <ele>91.931477</ele>
        <time>2017-06-04T20:26:02.353Z</time>
      </trkpt>
      <trkpt lat="44.792836" lon="4.780855">
        <ele>91.662503</ele>
        <time>2017-06-04T20:26:13.231Z</time>
      </trkpt>
      <trkpt lat="44.792132" lon="4.780407">
        <ele>91.355479</ele>
        <time>2017-06-04T20:26:29.838Z</time>
      </trkpt>
      <trkpt lat="44.790036" lon="4.778634">
        <ele>90.651730</ele>
        <time>2017-06-04T20:27:24.082Z</time>
      </trkpt>
      <trkpt lat="44.789600" lon="4.778224">
        <ele>90.539126</ele>
        <time>2017-06-04T20:27:35.912Z</time>
      </trkpt>
      <trkpt lat="44.788991" lon="4.777677">
        <ele>90.564800</ele>
        <time>2017-06-04T20:27:52.585Z</time>
      </trkpt>
      <trkpt lat="44.788144" lon="4.776958">
        <ele>90.608833</ele>
        <time>2017-06-04T20:28:15.896Z</time>
      </trkpt>
      <trkpt lat="44.787725" lon="4.776650">
        <ele>90.677566</ele>
        <time>2017-06-04T20:28:27.162Z</time>
      </trkpt>
      <trkpt lat="44.785892" lon="4.775445">
        <ele>91.228482</ele>
        <time>2017-06-04T20:29:15.492Z</time>
      </trkpt>
      <trkpt lat="44.785644" lon="4.775330">
        <ele>91.360925</ele>
        <time>2017-06-04T20:29:22.037Z</time>
      </trkpt>
      <trkpt lat="44.783980" lon="4.774785">
        <ele>92.143677</ele>
        <time>2017-06-04T20:30:06.541Z</time>
      </trkpt>
      <trkpt lat="44.782351" lon="4.774190">
        <ele>92.353598</ele>
        <time>2017-06-04T20:30:46.662Z</time>
      </trkpt>
      <trkpt lat="44.782187" lon="4.774117">
        <ele>92.298801</ele>
        <time>2017-06-04T20:30:50.295Z</time>
      </trkpt>
      <trkpt lat="44.782094" lon="4.773983">
        <ele>92.256418</ele>
        <time>2017-06-04T20:30:53.239Z</time>
      </trkpt>
      <trkpt lat="44.781980" lon="4.773892">
        <ele>92.214673</ele>
        <time>2017-06-04T20:30:56.027Z</time>
      </trkpt>
      <trkpt lat="44.781909" lon="4.773852">
        <ele>92.190310</ele>
        <time>2017-06-04T20:30:57.564Z</time>
      </trkpt>
      <trkpt lat="44.781751" lon="4.773685">
        <ele>92.127379</ele>
        <time>2017-06-04T20:31:01.883Z</time>
      </trkpt>
      <trkpt lat="44.781599" lon="4.773672">
        <ele>92.078861</ele>
        <time>2017-06-04T20:31:05.001Z</time>
      </trkpt>
      <trkpt lat="44.781519" lon="4.773801">
        <ele>92.040122</ele>
        <time>2017-06-04T20:31:07.634Z</time>
      </trkpt>
      <trkpt lat="44.781595" lon="4.774203">
        <ele>91.923648</ele>
        <time>2017-06-04T20:31:13.788Z</time>
      </trkpt>
      <trkpt lat="44.781561" lon="4.774273">
        <ele>91.893193</ele>
        <time>2017-06-04T20:31:15.112Z</time>
      </trkpt>
      <trkpt lat="44.781506" lon="4.774270">
        <ele>91.865351</ele>
        <time>2017-06-04T20:31:16.288Z</time>
      </trkpt>
      <trkpt lat="44.781403" lon="4.774131">
        <ele>91.793201</ele>
        <time>2017-06-04T20:31:19.234Z</time>
      </trkpt>
      <trkpt lat="44.781338" lon="4.774131">
        <ele>91.760321</ele>
        <time>2017-06-04T20:31:20.515Z</time>
      </trkpt>
      <trkpt lat="44.781281" lon="4.774147">
        <ele>91.730921</ele>
        <time>2017-06-04T20:31:21.760Z</time>
      </trkpt>
      <trkpt lat="44.781073" lon="4.774333">
        <ele>91.606299</ele>
        <time>2017-06-04T20:31:27.006Z</time>
      </trkpt>
      <trkpt lat="44.781000" lon="4.774367">
        <ele>91.567406</ele>
        <time>2017-06-04T20:31:28.613Z</time>
      </trkpt>
      <trkpt lat="44.780973" lon="4.774287">
        <ele>91.535600</ele>
        <time>2017-06-04T20:31:29.988Z</time>
      </trkpt>
      <trkpt lat="44.780790" lon="4.773829">
        <ele>91.346888</ele>
        <time>2017-06-04T20:31:37.833Z</time>
      </trkpt>
      <trkpt lat="44.780164" lon="4.772554">
        <ele>90.874804</ele>
        <time>2017-06-04T20:32:00.770Z</time>
      </trkpt>
      <trkpt lat="44.779652" lon="4.771379">
        <ele>90.527123</ele>
        <time>2017-06-04T20:32:21.367Z</time>
      </trkpt>
      <trkpt lat="44.779247" lon="4.770672">
        <ele>90.473107</ele>
        <time>2017-06-04T20:32:34.962Z</time>
      </trkpt>
      <trkpt lat="44.778838" lon="4.770101">
        <ele>90.529425</ele>
        <time>2017-06-04T20:32:47.530Z</time>
      </trkpt>
      <trkpt lat="44.778499" lon="4.769722">
        <ele>90.571754</ele>
        <time>2017-06-04T20:32:57.318Z</time>
      </trkpt>
      <trkpt lat="44.776219" lon="4.767472">
        <ele>92.329748</ele>
        <time>2017-06-04T20:34:07.572Z</time>
      </trkpt>
      <trkpt lat="44.775881" lon="4.767485">
        <ele>92.571413</ele>
        <time>2017-06-04T20:34:16.420Z</time>
      </trkpt>
      <trkpt lat="44.775096" lon="4.767811">
        <ele>93.156339</ele>
        <time>2017-06-04T20:34:37.018Z</time>
      </trkpt>
      <trkpt lat="44.774887" lon="4.767844">
        <ele>93.180673</ele>
        <time>2017-06-04T20:34:42.145Z</time>
      </trkpt>
      <trkpt lat="44.774497" lon="4.767858">
        <ele>93.131196</ele>
        <time>2017-06-04T20:34:51.147Z</time>
      </trkpt>
      <trkpt lat="44.773590" lon="4.767665">
        <ele>93.014863</ele>
        <time>2017-06-04T20:35:10.492Z</time>
      </trkpt>
      <trkpt lat="44.773123" lon="4.767659">
        <ele>92.881406</ele>
        <time>2017-06-04T20:35:20.266Z</time>
      </trkpt>
      <trkpt lat="44.773020" lon="4.767653">
        <ele>92.807356</ele>
        <time>2017-06-04T20:35:22.154Z</time>
      </trkpt>
      <trkpt lat="44.772706" lon="4.767626">
        <ele>92.581383</ele>
        <time>2017-06-04T20:35:28.592Z</time>
      </trkpt>
      <trkpt lat="44.772568" lon="4.768293">
        <ele>92.227102</ele>
        <time>2017-06-04T20:35:38.320Z</time>
      </trkpt>
      <trkpt lat="44.772541" lon="4.769045">
        <ele>91.843136</ele>
        <time>2017-06-04T20:35:48.851Z</time>
      </trkpt>
      <trkpt lat="44.770780" lon="4.768926">
        <ele>90.702842</ele>
        <time>2017-06-04T20:36:25.772Z</time>
      </trkpt>
      <trkpt lat="44.770787" lon="4.768562">
        <ele>90.538386</ele>
        <time>2017-06-04T20:36:31.036Z</time>
      </trkpt>
      <trkpt lat="44.770791" lon="4.768387">
        <ele>90.500680</ele>
        <time>2017-06-04T20:36:33.628Z</time>
      </trkpt>
      <trkpt lat="44.770760" lon="4.766728">
        <ele>90.159200</ele>
        <time>2017-06-04T20:36:58.781Z</time>
      </trkpt>
      <trkpt lat="44.770751" lon="4.766524">
        <ele>90.117143</ele>
        <time>2017-06-04T20:37:01.968Z</time>
      </trkpt>
      <trkpt lat="44.770701" lon="4.766524">
        <ele>90.102651</ele>
        <time>2017-06-04T20:37:03.088Z</time>
      </trkpt>
      <trkpt lat="44.770651" lon="4.767070">
        <ele>89.988268</ele>
        <time>2017-06-04T20:37:11.546Z</time>
      </trkpt>
      <trkpt lat="44.770621" lon="4.767088">
        <ele>89.978393</ele>
        <time>2017-06-04T20:37:12.251Z</time>
      </trkpt>
      <trkpt lat="44.770592" lon="4.767019">
        <ele>89.961153</ele>
        <time>2017-06-04T20:37:13.458Z</time>
      </trkpt>
      <trkpt lat="44.770549" lon="4.766316">
        <ele>89.809446</ele>
        <time>2017-06-04T20:37:24.087Z</time>
      </trkpt>
      <trkpt lat="44.770315" lon="4.764717">
        <ele>89.463552</ele>
        <time>2017-06-04T20:37:48.430Z</time>
      </trkpt>
      <trkpt lat="44.769978" lon="4.763346">
        <ele>89.299008</ele>
        <time>2017-06-04T20:38:10.513Z</time>
      </trkpt>
      <trkpt lat="44.769646" lon="4.762275">
        <ele>89.194456</ele>
        <time>2017-06-04T20:38:28.865Z</time>
      </trkpt>
      <trkpt lat="44.769326" lon="4.761543">
        <ele>89.273328</ele>
        <time>2017-06-04T20:38:42.628Z</time>
      </trkpt>
      <trkpt lat="44.768905" lon="4.760820">
        <ele>89.359122</ele>
        <time>2017-06-04T20:38:57.927Z</time>
      </trkpt>
      <trkpt lat="44.768568" lon="4.760433">
        <ele>89.415327</ele>
        <time>2017-06-04T20:39:07.996Z</time>
      </trkpt>
      <trkpt lat="44.768197" lon="4.760084">
        <ele>89.473827</ele>
        <time>2017-06-04T20:39:18.268Z</time>
      </trkpt>
      <trkpt lat="44.767721" lon="4.759746">
        <ele>89.543727</ele>
        <time>2017-06-04T20:39:30.469Z</time>
      </trkpt>
      <trkpt lat="44.759657" lon="4.756033">
        <ele>90.409605</ele>
        <time>2017-06-04T20:42:41.372Z</time>
      </trkpt>
      <trkpt lat="44.758777" lon="4.755717">
        <ele>90.872752</ele>
        <time>2017-06-04T20:43:04.195Z</time>
      </trkpt>
      <trkpt lat="44.758104" lon="4.755567">
        <ele>91.128943</ele>
        <time>2017-06-04T20:43:21.352Z</time>
      </trkpt>
      <trkpt lat="44.757552" lon="4.755501">
        <ele>91.222770</ele>
        <time>2017-06-04T20:43:34.358Z</time>
      </trkpt>
      <trkpt lat="44.757448" lon="4.755481">
        <ele>91.240548</ele>
        <time>2017-06-04T20:43:37.187Z</time>
      </trkpt>
      <trkpt lat="44.757351" lon="4.755501">
        <ele>91.257151</ele>
        <time>2017-06-04T20:43:39.175Z</time>
      </trkpt>
      <trkpt lat="44.757044" lon="4.755456">
        <ele>91.309428</ele>
        <time>2017-06-04T20:43:45.756Z</time>
      </trkpt>
      <trkpt lat="44.756972" lon="4.755500">
        <ele>91.322721</ele>
        <time>2017-06-04T20:43:47.397Z</time>
      </trkpt>
      <trkpt lat="44.756929" lon="4.755588">
        <ele>91.335568</ele>
        <time>2017-06-04T20:43:48.750Z</time>
      </trkpt>
      <trkpt lat="44.756792" lon="4.756579">
        <ele>91.388176</ele>
        <time>2017-06-04T20:44:04.695Z</time>
      </trkpt>
      <trkpt lat="44.756753" lon="4.756654">
        <ele>91.388176</ele>
        <time>2017-06-04T20:44:06.232Z</time>
      </trkpt>
      <trkpt lat="44.756530" lon="4.756760">
        <ele>91.388176</ele>
        <time>2017-06-04T20:44:11.768Z</time>
      </trkpt>
      <trkpt lat="44.756474" lon="4.756788">
        <ele>91.388176</ele>
        <time>2017-06-04T20:44:12.780Z</time>
      </trkpt>
      <trkpt lat="44.756414" lon="4.756601">
        <ele>91.388176</ele>
        <time>2017-06-04T20:44:17.045Z</time>
      </trkpt>
      <trkpt lat="44.756415" lon="4.756500">
        <ele>91.388176</ele>
        <time>2017-06-04T20:44:19.146Z</time>
      </trkpt>
      <trkpt lat="44.756704" lon="4.756517">
        <ele>91.388176</ele>
        <time>2017-06-04T20:44:27.256Z</time>
      </trkpt>
      <trkpt lat="44.756714" lon="4.756305">
        <ele>91.388176</ele>
        <time>2017-06-04T20:44:31.873Z</time>
      </trkpt>
      <trkpt lat="44.756724" lon="4.756101">
        <ele>91.388176</ele>
        <time>2017-06-04T20:44:35.802Z</time>
      </trkpt>
    </trkseg>
  </trk>
</gpx>